Provisional Data: Quittapahilla Creek near Syner, PA


Please select a monitoring station.
Please select start date.
Please select start date.

Toggle Unit: C/F Toggle Unit: C/F
Sample Time Temperature (C) Temperature (F) Specific Conductivity (mS/cm) pH   Turbidity (NTU+) DO (mg/L)
4/13/2022 12:00:00 AM 13.89 57.002 0.718 8.04 1409 8.99
4/13/2022 12:15:00 AM 13.83 56.894 0.725 8.03 1419 8.96
4/13/2022 12:30:00 AM 13.8 56.84 0.729 8.01 1378 8.9
4/13/2022 12:45:00 AM 13.76 56.768 0.729 8.05 1222 8.85
4/13/2022 1:00:00 AM 13.72 56.696 0.727 8.06 1171 8.83
4/13/2022 1:15:00 AM 13.68 56.624 0.73 8.02 1110 8.81
4/13/2022 1:30:00 AM 13.63 56.534 0.715 7.96 1086 8.78
4/13/2022 1:45:00 AM 13.57 56.426 0.73 7.97 1116 8.78
4/13/2022 2:00:00 AM 13.52 56.336 0.731 8.01 1139 8.76
4/13/2022 2:15:00 AM 13.47 56.246 0.731 8 1185 8.75
4/13/2022 2:30:00 AM 13.42 56.156 0.731 8 1239 8.73
4/13/2022 2:45:00 AM 13.38 56.084 0.717 8.02 1261 8.72
4/13/2022 3:00:00 AM 13.33 55.994 0.726 7.96 1305 8.72
4/13/2022 3:15:00 AM 13.29 55.922 0.729 7.96 1216 8.71
4/13/2022 3:30:00 AM 13.25 55.85 0.719 7.96 1228 8.71
4/13/2022 3:45:00 AM 13.22 55.796 0.729 8.01 1208 8.7
4/13/2022 4:00:00 AM 13.18 55.724 0.73 8.01 1247 8.7
4/13/2022 4:15:00 AM 13.15 55.67 0.73 7.99 1316 8.7
4/13/2022 4:30:00 AM 13.11 55.598 0.73 7.97 1255 8.7
4/13/2022 4:45:00 AM 13.07 55.526 0.723 7.95 1312 8.69
4/13/2022 5:00:00 AM 13.02 55.436 0.723 7.94 1300 8.69
4/13/2022 5:15:00 AM 12.97 55.346 0.73 7.97 1308 8.69
4/13/2022 5:30:00 AM 12.92 55.256 0.732 7.96 1273 8.68
4/13/2022 5:45:00 AM 12.87 55.166 0.731 8 1275 8.69
4/13/2022 6:00:00 AM 12.82 55.076 0.731 8 1310 8.71
4/13/2022 6:15:00 AM 12.78 55.004 0.731 8.01 1310 8.72
4/13/2022 6:30:00 AM 12.74 54.932 0.73 7.98 1304 8.73
4/13/2022 6:45:00 AM 12.7 54.86 0.73 7.99 1287 8.75
4/13/2022 7:00:00 AM 12.67 54.806 0.721 8.03 1246 8.8
4/13/2022 7:15:00 AM 12.64 54.752 0.731 7.98 1252 8.86
4/13/2022 7:30:00 AM 12.62 54.716 0.728 7.98 1250 8.92
4/13/2022 7:45:00 AM 12.6 54.68 0.731 7.97 1230 8.99
4/13/2022 8:00:00 AM 12.58 54.644 0.731 7.97 1254 9.07
4/13/2022 8:15:00 AM 12.57 54.626 0.73 8 1293 9.18
4/13/2022 8:30:00 AM 12.6 54.68 0.73 7.96 1346 9.37
4/13/2022 8:45:00 AM 12.63 54.734 0.73 8.04 1401 9.62
4/13/2022 9:00:00 AM 12.68 54.824 0.73 8.05 1407 9.82
4/13/2022 9:15:00 AM 12.75 54.95 0.733 8.02 1400 10
4/13/2022 9:30:00 AM 12.85 55.13 0.732 8.01 1421 10.16
4/13/2022 9:45:00 AM 12.95 55.31 0.731 8.06 1379 10.35
4/13/2022 10:00:00 AM 13.06 55.508 0.733 8.07 1391 10.56
4/13/2022 10:15:00 AM 13.17 55.706 0.733 8.07 1442 10.77
4/13/2022 10:30:00 AM 13.31 55.958 0.729 8.08 1444 10.98
4/13/2022 10:45:00 AM 13.44 56.192 0.729 8.11 1417 11.19
4/13/2022 11:00:00 AM 13.55 56.39 0.728 8.15 1568 11.38
4/13/2022 11:15:00 AM 13.63 56.534 0.731 8.28 1549 11.52
4/13/2022 11:30:00 AM 13.71 56.678 0.732 8.32 1502 11.66
4/13/2022 11:45:00 AM 13.85 56.93 0.731 8.32 1448 11.82
4/13/2022 12:00:00 PM 13.94 57.092 0.729 8.34 1452 11.98
4/13/2022 12:15:00 PM 14.03 57.254 0.728 8.33 1612 12.13
4/13/2022 12:30:00 PM 14.09 57.362 0.728 8.35 1842 12.22
4/13/2022 12:45:00 PM 14.15 57.47 0.724 8.35 1825 12.31
4/13/2022 1:00:00 PM 14.23 57.614 0.728 8.37 1909 12.44
4/13/2022 1:15:00 PM 14.34 57.812 0.728 8.31 1838 12.57
4/13/2022 1:30:00 PM 14.44 57.992 0.718 8.34 1940 12.68
4/13/2022 1:45:00 PM 14.52 58.136 0.725 8.36 1877 12.73
4/13/2022 2:00:00 PM 14.57 58.226 0.725 8.39 1805 12.73
4/13/2022 2:15:00 PM 14.63 58.334 0.726 8.36 1645 12.75
4/13/2022 2:30:00 PM 14.7 58.46 0.725 8.34 1540 12.79
4/13/2022 2:45:00 PM 14.77 58.586 0.724 8.39 1386 12.82
4/13/2022 3:00:00 PM 14.82 58.676 0.721 8.4 1235 12.82
4/13/2022 3:15:00 PM 14.88 58.784 0.724 8.41 1319 12.82
4/13/2022 3:30:00 PM 14.92 58.856 0.723 8.37 1468 12.81
4/13/2022 3:45:00 PM 14.98 58.964 0.723 8.43 1871 12.77
4/13/2022 4:00:00 PM 15.03 59.054 0.723 8.44 2034 12.73
4/13/2022 4:15:00 PM 15.08 59.144 0.723 8.42 2312 12.68
4/13/2022 4:30:00 PM 15.11 59.198 0.725 8.46 2693 12.62
4/13/2022 4:45:00 PM 15.15 59.27 0.717 8.4 1755 12.56
4/13/2022 5:00:00 PM 15.16 59.288 0.725 8.41 1725 12.48
4/13/2022 5:15:00 PM 15.17 59.306 0.728 8.47 1612 12.37
4/13/2022 5:30:00 PM 15.18 59.324 0.728 8.41 1630 12.24
4/13/2022 5:45:00 PM 15.19 59.342 0.726 8.45 1364 12.16
4/13/2022 6:00:00 PM 15.18 59.324 0.727 8.41 1161 11.99
4/13/2022 6:15:00 PM 15.18 59.324 0.714 8.39 1093 11.84
4/13/2022 6:30:00 PM 15.18 59.324 0.726 8.44 1117 11.65
4/13/2022 6:45:00 PM 15.16 59.288 0.724 8.36 1110 11.43
4/13/2022 7:00:00 PM 15.14 59.252 0.673 8.21 1153 11.23
4/13/2022 7:15:00 PM 15.12 59.216 0.73 8.18 1225 11
4/13/2022 7:30:00 PM 15.09 59.162 0.714 8.16 1308 10.8
4/13/2022 7:45:00 PM 15.06 59.108 0.623 8.17 1323 10.63
4/13/2022 8:00:00 PM 15.02 59.036 0.723 8.14 1325 10.41
4/13/2022 8:15:00 PM 14.99 58.982 0.728 8.11 1309 10.22
4/13/2022 8:30:00 PM 14.95 58.91 0.712 8.13 1344 10.06
4/13/2022 8:45:00 PM 14.92 58.856 0.715 8.11 1359 9.92
4/13/2022 9:00:00 PM 14.89 58.802 0.732 8.09 1384 9.76
4/13/2022 9:15:00 PM 14.86 58.748 0.703 8.08 1385 9.64
4/13/2022 9:30:00 PM 14.83 58.694 0.733 8.1 1397 9.54
4/13/2022 9:45:00 PM 14.8 58.64 0.729 8.06 1379 9.43
4/13/2022 10:00:00 PM 14.77 58.586 0.731 8.06 1383 9.33
4/13/2022 10:15:00 PM 14.73 58.514 0.733 8.04 1411 9.26
4/13/2022 10:30:00 PM 14.7 58.46 0.716 8.04 1495 9.17
4/13/2022 10:45:00 PM 14.66 58.388 0.713 8.03 1496 9.1
4/13/2022 11:00:00 PM 14.63 58.334 0.72 8.01 1542 9.04
4/13/2022 11:15:00 PM 14.6 58.28 0.732 7.99 1579 8.97
4/13/2022 11:30:00 PM 14.56 58.208 0.729 8 1564 8.91
4/13/2022 11:45:00 PM 14.53 58.154 0.584 8 1626 8.86
4/14/2022 12:00:00 AM 14.5 58.1 0.732 8 1610 8.8
4/14/2022 12:15:00 AM 14.46 58.028 0.718 7.99 1643 8.74
4/14/2022 12:30:00 AM 14.43 57.974 0.71 7.99 1506 8.7
4/14/2022 12:45:00 AM 14.4 57.92 0.734 7.98 1252 8.64
4/14/2022 1:00:00 AM 14.36 57.848 0.735 8 1137 8.61
4/14/2022 1:15:00 AM 14.33 57.794 0.641 7.96 1168 8.57
4/14/2022 1:30:00 AM 14.3 57.74 0.734 7.96 1216 8.53
4/14/2022 1:45:00 AM 14.27 57.686 0.73 7.97 1259 8.51
4/14/2022 2:00:00 AM 14.25 57.65 0.62 7.95 1322 8.49
4/14/2022 2:15:00 AM 14.23 57.614 0.732 7.97 1397 8.46
4/14/2022 2:30:00 AM 14.2 57.56 0.736 7.95 1469 8.44
4/14/2022 2:45:00 AM 14.18 57.524 0.737 7.94 1546 8.41
4/14/2022 3:00:00 AM 14.17 57.506 0.728 7.94 1579 8.38
4/14/2022 3:15:00 AM 14.18 57.524 0.734 7.9 1595 8.32
4/14/2022 3:30:00 AM 14.19 57.542 0.732 7.91 1840 8.24
4/14/2022 3:45:00 AM 14.17 57.506 0.737 7.92 2046 8.2
4/14/2022 4:00:00 AM 14.14 57.452 0.737 7.91 2176 8.19
4/14/2022 4:15:00 AM 14.11 57.398 0.737 7.93 2495 8.18
4/14/2022 4:30:00 AM 14.07 57.326 0.736 7.93 2813 8.19
4/14/2022 4:45:00 AM 14.03 57.254 0.735 7.91 3025 8.19
4/14/2022 5:00:00 AM 13.97 57.146 0.736 7.92 3160 8.22
4/14/2022 5:15:00 AM 13.89 57.002 0.735 7.93 3279 8.29
4/14/2022 5:30:00 AM 13.83 56.894 0.736 7.91 3339 8.33
4/14/2022 5:45:00 AM 13.78 56.804 0.735 7.92 3469 8.35
4/14/2022 6:00:00 AM 13.73 56.714 0.736 7.94 3565 8.37
4/14/2022 6:15:00 AM 13.68 56.624 0.736 7.9 3699 8.39
4/14/2022 6:30:00 AM 13.64 56.552 0.736 7.92 4097 8.41
4/14/2022 6:45:00 AM 13.6 56.48 0.735 7.91 4078 8.42
4/14/2022 7:00:00 AM 13.56 56.408 0.734 7.92 4065 8.44
4/14/2022 7:15:00 AM 13.52 56.336 0.734 7.87 4110 8.5
4/14/2022 7:30:00 AM 13.5 56.3 0.735 7.9 4091 8.57
4/14/2022 7:45:00 AM 13.48 56.264 0.735 7.92 4071 8.65
4/14/2022 8:00:00 AM 13.47 56.246 0.736 7.89 4080 8.78
4/14/2022 8:15:00 AM 13.49 56.282 0.736 7.92 4073 8.97
4/14/2022 8:30:00 AM 13.52 56.336 0.737 7.92 4137 9.16
4/14/2022 8:45:00 AM 13.57 56.426 0.738 7.9 4223 9.37
4/14/2022 9:00:00 AM 13.66 56.588 0.738 7.93 4279 9.57
4/14/2022 9:15:00 AM 13.75 56.75 0.738 7.98 4168 9.8
4/14/2022 9:30:00 AM 13.85 56.93 0.738 8.03 4169 10.04
4/14/2022 9:45:00 AM 13.97 57.146 0.738 8.05 4189 10.26
4/14/2022 10:00:00 AM 14.09 57.362 0.737 8.04 4201 10.48
4/14/2022 10:15:00 AM 14.21 57.578 0.737 8.04 4210 10.71
4/14/2022 10:30:00 AM 14.34 57.812 0.736 8.06 4231 10.9
4/14/2022 10:45:00 AM 14.47 58.046 0.736 8.09 4206 11.11
4/14/2022 11:00:00 AM 14.62 58.316 0.736 8.1 4254 11.33
4/14/2022 11:15:00 AM 14.77 58.586 0.735 8.11 4195 11.53
4/14/2022 11:30:00 AM 14.92 58.856 0.735 8.13 4178 11.71
4/14/2022 11:45:00 AM 15.08 59.144 0.734 8.17 4136 11.88
4/14/2022 12:00:00 PM 15.18 59.324 0.734 8.13 4282 12
4/14/2022 12:15:00 PM 15.19 59.342 0.734 8.25 4294 12.07
4/14/2022 12:30:00 PM 15.22 59.396 0.734 8.21 4304 12.07
4/14/2022 12:45:00 PM 15.3 59.54 0.733 8.2 4245 12.16
4/14/2022 1:00:00 PM 15.36 59.648 0.733 8.2 3936 12.27
4/14/2022 1:15:00 PM 15.33 59.594 0.733 8.24 3706 12.28
4/14/2022 1:30:00 PM 15.34 59.612 0.733 8.31 3596 12.27
4/14/2022 1:45:00 PM 15.36 59.648 0.734 8.27 3230 12.26
4/14/2022 2:00:00 PM 15.33 59.594 0.734 8.23 2908 12.11
4/14/2022 2:15:00 PM 15.27 59.486 0.734 8.21 2883 11.82
4/14/2022 2:30:00 PM 15.23 59.414 0.732 8.17 2597 11.57
4/14/2022 2:45:00 PM 15.19 59.342 0.734 8.17 2713 11.35
4/14/2022 3:00:00 PM 15.17 59.306 0.734 8.15 2428 11.18
4/14/2022 3:15:00 PM 15.15 59.27 0.734 8.15 2427 11.07
4/14/2022 3:30:00 PM 15.17 59.306 0.734 8.15 2128 11.11
4/14/2022 3:45:00 PM 15.23 59.414 0.733 8.15 2072 11.26
4/14/2022 4:00:00 PM 15.25 59.45 0.733 8.22 1893 11.36
4/14/2022 4:15:00 PM 15.3 59.54 0.733 8.18 1830 11.44
4/14/2022 4:30:00 PM 15.31 59.558 0.732 8.17 1755 11.52
4/14/2022 4:45:00 PM 15.32 59.576 0.732 8.2 1718 11.55
4/14/2022 5:00:00 PM 15.33 59.594 0.732 8.19 1670 11.63
4/14/2022 5:15:00 PM 15.3 59.54 0.732 8.2 1689 11.62
4/14/2022 5:30:00 PM 15.28 59.504 0.732 8.22 1782 11.58
4/14/2022 5:45:00 PM 15.25 59.45 0.732 8.2 4579 11.49
4/14/2022 6:00:00 PM 15.22 59.396 0.732 8.22 4499 11.41
4/14/2022 6:15:00 PM 15.18 59.324 0.733 8.21 4696 11.32
4/14/2022 6:30:00 PM 15.14 59.252 0.732 8.18 4753 11.22
4/14/2022 6:45:00 PM 15.09 59.162 0.733 8.18 4640 11.09
4/14/2022 7:00:00 PM 15.04 59.072 0.732 8.2 4913 10.92
4/14/2022 7:15:00 PM 14.96 58.928 0.733 8.17 4927 10.66
4/14/2022 7:30:00 PM 14.86 58.748 0.734 8.15 4937 10.45
4/14/2022 7:45:00 PM 14.76 58.568 0.735 8.13 4937 10.26
4/14/2022 8:00:00 PM 14.7 58.46 0.739 8.1 4937 10.07
4/14/2022 8:15:00 PM 14.66 58.388 0.745 8.09 4937 9.89
4/14/2022 8:30:00 PM 14.62 58.316 0.749 8.08 4937 9.74
4/14/2022 8:45:00 PM 14.58 58.244 0.75 8.09 4937 9.62
4/14/2022 9:00:00 PM 14.57 58.226 0.749 8.05 4937 9.48
4/14/2022 9:15:00 PM 14.52 58.136 0.747 8.03 4937 9.4
4/14/2022 9:30:00 PM 14.45 58.01 0.744 8.03 4937 9.32
4/14/2022 9:45:00 PM 14.38 57.884 0.741 8.03 4937 9.26
4/14/2022 10:00:00 PM 14.32 57.776 0.739 8.06 4937 9.21
4/14/2022 10:15:00 PM 14.25 57.65 0.738 8.02 4937 9.16
4/14/2022 10:30:00 PM 14.19 57.542 0.738 8.04 4937 9.1
4/14/2022 10:45:00 PM 14.12 57.416 0.737 8.03 4937 9.07
4/14/2022 11:00:00 PM 14.06 57.308 0.737 8.02 4937 9.01
4/14/2022 11:15:00 PM 13.99 57.182 0.737 8 4937 8.99
4/14/2022 11:30:00 PM 13.92 57.056 0.738 8.01 4937 8.96
4/14/2022 11:45:00 PM 13.85 56.93 0.737 7.99 4937 8.94
4/15/2022 12:00:00 AM 13.78 56.804 0.738 8 4937 8.9
4/15/2022 12:15:00 AM 13.71 56.678 0.737 8.02 4937 8.87
4/15/2022 12:30:00 AM 13.64 56.552 0.737 7.98 4937 8.86
4/15/2022 12:45:00 AM 13.57 56.426 0.736 8.02 4937 8.86
4/15/2022 1:00:00 AM 13.51 56.318 0.736 7.99 4937 8.85
4/15/2022 1:15:00 AM 13.44 56.192 0.735 8.03 4793 8.83
4/15/2022 1:30:00 AM 13.38 56.084 0.734 7.98 4911 8.82
4/15/2022 1:45:00 AM 13.32 55.976 0.733 7.98 4887 8.81
4/15/2022 2:00:00 AM 13.26 55.868 0.734 7.99 4878 8.8
4/15/2022 2:15:00 AM 13.2 55.76 0.735 8 4935 8.8
4/15/2022 2:30:00 AM 13.14 55.652 0.735 8.05 4937 8.8
4/15/2022 2:45:00 AM 13.07 55.526 0.736 8.02 4938 8.79
4/15/2022 3:00:00 AM 13 55.4 0.737 7.99 4938 8.79
4/15/2022 3:15:00 AM 12.93 55.274 0.738 8.01 4938 8.78
4/15/2022 3:30:00 AM 12.85 55.13 0.739 8 4938 8.8
4/15/2022 3:45:00 AM 12.78 55.004 0.739 7.97 4937 8.81
4/15/2022 4:00:00 AM 12.71 54.878 0.74 7.97 4938 8.8
4/15/2022 4:15:00 AM 12.64 54.752 0.74 7.95 4015 8.81
4/15/2022 4:30:00 AM 12.56 54.608 0.74 7.97 3862 8.82
4/15/2022 4:45:00 AM 12.49 54.482 0.741 7.94 3830 8.82
4/15/2022 5:00:00 AM 12.41 54.338 0.741 7.94 3781 8.84
4/15/2022 5:15:00 AM 12.34 54.212 0.74 7.97 3670 8.84
4/15/2022 5:30:00 AM 12.26 54.068 0.74 7.94 3862 8.86
4/15/2022 5:45:00 AM 12.19 53.942 0.74 7.89 3968 8.88
4/15/2022 6:00:00 AM 12.11 53.798 0.74 7.91 3964 8.89
4/15/2022 6:15:00 AM 12.04 53.672 0.74 7.94 3981 8.92
4/15/2022 6:30:00 AM 11.97 53.546 0.74 7.9 3827 8.95
4/15/2022 6:45:00 AM 11.9 53.42 0.739 7.89 3910 8.99
4/15/2022 7:00:00 AM 11.84 53.312 0.739 7.87 3832 9.04
4/15/2022 7:15:00 AM 11.78 53.204 0.739 7.89 3956 9.13
4/15/2022 7:30:00 AM 11.73 53.114 0.739 7.87 4047 9.22
4/15/2022 7:45:00 AM 11.7 53.06 0.739 7.88 4314 9.34
4/15/2022 8:00:00 AM 11.67 53.006 0.739 7.9 1650 9.47
4/15/2022 8:15:00 AM 11.67 53.006 0.739 7.86 775.2 9.63
4/15/2022 8:30:00 AM 11.68 53.024 0.739 7.92 588.3 9.83
4/15/2022 8:45:00 AM 11.73 53.114 0.739 7.88 591.1 10.06
4/15/2022 9:00:00 AM 11.79 53.222 0.739 7.94 612.5 10.29
4/15/2022 9:15:00 AM 11.85 53.33 0.739 7.96 447.8 10.52
4/15/2022 9:30:00 AM 11.93 53.474 0.739 7.95 648.2 10.75
4/15/2022 9:45:00 AM 12.03 53.654 0.739 7.99 523.1 10.96
4/15/2022 10:00:00 AM 12.14 53.852 0.739 8 629.3 11.22
4/15/2022 10:15:00 AM 12.25 54.05 0.738 8.02 650.1 11.46
4/15/2022 10:30:00 AM 12.37 54.266 0.739 8.05 705.1 11.7
4/15/2022 10:45:00 AM 12.5 54.5 0.739 8.01 719.4 11.9
4/15/2022 11:00:00 AM 12.63 54.734 0.738 8.04 733.8 12.1
4/15/2022 11:15:00 AM 12.76 54.968 0.738 8.07 550.9 12.28
4/15/2022 11:30:00 AM 12.91 55.238 0.738 8.12 601.8 12.45
4/15/2022 11:45:00 AM 13.05 55.49 0.738 8.12 580 12.6
4/15/2022 12:00:00 PM 13.19 55.742 0.738 8.13 666 12.69
4/15/2022 12:15:00 PM 13.35 56.03 0.737 8.13 703.3 12.88
4/15/2022 12:30:00 PM 13.49 56.282 0.736 8.19 676.6 12.99
4/15/2022 12:45:00 PM 13.63 56.534 0.736 8.2 649.8 13.12
4/15/2022 1:00:00 PM 13.79 56.822 0.735 8.19 696 13.21
4/15/2022 1:15:00 PM 13.92 57.056 0.735 8.22 688.3 13.28
4/15/2022 1:30:00 PM 14.07 57.326 0.735 8.18 661.6 13.35
4/15/2022 1:45:00 PM 14.21 57.578 0.734 8.21 606.1 13.38
4/15/2022 2:00:00 PM 14.33 57.794 0.734 8.23 663.2 13.44
4/15/2022 2:15:00 PM 14.44 57.992 0.734 8.24 689.8 13.44
4/15/2022 2:30:00 PM 14.55 58.19 0.735 8.25 622 13.43
4/15/2022 2:45:00 PM 14.65 58.37 0.735 8.25 607.7 13.43
4/15/2022 3:00:00 PM 14.74 58.532 0.736 8.27 599.7 13.44
4/15/2022 3:15:00 PM 14.83 58.694 0.736 8.27 512.5 13.44
4/15/2022 3:30:00 PM 14.9 58.82 0.735 8.27 680.7 13.41
4/15/2022 3:45:00 PM 14.97 58.946 0.737 8.27 682.9 13.43
4/15/2022 4:00:00 PM 15.01 59.018 0.738 8.31 626.7 13.39
4/15/2022 4:15:00 PM 15.04 59.072 0.737 8.31 540.8 13.44
4/15/2022 4:30:00 PM 15.06 59.108 0.737 8.3 847.3 13.4
4/15/2022 4:45:00 PM 15.05 59.09 0.736 8.3 691.1 13.28
4/15/2022 5:00:00 PM 15.04 59.072 0.736 8.27 679.1 13.17
4/15/2022 5:15:00 PM 15.03 59.054 0.737 8.29 584.5 13.09
4/15/2022 5:30:00 PM 15 59 0.735 8.31 509.4 12.97
4/15/2022 5:45:00 PM 14.96 58.928 0.735 8.3 600.8 12.81
4/15/2022 6:00:00 PM 14.91 58.838 0.735 8.29 667.9 12.64
4/15/2022 6:15:00 PM 14.84 58.712 0.735 8.28 597.2 12.47
4/15/2022 6:30:00 PM 14.78 58.604 0.734 8.31 501.4 12.25
4/15/2022 6:45:00 PM 14.71 58.478 0.734 8.26 629.4 12.01
4/15/2022 7:00:00 PM 14.65 58.37 0.734 8.27 832.5 11.77
4/15/2022 7:15:00 PM 14.59 58.262 0.734 8.27 1005 11.51
4/15/2022 7:30:00 PM 14.52 58.136 0.735 8.25 846.1 11.28
4/15/2022 7:45:00 PM 14.46 58.028 0.734 8.25 646.9 11.02
4/15/2022 8:00:00 PM 14.4 57.92 0.735 8.21 689.2 10.82
4/15/2022 8:15:00 PM 14.35 57.83 0.735 8.22 487 10.62
4/15/2022 8:30:00 PM 14.3 57.74 0.735 8.22 885.4 10.44
4/15/2022 8:45:00 PM 14.24 57.632 0.734 8.16 911.8 10.29
4/15/2022 9:00:00 PM 14.19 57.542 0.735 8.18 934.5 10.15
4/15/2022 9:15:00 PM 14.13 57.434 0.736 8.22 1030 10.02
4/15/2022 9:30:00 PM 14.08 57.344 0.736 8.16 976.7 9.89
4/15/2022 9:45:00 PM 14.03 57.254 0.736 8.17 1012 9.78
4/15/2022 10:00:00 PM 13.98 57.164 0.737 8.14 826.6 9.67
4/15/2022 10:15:00 PM 13.93 57.074 0.738 8.15 893.6 9.57
4/15/2022 10:30:00 PM 13.87 56.966 0.738 8.13 1135 9.48
4/15/2022 10:45:00 PM 13.82 56.876 0.738 8.11 1147 9.41
4/15/2022 11:00:00 PM 13.77 56.786 0.738 8.09 1067 9.34
4/15/2022 11:15:00 PM 13.72 56.696 0.737 8.05 979.4 9.28
4/15/2022 11:30:00 PM 13.67 56.606 0.737 8.07 887.1 9.23
4/15/2022 11:45:00 PM 13.62 56.516 0.738 8.02 775.2 9.16
4/16/2022 12:00:00 AM 13.56 56.408 0.738 8.05 1132 9.13
4/16/2022 12:15:00 AM 13.51 56.318 0.738 8.05 1192 9.07
4/16/2022 12:30:00 AM 13.46 56.228 0.738 8.13 784 9.02
4/16/2022 12:45:00 AM 13.41 56.138 0.738 8.09 838.2 8.97
4/16/2022 1:00:00 AM 13.37 56.066 0.738 8.07 998.7 8.96
4/16/2022 1:15:00 AM 13.32 55.976 0.738 8.1 857 8.93
4/16/2022 1:30:00 AM 13.28 55.904 0.738 8.1 822.3 8.9
4/16/2022 1:45:00 AM 13.24 55.832 0.738 8.03 946.8 8.88
4/16/2022 2:00:00 AM 13.2 55.76 0.737 8.06 951.2 8.85
4/16/2022 2:15:00 AM 13.16 55.688 0.737 8.08 1349 8.84
4/16/2022 2:30:00 AM 13.12 55.616 0.738 8.08 1012 8.83
4/16/2022 2:45:00 AM 13.09 55.562 0.738 8.03 1018 8.81
4/16/2022 3:00:00 AM 13.04 55.472 0.738 8.02 919.3 8.81
4/16/2022 3:15:00 AM 13.01 55.418 0.738 8.05 1266 8.8
4/16/2022 3:30:00 AM 12.98 55.364 0.738 8.01 1388 8.78
4/16/2022 3:45:00 AM 12.95 55.31 0.738 8.02 532 8.78
4/16/2022 4:00:00 AM 12.92 55.256 0.738 8 881 8.78
4/16/2022 4:15:00 AM 12.89 55.202 0.737 7.88 365.4 8.77
4/16/2022 4:30:00 AM 12.86 55.148 0.736 7.92 362.1 8.77
4/16/2022 4:45:00 AM 12.83 55.094 0.735 8.06 620.9 8.76
4/16/2022 5:00:00 AM 12.8 55.04 0.731 8.08 466.5 8.77
4/16/2022 5:15:00 AM 12.77 54.986 0.73 8.09 561 8.77
4/16/2022 5:30:00 AM 12.74 54.932 0.729 8.09 632.4 8.78
4/16/2022 5:45:00 AM 12.71 54.878 0.729 8.09 779.4 8.78
4/16/2022 6:00:00 AM 12.68 54.824 0.729 8.06 502.6 8.78
4/16/2022 6:15:00 AM 12.65 54.77 0.729 8.07 1005 8.8
4/16/2022 6:30:00 AM 12.63 54.734 0.727 8.06 827.4 8.8
4/16/2022 6:45:00 AM 12.6 54.68 0.729 8.07 1024 8.8
4/16/2022 7:00:00 AM 12.57 54.626 0.731 8.06 912.5 8.81
4/16/2022 7:15:00 AM 12.55 54.59 0.731 8.05 1204 8.84
4/16/2022 7:30:00 AM 12.53 54.554 0.731 8.08 937.5 8.92
4/16/2022 7:45:00 AM 12.51 54.518 0.731 8.07 452 8.96
4/16/2022 8:00:00 AM 12.49 54.482 0.731 8.1 338.7 9.03
4/16/2022 8:15:00 AM 12.49 54.482 0.731 8.1 482.6 9.13
4/16/2022 8:30:00 AM 12.48 54.464 0.731 8.07 589.3 9.29
4/16/2022 8:45:00 AM 12.49 54.482 0.731 8.12 689.9 9.44
4/16/2022 9:00:00 AM 12.5 54.5 0.731 8.14 710.4 9.58
4/16/2022 9:15:00 AM 12.52 54.536 0.732 8.14 341.3 9.73
4/16/2022 9:30:00 AM 12.56 54.608 0.732 8.18 384.2 9.96
4/16/2022 9:45:00 AM 12.61 54.698 0.732 8.15 299.3 10.21
4/16/2022 10:00:00 AM 12.67 54.806 0.732 8.21 690.9 10.53
4/16/2022 10:15:00 AM 12.75 54.95 0.732 8.22 865 10.81
4/16/2022 10:30:00 AM 12.85 55.13 0.732 8.31 381 11.12
4/16/2022 10:45:00 AM 12.97 55.346 0.732 8.29 554.5 11.41
4/16/2022 11:00:00 AM 13.09 55.562 0.731 8.25 522.8 11.7
4/16/2022 11:15:00 AM 13.23 55.814 0.731 8.3 778.5 11.95
4/16/2022 11:30:00 AM 13.43 56.174 0.73 8.3 253 12.18
4/16/2022 11:45:00 AM 13.6 56.48 0.73 8.37 420.3 12.41
4/16/2022 12:00:00 PM 13.69 56.642 0.729 8.38 305 12.53
4/16/2022 12:15:00 PM 13.81 56.858 0.728 8.38 643.2 12.69
4/16/2022 12:30:00 PM 13.99 57.182 0.728 8.36 265.8 12.88
4/16/2022 12:45:00 PM 14.11 57.398 0.727 8.41 487.5 13.03
4/16/2022 1:00:00 PM 14.18 57.524 0.726 8.42 339.9 13.12
4/16/2022 1:15:00 PM 14.25 57.65 0.726 8.42 277.3 13.2
4/16/2022 1:30:00 PM 14.27 57.686 0.725 8.42 598.4 13.23
4/16/2022 1:45:00 PM 14.26 57.668 0.724 8.47 581.4 13.27
4/16/2022 2:00:00 PM 14.27 57.686 0.722 8.44 865.5 13.28
4/16/2022 2:15:00 PM 14.36 57.848 0.722 8.44 895 13.34
4/16/2022 2:30:00 PM 14.43 57.974 0.721 8.48 624.5 13.42
4/16/2022 2:45:00 PM 14.45 58.01 0.72 8.46 471 13.44
4/16/2022 3:00:00 PM 14.45 58.01 0.721 8.44 544.1 13.37
4/16/2022 3:15:00 PM 14.46 58.028 0.721 8.54 343.6 13.29
4/16/2022 3:30:00 PM 14.44 57.992 0.721 8.45 817.3 13.23
4/16/2022 3:45:00 PM 14.42 57.956 0.72 8.43 612.4 13.09
4/16/2022 4:00:00 PM 14.39 57.902 0.725 8.46 658.5 12.93
4/16/2022 4:15:00 PM 14.35 57.83 0.724 8.48 651.2 12.76
4/16/2022 4:30:00 PM 14.35 57.83 0.723 8.48 429.6 12.64
4/16/2022 4:45:00 PM 14.35 57.83 0.722 8.48 677.8 12.54
4/16/2022 5:00:00 PM 14.36 57.848 0.718 8.51 665.8 12.47
4/16/2022 5:15:00 PM 14.36 57.848 0.718 8.51 388.1 12.36
4/16/2022 5:30:00 PM 14.34 57.812 0.716 8.43 457.9 12.18
4/16/2022 5:45:00 PM 14.32 57.776 0.718 8.4 553 12
4/16/2022 6:00:00 PM 14.3 57.74 0.717 8.45 658.6 11.83
4/16/2022 6:15:00 PM 14.28 57.704 0.717 8.42 312.5 11.77
4/16/2022 6:30:00 PM 14.25 57.65 0.716 8.41 639.2 11.67
4/16/2022 6:45:00 PM 14.2 57.56 0.715 8.39 450.3 11.52
4/16/2022 7:00:00 PM 14.15 57.47 0.714 8.37 194.1 11.3
4/16/2022 7:15:00 PM 14.09 57.362 0.714 8.34 464.7 11.08
4/16/2022 7:30:00 PM 14.05 57.29 0.715 8.31 444.2 10.86
4/16/2022 7:45:00 PM 14.02 57.236 0.715 8.34 150.1 10.68
4/16/2022 8:00:00 PM 13.98 57.164 0.716 8.3 513.9 10.52
4/16/2022 8:15:00 PM 13.95 57.11 0.716 8.3 304.4 10.34
4/16/2022 8:30:00 PM 13.91 57.038 0.619 8.31 155.8 10.2
4/16/2022 8:45:00 PM 13.87 56.966 0.649 8.32 664.8 10.03
4/16/2022 9:00:00 PM 13.81 56.858 0.719 8.26 372.2 9.91
4/16/2022 9:15:00 PM 13.76 56.768 0.72 8.27 451.8 9.81
4/16/2022 9:30:00 PM 13.7 56.66 0.722 8.3 515.2 9.73
4/16/2022 9:45:00 PM 13.64 56.552 0.727 8.31 552 9.63
4/16/2022 10:00:00 PM 13.6 56.48 0.727 8.27 903.4 9.55
4/16/2022 10:15:00 PM 13.56 56.408 0.728 8.19 605.2 9.47
4/16/2022 10:30:00 PM 13.52 56.336 0.729 8.21 454.2 9.4
4/16/2022 10:45:00 PM 13.47 56.246 0.729 8.22 544.3 9.33
4/16/2022 11:00:00 PM 13.44 56.192 0.73 8.24 613.2 9.27
4/16/2022 11:15:00 PM 13.4 56.12 0.731 8.2 782.7 9.21
4/16/2022 11:30:00 PM 13.36 56.048 0.731 8.27 341.1 9.18
4/16/2022 11:45:00 PM 13.31 55.958 0.732 8.23 535.8 9.13
4/17/2022 12:00:00 AM 13.26 55.868 0.734 8.16 682 9.1
4/17/2022 12:15:00 AM 13.19 55.742 0.734 8.19 226 9.06
4/17/2022 12:30:00 AM 13.14 55.652 0.735 8.2 621.8 9.04
4/17/2022 12:45:00 AM 13.08 55.544 0.735 8.19 741.8 8.99
4/17/2022 1:00:00 AM 13.02 55.436 0.735 8.16 541.2 8.98
4/17/2022 1:15:00 AM 12.97 55.346 0.736 8.15 471.8 8.96
4/17/2022 1:30:00 AM 12.92 55.256 0.736 8.2 395.9 8.94
4/17/2022 1:45:00 AM 12.87 55.166 0.736 8.2 869.6 8.92
4/17/2022 2:00:00 AM 12.81 55.058 0.736 8.18 824 8.91
4/17/2022 2:15:00 AM 12.76 54.968 0.737 8.23 409.7 8.88
4/17/2022 2:30:00 AM 12.7 54.86 0.737 8.17 797.6 8.89
4/17/2022 2:45:00 AM 12.64 54.752 0.738 8.17 444.3 8.88
4/17/2022 3:00:00 AM 12.58 54.644 0.738 8.13 644.2 8.88
4/17/2022 3:15:00 AM 12.52 54.536 0.738 8.18 295.5 8.88
4/17/2022 3:30:00 AM 12.46 54.428 0.738 8.18 517.1 8.9
4/17/2022 3:45:00 AM 12.4 54.32 0.737 8.19 871.8 8.9
4/17/2022 4:00:00 AM 12.34 54.212 0.737 8.18 704.4 8.91
4/17/2022 4:15:00 AM 12.28 54.104 0.737 8.16 496.7 8.92
4/17/2022 4:30:00 AM 12.22 53.996 0.737 8.19 283.2 8.92
4/17/2022 4:45:00 AM 12.15 53.87 0.737 8.19 458.7 8.93
4/17/2022 5:00:00 AM 12.09 53.762 0.737 8.16 256.2 8.94
4/17/2022 5:15:00 AM 12.03 53.654 0.736 8.16 367.5 8.94
4/17/2022 5:30:00 AM 11.97 53.546 0.736 8.15 630.3 8.96
4/17/2022 5:45:00 AM 11.91 53.438 0.736 8.15 429.5 8.97
4/17/2022 6:00:00 AM 11.85 53.33 0.736 8.18 414.1 8.99
4/17/2022 6:15:00 AM 11.79 53.222 0.736 8.2 334.9 9.03
4/17/2022 6:30:00 AM 11.74 53.132 0.732 8.2 273.4 9.04
4/17/2022 6:45:00 AM 11.68 53.024 0.736 8.17 424.1 9.07
4/17/2022 7:00:00 AM 11.62 52.916 0.736 8.16 616.4 9.14
4/17/2022 7:15:00 AM 11.57 52.826 0.736 8.14 216 9.23
4/17/2022 7:30:00 AM 11.54 52.772 0.736 8.15 149.9 9.33
4/17/2022 7:45:00 AM 11.51 52.718 0.735 8.13 257.2 9.48
4/17/2022 8:00:00 AM 11.5 52.7 0.735 8.16 406 9.64
4/17/2022 8:15:00 AM 11.49 52.682 0.735 8.18 270.1 9.79
4/17/2022 8:30:00 AM 11.48 52.664 0.735 8.2 97.41 9.94
4/17/2022 8:45:00 AM 11.47 52.646 0.735 8.17 155.6 10.09
4/17/2022 9:00:00 AM 11.49 52.682 0.734 8.18 173.3 10.3
4/17/2022 9:15:00 AM 11.51 52.718 0.734 8.14 260.4 10.58
4/17/2022 9:30:00 AM 11.52 52.736 0.734 8.18 91.98 10.79
4/17/2022 9:45:00 AM 11.53 52.754 0.734 8.3 64.28 10.96
4/17/2022 10:00:00 AM 11.54 52.772 0.734 8.2 94.71 11.1
4/17/2022 10:15:00 AM 11.56 52.808 0.734 8.26 121.3 11.33
4/17/2022 10:30:00 AM 11.61 52.898 0.734 8.32 79.36 11.54
4/17/2022 10:45:00 AM 11.77 53.186 0.733 8.18 85.43 11.8
4/17/2022 11:00:00 AM 11.91 53.438 0.733 8.27 53.01 12.11
4/17/2022 11:15:00 AM 12.04 53.672 0.733 8.36 60.86 12.31
4/17/2022 11:30:00 AM 12.12 53.816 0.733 8.41 56.35 12.5
4/17/2022 11:45:00 AM 12.23 54.014 0.733 8.4 61.19 12.63
4/17/2022 12:00:00 PM 12.28 54.104 0.733 8.4 30.83 12.76
4/17/2022 12:15:00 PM 12.19 53.942 0.732 8.44 35.25 12.81
4/17/2022 12:30:00 PM 12.13 53.834 0.732 8.45 34.32 12.77
4/17/2022 12:45:00 PM 12.12 53.816 0.731 8.48 33.37 12.79
4/17/2022 1:00:00 PM 12.23 54.014 0.731 8.38 34.32 12.93
4/17/2022 1:15:00 PM 12.41 54.338 0.731 8.42 33.63 13.16
4/17/2022 1:30:00 PM 12.56 54.608 0.73 8.48 32.65 13.3
4/17/2022 1:45:00 PM 12.75 54.95 0.73 8.55 33.56 13.39
4/17/2022 2:00:00 PM 12.77 54.986 0.729 8.48 33.36 13.42
4/17/2022 2:15:00 PM 12.73 54.914 0.729 8.47 34.13 13.36
4/17/2022 2:30:00 PM 12.66 54.788 0.729 8.44 33.69 13.34
4/17/2022 2:45:00 PM 12.7 54.86 0.728 8.44 34.85 13.37
4/17/2022 3:00:00 PM 12.77 54.986 0.728 8.47 40.91 13.54
4/17/2022 3:15:00 PM 13 55.4 0.727 8.53 42.84 13.7
4/17/2022 3:30:00 PM 13.15 55.67 0.726 8.51 42.75 13.83
4/17/2022 3:45:00 PM 13.23 55.814 0.721 8.51 49.75 13.84
4/17/2022 4:00:00 PM 13.26 55.868 0.725 8.61 39.03 13.84
4/17/2022 4:15:00 PM 13.27 55.886 0.724 8.54 54.87 13.81
4/17/2022 4:30:00 PM 13.26 55.868 0.723 8.53 55.39 13.78
4/17/2022 4:45:00 PM 13.22 55.796 0.723 8.52 41.26 13.76
4/17/2022 5:00:00 PM 13.16 55.688 0.723 8.54 32.47 13.67
4/17/2022 5:15:00 PM 13.1 55.58 0.723 8.54 27 13.63
4/17/2022 5:30:00 PM 13.03 55.454 0.723 8.53 23.11 13.55
4/17/2022 5:45:00 PM 12.97 55.346 0.723 8.53 22.35 13.45
4/17/2022 6:00:00 PM 12.89 55.202 0.722 8.51 22.79 13.32
4/17/2022 6:15:00 PM 12.8 55.04 0.722 8.52 22.56 13.14
4/17/2022 6:30:00 PM 12.71 54.878 0.722 8.54 22.74 12.92
4/17/2022 6:45:00 PM 12.62 54.716 0.722 8.49 23.58 12.68
4/17/2022 7:00:00 PM 12.55 54.59 0.722 8.5 22.38 12.41
4/17/2022 7:15:00 PM 12.48 54.464 0.722 8.51 22.45 12.2
4/17/2022 7:30:00 PM 12.44 54.392 0.723 8.51 23.75 11.97
4/17/2022 7:45:00 PM 12.39 54.302 0.723 8.52 22.56 11.78
4/17/2022 8:00:00 PM 12.33 54.194 0.723 8.49 23.41 11.55
4/17/2022 8:15:00 PM 12.28 54.104 0.725 8.4 23.87 11.36
4/17/2022 8:30:00 PM 12.22 53.996 0.725 8.38 23.59 11.16
4/17/2022 8:45:00 PM 12.16 53.888 0.726 8.38 24.13 11.01
4/17/2022 9:00:00 PM 12.11 53.798 0.726 8.37 24.42 10.87
4/17/2022 9:15:00 PM 12.06 53.708 0.727 8.38 25.17 10.74
4/17/2022 9:30:00 PM 12.01 53.618 0.728 8.38 25.52 10.63
4/17/2022 9:45:00 PM 11.96 53.528 0.728 8.36 24.46 10.53
4/17/2022 10:00:00 PM 11.91 53.438 0.729 8.35 25.64 10.43
4/17/2022 10:15:00 PM 11.87 53.366 0.729 8.35 25.1 10.33
4/17/2022 10:30:00 PM 11.81 53.258 0.73 8.36 25.49 10.24
4/17/2022 10:45:00 PM 11.76 53.168 0.731 8.4 26.54 10.19
4/17/2022 11:00:00 PM 11.71 53.078 0.731 8.36 26.21 10.12
4/17/2022 11:15:00 PM 11.66 52.988 0.732 8.38 26.46 10.07
4/17/2022 11:30:00 PM 11.61 52.898 0.733 8.4 31.06 10
4/17/2022 11:45:00 PM 11.57 52.826 0.733 8.41 26.82 10.01
4/18/2022 12:00:00 AM 11.53 52.754 0.735 8.44 136.2 9.97
4/18/2022 12:15:00 AM 11.49 52.682 0.738 8.5 26.08 9.92
4/18/2022 12:30:00 AM 11.45 52.61 0.737 8.56 25.23 9.88
4/18/2022 12:45:00 AM 11.41 52.538 0.727 8.94 25.82 9.85
4/18/2022 1:00:00 AM 11.36 52.448 0.74 8.6 25.91 9.82
4/18/2022 1:15:00 AM 11.3 52.34 0.744 9.36 25.87 9.79
4/18/2022 1:30:00 AM 11.25 52.25 0.743 9.47 25.76 9.76
4/18/2022 1:45:00 AM 11.19 52.142 0.744 9.44 25.83 9.75
4/18/2022 2:00:00 AM 11.14 52.052 0.745 9.35 28.7 9.72
4/18/2022 2:15:00 AM 11.08 51.944 0.745 8.88 25.83 9.71
4/18/2022 2:30:00 AM 11.03 51.854 0.745 9.34 27.38 9.71
4/18/2022 2:45:00 AM 10.97 51.746 0.745 8.64 26.65 9.69
4/18/2022 3:00:00 AM 10.9 51.62 0.74 8.74 27.76 9.7
4/18/2022 3:15:00 AM 10.83 51.494 0.745 9.06 26.46 9.67
4/18/2022 3:30:00 AM 10.75 51.35 0.743 8.89 27.47 9.63
4/18/2022 3:45:00 AM 10.66 51.188 0.741 8.87 27.31 9.62
4/18/2022 4:00:00 AM 10.58 51.044 0.738 8.74 27.23 9.61
4/18/2022 4:15:00 AM 10.51 50.918 0.731 8.51 28.52 9.63
4/18/2022 4:30:00 AM 10.44 50.792 0.734 8.73 28.58 9.64
4/18/2022 4:45:00 AM 10.38 50.684 0.734 8.43 28.55 9.64
4/18/2022 5:00:00 AM 10.31 50.558 0.733 8.41 28.47 9.65
4/18/2022 5:15:00 AM 10.26 50.468 0.732 8.4 29.91 9.67
4/18/2022 5:30:00 AM 10.21 50.378 0.732 8.41 31.27 9.67
4/18/2022 5:45:00 AM 10.17 50.306 0.732 8.41 30.09 9.72
4/18/2022 6:00:00 AM 10.13 50.234 0.732 8.42 30.65 9.74
4/18/2022 6:15:00 AM 10.06 50.108 0.733 8.42 30.64 9.72
4/18/2022 6:30:00 AM 10 50 0.735 8.41 30.88 9.7
4/18/2022 6:45:00 AM 9.95 49.91 0.736 8.38 30.77 9.74
4/18/2022 7:00:00 AM 9.92 49.856 0.735 8.39 29.72 9.83
4/18/2022 7:15:00 AM 9.9 49.82 0.734 8.4 29.87 9.94
4/18/2022 7:30:00 AM 9.89 49.802 0.733 8.41 30.19 10.1
4/18/2022 7:45:00 AM 9.9 49.82 0.72 8.41 29.25 10.28
4/18/2022 8:00:00 AM 9.9 49.82 0.732 8.39 29 10.45
4/18/2022 8:15:00 AM 9.91 49.838 0.731 8.38 28.81 10.59
4/18/2022 8:30:00 AM 9.92 49.856 0.73 8.35 28.74 10.77
4/18/2022 8:45:00 AM 9.94 49.892 0.727 8.37 28.46 10.95
4/18/2022 9:00:00 AM 10 50 0.729 8.33 34.56 11.22
4/18/2022 9:15:00 AM 10.05 50.09 0.73 8.48 30.28 11.48
4/18/2022 9:30:00 AM 10.07 50.126 0.73 8.5 28.59 11.68
4/18/2022 9:45:00 AM 10.09 50.162 0.73 8.46 28.63 11.82
4/18/2022 10:00:00 AM 10.11 50.198 0.73 8.52 30.75 11.92
4/18/2022 10:15:00 AM 10.14 50.252 0.73 8.51 29.54 12.07
4/18/2022 10:30:00 AM 10.18 50.324 0.73 8.54 29.52 12.24
4/18/2022 10:45:00 AM 10.22 50.396 0.73 8.55 29.11 12.46
4/18/2022 11:00:00 AM 10.22 50.396 0.729 8.58 28.7 12.63
4/18/2022 11:15:00 AM 10.18 50.324 0.729 8.6 28.88 12.72
4/18/2022 11:30:00 AM 10.15 50.27 0.729 8.6 29.14 12.76
4/18/2022 11:45:00 AM 10.13 50.234 0.729 8.69 28.53 12.81
4/18/2022 12:00:00 PM 10.12 50.216 0.729 8.61 28.58 12.84
4/18/2022 12:15:00 PM 10.11 50.198 0.729 8.6 28.93 12.89
4/18/2022 12:30:00 PM 10.09 50.162 0.729 8.64 28.89 12.92
4/18/2022 12:45:00 PM 10.06 50.108 0.729 8.72 29.44 12.85
4/18/2022 1:00:00 PM 10.04 50.072 0.729 9.12 29.26 12.72
4/18/2022 1:15:00 PM 10.01 50.018 0.73 9.67 29.18 12.6
4/18/2022 1:30:00 PM 9.98 49.964 0.729 9.79 29.38 12.48
4/18/2022 1:45:00 PM 9.96 49.928 0.729 9.64 31.42 12.4
4/18/2022 2:00:00 PM 9.93 49.874 0.728 9.47 30.78 12.37
4/18/2022 2:15:00 PM 9.91 49.838 0.728 8.87 29.32 12.3
4/18/2022 2:30:00 PM 9.89 49.802 0.728 8.78 29.46 12.19
4/18/2022 2:45:00 PM 9.88 49.784 0.728 8.68 29.51 12.1
4/18/2022 3:00:00 PM 9.84 49.712 0.727 8.69 30.17 12.04
4/18/2022 3:15:00 PM 9.81 49.658 0.727 8.68 29.69 12.02
4/18/2022 3:30:00 PM 9.85 49.73 0.727 8.48 29.8 12.02
4/18/2022 3:45:00 PM 9.89 49.802 0.727 8.46 30.15 12.01
4/18/2022 4:00:00 PM 9.91 49.838 0.726 8.47 29.89 12.01
4/18/2022 4:15:00 PM 9.92 49.856 0.726 8.48 30.52 11.99
4/18/2022 4:30:00 PM 9.91 49.838 0.725 8.55 30.88 11.92
4/18/2022 4:45:00 PM 9.9 49.82 0.725 8.54 31.68 11.84
4/18/2022 5:00:00 PM 9.89 49.802 0.725 8.51 31.48 11.81
4/18/2022 5:15:00 PM 9.86 49.748 0.724 8.55 31.95 11.79
4/18/2022 5:30:00 PM 9.85 49.73 0.724 8.4 32.05 11.73
4/18/2022 5:45:00 PM 9.84 49.712 0.724 8.43 32.71 11.68
4/18/2022 6:00:00 PM 9.84 49.712 0.724 8.45 32.51 11.64
4/18/2022 6:15:00 PM 9.83 49.694 0.725 8.48 32.3 11.58
4/18/2022 6:30:00 PM 9.82 49.676 0.724 8.49 32.44 11.54
4/18/2022 6:45:00 PM 9.8 49.64 0.724 8.53 32.48 11.48
4/18/2022 7:00:00 PM 9.79 49.622 0.725 8.46 32.19 11.38
4/18/2022 7:15:00 PM 9.78 49.604 0.725 8.48 33.2 11.27
4/18/2022 7:30:00 PM 9.78 49.604 0.725 8.47 32.82 11.17
4/18/2022 7:45:00 PM 9.81 49.658 0.725 8.49 33.16 11.1
4/18/2022 8:00:00 PM 9.79 49.622 0.725 8.47 33.39 11.01
4/18/2022 8:15:00 PM 9.76 49.568 0.727 8.34 33.72 10.89
4/18/2022 8:30:00 PM 9.72 49.496 0.73 8.36 33.49 10.78
4/18/2022 8:45:00 PM 9.71 49.478 0.732 8.39 34.56 10.67
4/18/2022 9:00:00 PM 9.67 49.406 0.731 8.38 34.07 10.59
4/18/2022 9:15:00 PM 9.61 49.298 0.729 8.4 36.22 10.53
4/18/2022 9:30:00 PM 9.56 49.208 0.726 8.39 35.2 10.49
4/18/2022 9:45:00 PM 9.52 49.136 0.722 8.38 35.66 10.44
4/18/2022 10:00:00 PM 9.52 49.136 0.717 8.33 35.48 10.42
4/18/2022 10:15:00 PM 9.51 49.118 0.713 8.34 36.29 10.42
4/18/2022 10:30:00 PM 9.48 49.064 0.708 8.35 38.11 10.43
4/18/2022 10:45:00 PM 9.45 49.01 0.704 8.35 39.09 10.42
4/18/2022 11:00:00 PM 9.42 48.956 0.7 8.34 41.84 10.39
4/18/2022 11:15:00 PM 9.39 48.902 0.698 8.3 44.05 10.36
4/18/2022 11:30:00 PM 9.37 48.866 0.695 8.3 46.49 10.33
4/18/2022 11:45:00 PM 9.33 48.794 0.693 8.32 47.5 10.31
4/19/2022 12:00:00 AM 9.29 48.722 0.692 8.27 48.66 10.27
4/19/2022 12:15:00 AM 9.26 48.668 0.69 8.27 48.25 10.25
4/19/2022 12:30:00 AM 9.24 48.632 0.688 8.3 49.6 10.22
4/19/2022 12:45:00 AM 9.2 48.56 0.686 8.26 50.08 10.21
4/19/2022 1:00:00 AM 9.14 48.452 0.684 8.29 53.28 10.19
4/19/2022 1:15:00 AM 9.12 48.416 0.682 8.26 58.83 10.17
4/19/2022 1:30:00 AM 9.11 48.398 0.68 8.26 54.89 10.15
4/19/2022 1:45:00 AM 9.09 48.362 0.677 8.28 54.88 10.13
4/19/2022 2:00:00 AM 9.07 48.326 0.672 8.25 55.89 10.13
4/19/2022 2:15:00 AM 9.04 48.272 0.665 8.24 58.43 10.13
4/19/2022 2:30:00 AM 9 48.2 0.658 8.27 60.93 10.12
4/19/2022 2:45:00 AM 8.97 48.146 0.65 8.23 64.56 10.12
4/19/2022 3:00:00 AM 8.94 48.092 0.642 8.22 79.46 10.1
4/19/2022 3:15:00 AM 8.92 48.056 0.636 8.22 76.23 10.07
4/19/2022 3:30:00 AM 8.92 48.056 0.634 8.2 85.66 9.97
4/19/2022 3:45:00 AM 8.92 48.056 0.612 8.18 89.4 9.9
4/19/2022 4:00:00 AM 8.91 48.038 0.608 8.14 105.2 9.85
4/19/2022 4:15:00 AM 8.88 47.984 0.601 8.21 109.5 9.86
4/19/2022 4:30:00 AM 8.83 47.894 0.587 8.14 106.7 9.89
4/19/2022 4:45:00 AM 8.78 47.804 0.579 8.15 116.8 9.92
4/19/2022 5:00:00 AM 8.75 47.75 0.577 8.16 121.2 9.92
4/19/2022 5:15:00 AM 8.71 47.678 0.576 8.11 145.5 9.92
4/19/2022 5:30:00 AM 8.64 47.552 0.564 8.16 167.5 9.91
4/19/2022 5:45:00 AM 8.51 47.318 0.536 8.15 146.6 9.95
4/19/2022 6:00:00 AM 8.35 47.03 0.501 8.11 158.2 10.03
4/19/2022 6:15:00 AM 8.18 46.724 0.47 8.13 151.2 10.1
4/19/2022 6:30:00 AM 8.04 46.472 0.447 8.11 152.3 10.18
4/19/2022 6:45:00 AM 7.92 46.256 0.431 8.1 155.2 10.24
4/19/2022 7:00:00 AM 7.83 46.094 0.42 8.11 156.3 10.3
4/19/2022 7:15:00 AM 7.76 45.968 0.415 8.09 158.8 10.36
4/19/2022 7:30:00 AM 7.72 45.896 0.412 8.05 161 10.39
4/19/2022 7:45:00 AM 7.71 45.878 0.413 7.99 163.9 10.42
4/19/2022 8:00:00 AM 7.74 45.932 0.417 8.06 160.8 10.46
4/19/2022 8:15:00 AM 7.78 46.004 0.421 7.91 165.6 10.47
4/19/2022 8:30:00 AM 7.83 46.094 0.426 7.96 165.9 10.5
4/19/2022 8:45:00 AM 7.9 46.22 0.431 7.96 172.2 10.54
4/19/2022 9:00:00 AM 7.98 46.364 0.436 7.96 178.6 10.57
4/19/2022 9:15:00 AM 8.06 46.508 0.442 7.97 179.7 10.61
4/19/2022 9:30:00 AM 8.14 46.652 0.447 7.99 170.6 10.64
4/19/2022 9:45:00 AM 8.21 46.778 0.452 7.99 124.8 10.71
4/19/2022 10:00:00 AM 8.33 46.994 0.457 8.12 72.44 10.75
4/19/2022 10:15:00 AM 8.38 47.084 0.463 8.1 72.33 10.82
4/19/2022 10:30:00 AM 8.43 47.174 0.469 8.09 74.19 10.82
4/19/2022 10:45:00 AM 8.47 47.246 0.475 8.09 73.04 10.84
4/19/2022 11:00:00 AM 8.54 47.372 0.483 8.09 76.3 10.88
4/19/2022 11:15:00 AM 8.61 47.498 0.491 8.08 73.79 10.9
4/19/2022 11:30:00 AM 8.74 47.732 0.5 8.01 73.9 10.95
4/19/2022 11:45:00 AM 8.79 47.822 0.509 8.01 72.97 11
4/19/2022 12:00:00 PM 8.98 48.164 0.517 8.05 74.2 11.07
4/19/2022 12:15:00 PM 9.12 48.416 0.523 8 77.04 11.17
4/19/2022 12:30:00 PM 9.37 48.866 0.53 8.13 74.07 11.32
4/19/2022 12:45:00 PM 9.51 49.118 0.536 8.07 75.39 11.44
4/19/2022 1:00:00 PM 9.61 49.298 0.541 8.08 77.85 11.49
4/19/2022 1:15:00 PM 9.67 49.406 0.545 8.18 79.47 11.47
4/19/2022 1:30:00 PM 9.81 49.658 0.548 8.19 75.72 11.53
4/19/2022 1:45:00 PM 9.96 49.928 0.552 8.17 79.36 11.63
4/19/2022 2:00:00 PM 10.04 50.072 0.555 8.21 80.27 11.75
4/19/2022 2:15:00 PM 10.05 50.09 0.558 8.24 80.08 11.67
4/19/2022 2:30:00 PM 10.05 50.09 0.56 8.2 86.09 11.61
4/19/2022 2:45:00 PM 10.15 50.27 0.562 8.17 86.42 11.63
4/19/2022 3:00:00 PM 10.25 50.45 0.564 8.18 88.41 11.69
4/19/2022 3:15:00 PM 10.28 50.504 0.567 8.2 97.17 11.7
4/19/2022 3:30:00 PM 10.29 50.522 0.569 8.22 87.12 11.63
4/19/2022 3:45:00 PM 10.4 50.72 0.572 8.19 88.99 11.65
4/19/2022 4:00:00 PM 10.5 50.9 0.574 8.18 90.77 11.73
4/19/2022 4:15:00 PM 10.64 51.152 0.577 8.2 93.09 11.84
4/19/2022 4:30:00 PM 10.73 51.314 0.58 8.19 76.39 11.89
4/19/2022 4:45:00 PM 10.78 51.404 0.584 8.24 76.41 11.89
4/19/2022 5:00:00 PM 10.77 51.386 0.587 8.26 73.51 11.83
4/19/2022 5:15:00 PM 10.77 51.386 0.589 8.26 75.74 11.78
4/19/2022 5:30:00 PM 10.76 51.368 0.592 8.23 77.68 11.76
4/19/2022 5:45:00 PM 10.76 51.368 0.596 8.24 80.67 11.7
4/19/2022 6:00:00 PM 10.78 51.404 0.599 8.23 88.03 11.65
4/19/2022 6:15:00 PM 10.8 51.44 0.602 8.23 81.63 11.62
4/19/2022 6:30:00 PM 10.78 51.404 0.605 8.24 80.97 11.55
4/19/2022 6:45:00 PM 10.73 51.314 0.608 8.24 91.71 11.41
4/19/2022 7:00:00 PM 10.69 51.242 0.611 8.22 84.78 11.28
4/19/2022 7:15:00 PM 10.63 51.134 0.614 8.18 86.07 11.16
4/19/2022 7:30:00 PM 10.59 51.062 0.617 8.21 82.33 11.04
4/19/2022 7:45:00 PM 10.55 50.99 0.619 8.19 83 10.95
4/19/2022 8:00:00 PM 10.53 50.954 0.622 8.19 88.85 10.87
4/19/2022 8:15:00 PM 10.5 50.9 0.624 8.19 87.63 10.76
4/19/2022 8:30:00 PM 10.47 50.846 0.627 8.16 86.92 10.69
4/19/2022 8:45:00 PM 10.45 50.81 0.629 8.19 87.15 10.62
4/19/2022 9:00:00 PM 10.42 50.756 0.631 8.19 87.15 10.54
4/19/2022 9:15:00 PM 10.4 50.72 0.634 8.18 92.42 10.47
4/19/2022 9:30:00 PM 10.37 50.666 0.636 8.18 93.26 10.42
4/19/2022 9:45:00 PM 10.35 50.63 0.638 8.17 96.14 10.36
4/19/2022 10:00:00 PM 10.32 50.576 0.64 8.18 94.46 10.33
4/19/2022 10:15:00 PM 10.3 50.54 0.643 8.14 94.96 10.28
4/19/2022 10:30:00 PM 10.27 50.486 0.645 8.17 97.25 10.24
4/19/2022 10:45:00 PM 10.24 50.432 0.647 8.16 97.53 10.21
4/19/2022 11:00:00 PM 10.21 50.378 0.647 8.15 100.4 10.18
4/19/2022 11:15:00 PM 10.17 50.306 0.651 8.16 101 10.15
4/19/2022 11:30:00 PM 10.15 50.27 0.652 8.17 104.5 10.12
4/19/2022 11:45:00 PM 10.12 50.216 0.654 8.16 107.7 10.09
4/20/2022 12:00:00 AM 10.1 50.18 0.656 8.14 111.7 10.06
4/20/2022 12:15:00 AM 10.07 50.126 0.657 8.15 118.9 10.03
4/20/2022 12:30:00 AM 10.05 50.09 0.659 8.14 116.3 10.02
4/20/2022 12:45:00 AM 10.02 50.036 0.661 8.15 122.7 9.98
4/20/2022 1:00:00 AM 9.99 49.982 0.663 8.15 125.9 9.98
4/20/2022 1:15:00 AM 9.96 49.928 0.665 8.13 129.3 9.96
4/20/2022 1:30:00 AM 9.93 49.874 0.667 8.17 129.9 9.94
4/20/2022 1:45:00 AM 9.89 49.802 0.668 8.16 132.2 9.95
4/20/2022 2:00:00 AM 9.86 49.748 0.667 8.13 133.9 9.93
4/20/2022 2:15:00 AM 9.82 49.676 0.668 8.16 137.3 9.93
4/20/2022 2:30:00 AM 9.79 49.622 0.671 8.16 130.1 9.93
4/20/2022 2:45:00 AM 9.75 49.55 0.673 8.13 132.8 9.93
4/20/2022 3:00:00 AM 9.72 49.496 0.674 8.17 134.1 9.91
4/20/2022 3:15:00 AM 9.68 49.424 0.676 8.17 131.5 9.92
4/20/2022 3:30:00 AM 9.65 49.37 0.677 8.16 129.8 9.92
4/20/2022 3:45:00 AM 9.62 49.316 0.679 8.14 135.6 9.93
4/20/2022 4:00:00 AM 9.59 49.262 0.68 8.05 138.3 9.92
4/20/2022 4:15:00 AM 9.57 49.226 0.682 8.09 135.1 9.9
4/20/2022 4:30:00 AM 9.54 49.172 0.682 8.08 145.4 9.93
4/20/2022 4:45:00 AM 9.52 49.136 0.684 8.09 155.1 9.91
4/20/2022 5:00:00 AM 9.5 49.1 0.685 8.1 148.5 9.92
4/20/2022 5:15:00 AM 9.47 49.046 0.687 8.08 135.2 9.93
4/20/2022 5:30:00 AM 9.44 48.992 0.688 8.09 136.8 9.92
4/20/2022 5:45:00 AM 9.41 48.938 0.688 8.07 136.8 9.94
4/20/2022 6:00:00 AM 9.38 48.884 0.689 8.11 154.2 9.95
4/20/2022 6:15:00 AM 9.34 48.812 0.689 8.08 151.2 9.95
4/20/2022 6:30:00 AM 9.3 48.74 0.689 8.06 148.5 9.97
4/20/2022 6:45:00 AM 9.27 48.686 0.691 8.07 140.3 10.01
4/20/2022 7:00:00 AM 9.24 48.632 0.691 8.13 145.2 10.05
4/20/2022 7:15:00 AM 9.21 48.578 0.692 8.14 167.8 10.12
4/20/2022 7:30:00 AM 9.2 48.56 0.693 8.17 143.3 10.19
4/20/2022 7:45:00 AM 9.2 48.56 0.693 8.15 141.6 10.3
4/20/2022 8:00:00 AM 9.22 48.596 0.694 8.17 143 10.44
4/20/2022 8:15:00 AM 9.26 48.668 0.695 8.21 141 10.61
4/20/2022 8:30:00 AM 9.3 48.74 0.696 8.1 143 10.79
4/20/2022 8:45:00 AM 9.35 48.83 0.696 8.13 145 10.98
4/20/2022 9:00:00 AM 9.41 48.938 0.696 8.2 146.5 11.16
4/20/2022 9:15:00 AM 9.49 49.082 0.697 8.24 145.8 11.33
4/20/2022 9:30:00 AM 9.58 49.244 0.697 8.18 159.5 11.54
4/20/2022 9:45:00 AM 9.68 49.424 0.697 8.17 152.9 11.73
4/20/2022 10:00:00 AM 9.79 49.622 0.697 8.21 163.6 11.9
4/20/2022 10:15:00 AM 9.9 49.82 0.697 8.19 176.3 12.08
4/20/2022 10:30:00 AM 10.02 50.036 0.697 8.13 177.6 12.26
4/20/2022 10:45:00 AM 10.14 50.252 0.697 8.24 169.8 12.42
4/20/2022 11:00:00 AM 10.29 50.522 0.697 8.27 167.6 12.58
4/20/2022 11:15:00 AM 10.42 50.756 0.697 8.28 169.8 12.72
4/20/2022 11:30:00 AM 10.57 51.026 0.698 8.29 195.9 12.86
4/20/2022 11:45:00 AM 10.73 51.314 0.697 8.28 181.4 13
4/20/2022 12:00:00 PM 10.86 51.548 0.697 8.29 219.8 13.1
4/20/2022 12:15:00 PM 10.98 51.764 0.697 8.32 229.4 13.22
4/20/2022 12:30:00 PM 11.15 52.07 0.697 8.32 218 13.33
4/20/2022 12:45:00 PM 11.28 52.304 0.697 8.33 254.4 13.42
4/20/2022 1:00:00 PM 11.45 52.61 0.697 8.34 192.1 13.52
4/20/2022 1:15:00 PM 11.62 52.916 0.698 8.35 240 13.61
4/20/2022 1:30:00 PM 11.78 53.204 0.698 8.35 200.2 13.7
4/20/2022 1:45:00 PM 11.94 53.492 0.698 8.36 205.6 13.73
4/20/2022 2:00:00 PM 12.09 53.762 0.698 8.39 224.3 13.77
4/20/2022 2:15:00 PM 12.24 54.032 0.698 8.38 189.1 13.84
4/20/2022 2:30:00 PM 12.37 54.266 0.698 8.4 187.1 13.88
4/20/2022 2:45:00 PM 12.5 54.5 0.698 8.37 203.8 13.9
4/20/2022 3:00:00 PM 12.61 54.698 0.698 8.39 223.3 13.89
4/20/2022 3:15:00 PM 12.72 54.896 0.699 8.38 237 13.87
4/20/2022 3:30:00 PM 12.81 55.058 0.698 8.4 140.4 13.87
4/20/2022 3:45:00 PM 12.88 55.184 0.698 8.37 127.1 13.86
4/20/2022 4:00:00 PM 12.95 55.31 0.698 8.39 122.4 13.79
4/20/2022 4:15:00 PM 13.01 55.418 0.698 8.41 121.2 13.75
4/20/2022 4:30:00 PM 13.04 55.472 0.698 8.39 116.1 13.67
4/20/2022 4:45:00 PM 13.07 55.526 0.699 8.4 126.8 13.6
4/20/2022 5:00:00 PM 13.09 55.562 0.699 8.37 129.2 13.51
4/20/2022 5:15:00 PM 13.09 55.562 0.699 8.4 152.3 13.39
4/20/2022 5:30:00 PM 13.09 55.562 0.699 8.37 148.8 13.3
4/20/2022 5:45:00 PM 13.07 55.526 0.699 8.39 151 13.14
4/20/2022 6:00:00 PM 13.04 55.472 0.701 8.39 161.9 12.99
4/20/2022 6:15:00 PM 13.01 55.418 0.701 8.37 168.9 12.79
4/20/2022 6:30:00 PM 12.98 55.364 0.701 8.36 164.7 12.59
4/20/2022 6:45:00 PM 12.94 55.292 0.702 8.34 163.3 12.37
4/20/2022 7:00:00 PM 12.91 55.238 0.702 8.36 164.1 12.14
4/20/2022 7:15:00 PM 12.87 55.166 0.702 8.35 161.5 11.9
4/20/2022 7:30:00 PM 12.83 55.094 0.703 8.33 158.3 11.71
4/20/2022 7:45:00 PM 12.79 55.022 0.704 8.32 163.2 11.48
4/20/2022 8:00:00 PM 12.75 54.95 0.704 8.3 149.9 11.26
4/20/2022 8:15:00 PM 12.7 54.86 0.705 8.27 158.7 11.06
4/20/2022 8:30:00 PM 12.66 54.788 0.706 8.27 151.7 10.89
4/20/2022 8:45:00 PM 12.61 54.698 0.707 8.27 155.4 10.77
4/20/2022 9:00:00 PM 12.57 54.626 0.707 8.26 166.6 10.61
4/20/2022 9:15:00 PM 12.52 54.536 0.707 8.24 164.5 10.49
4/20/2022 9:30:00 PM 12.48 54.464 0.707 8.23 146.6 10.36
4/20/2022 9:45:00 PM 12.43 54.374 0.708 8.22 149.6 10.26
4/20/2022 10:00:00 PM 12.39 54.302 0.708 8.21 130.7 10.17
4/20/2022 10:15:00 PM 12.34 54.212 0.708 8.21 122.8 10.08
4/20/2022 10:30:00 PM 12.29 54.122 0.708 8.23 126.8 10.01
4/20/2022 10:45:00 PM 12.25 54.05 0.709 8.19 124.6 9.94
4/20/2022 11:00:00 PM 12.21 53.978 0.709 8.19 125.5 9.86
4/20/2022 11:15:00 PM 12.17 53.906 0.709 8.19 131.3 9.81
4/20/2022 11:30:00 PM 12.12 53.816 0.711 8.19 134 9.76
4/20/2022 11:45:00 PM 12.09 53.762 0.711 8.17 161.6 9.69
4/21/2022 12:00:00 AM 12.06 53.708 0.711 8.16 88.8 9.66
4/21/2022 12:15:00 AM 12.04 53.672 0.712 8.15 277.7 9.61
4/21/2022 12:30:00 AM 12.01 53.618 0.712 8.17 183.2 9.56
4/21/2022 12:45:00 AM 11.99 53.582 0.712 8.19 106.3 9.52
4/21/2022 1:00:00 AM 11.96 53.528 0.712 8.19 154.4 9.51
4/21/2022 1:15:00 AM 11.92 53.456 0.713 8.17 127.7 9.47
4/21/2022 1:30:00 AM 11.88 53.384 0.713 8.17 93.56 9.44
4/21/2022 1:45:00 AM 11.85 53.33 0.713 8.17 94.4 9.43
4/21/2022 2:00:00 AM 11.81 53.258 0.713 8.15 92.12 9.41
4/21/2022 2:15:00 AM 11.77 53.186 0.713 8.11 83.59 9.4
4/21/2022 2:30:00 AM 11.73 53.114 0.714 8.13 133.7 9.38
4/21/2022 2:45:00 AM 11.69 53.042 0.714 8.09 90.59 9.37
4/21/2022 3:00:00 AM 11.65 52.97 0.714 8.13 66.95 9.37
4/21/2022 3:15:00 AM 11.62 52.916 0.714 8.09 54.2 9.35
4/21/2022 3:30:00 AM 11.57 52.826 0.714 8.09 38.79 9.36
4/21/2022 3:45:00 AM 11.54 52.772 0.714 8.06 125.8 9.34
4/21/2022 4:00:00 AM 11.49 52.682 0.714 8.11 92.13 9.34
4/21/2022 4:15:00 AM 11.45 52.61 0.715 8.09 77.85 9.34
4/21/2022 4:30:00 AM 11.41 52.538 0.715 8.14 110.2 9.33
4/21/2022 4:45:00 AM 11.36 52.448 0.716 8.14 72.91 9.32
4/21/2022 5:00:00 AM 11.32 52.376 0.716 8.15 25.84 9.34
4/21/2022 5:15:00 AM 11.27 52.286 0.717 8.12 22.03 9.33
4/21/2022 5:30:00 AM 11.23 52.214 0.717 8.14 20.12 9.34
4/21/2022 5:45:00 AM 11.18 52.124 0.717 8.18 19.75 9.34
4/21/2022 6:00:00 AM 11.13 52.034 0.717 8.19 19.31 9.34
4/21/2022 6:15:00 AM 11.09 51.962 0.717 8.14 18.88 9.36
4/21/2022 6:30:00 AM 11.04 51.872 0.717 8.12 15.53 9.37
4/21/2022 6:45:00 AM 10.99 51.782 0.717 8.09 14.71 9.42
4/21/2022 7:00:00 AM 10.95 51.71 0.717 8.14 16 9.48
4/21/2022 7:15:00 AM 10.92 51.656 0.717 8.12 15.37 9.59
4/21/2022 7:30:00 AM 10.92 51.656 0.717 8.17 15.73 9.72
4/21/2022 7:45:00 AM 10.92 51.656 0.717 8.16 15.68 9.89
4/21/2022 8:00:00 AM 10.94 51.692 0.717 8.16 14.44 10.04
4/21/2022 8:15:00 AM 10.97 51.746 0.718 8 15.08 10.19
4/21/2022 8:30:00 AM 10.98 51.764 0.717 8.07 14.46 10.31
4/21/2022 8:45:00 AM 11.02 51.836 0.717 8.09 14.68 10.44
4/21/2022 9:00:00 AM 11.05 51.89 0.717 8.06 14.77 10.6
4/21/2022 9:15:00 AM 11.11 51.998 0.717 8.09 13.66 10.83
4/21/2022 9:30:00 AM 11.18 52.124 0.716 8.03 15.36 11.08
4/21/2022 9:45:00 AM 11.26 52.268 0.716 8.05 14.42 11.31
4/21/2022 10:00:00 AM 11.32 52.376 0.716 8.06 14.26 11.55
4/21/2022 10:15:00 AM 11.39 52.502 0.716 8.17 14.39 11.76
4/21/2022 10:30:00 AM 11.5 52.7 0.716 8.17 13.78 11.97
4/21/2022 10:45:00 AM 11.64 52.952 0.716 8.14 14.9 12.2
4/21/2022 11:00:00 AM 11.78 53.204 0.715 8.19 14.15 12.42
4/21/2022 11:15:00 AM 11.84 53.312 0.715 8.32 16.09 12.56
4/21/2022 11:30:00 AM 11.88 53.384 0.715 8.36 14.57 12.63
4/21/2022 11:45:00 AM 11.9 53.42 0.715 8.32 17.36 12.7
4/21/2022 12:00:00 PM 11.94 53.492 0.715 8.3 13.46 12.79
4/21/2022 12:15:00 PM 12.1 53.78 0.715 8.32 14.05 12.93
4/21/2022 12:30:00 PM 12.28 54.104 0.715 8.38 14.46 13.12
4/21/2022 12:45:00 PM 12.44 54.392 0.715 8.36 13.8 13.26
4/21/2022 1:00:00 PM 12.51 54.518 0.715 8.4 14.34 13.36
4/21/2022 1:15:00 PM 12.51 54.518 0.714 8.38 13.5 13.3
4/21/2022 1:30:00 PM 12.51 54.518 0.715 8.37 13.44 13.25
4/21/2022 1:45:00 PM 12.49 54.482 0.715 8.37 13.86 13.18
4/21/2022 2:00:00 PM 12.51 54.518 0.715 8.3 13.59 13.23
4/21/2022 2:15:00 PM 12.53 54.554 0.714 8.31 13.98 13.29
4/21/2022 2:30:00 PM 12.52 54.536 0.714 8.36 14.79 13.3
4/21/2022 2:45:00 PM 12.51 54.518 0.714 8.38 13.82 13.18
4/21/2022 3:00:00 PM 12.5 54.5 0.714 8.37 14.29 13.04
4/21/2022 3:15:00 PM 12.48 54.464 0.713 8.36 14.53 12.86
4/21/2022 3:30:00 PM 12.48 54.464 0.714 8.35 14.08 12.74
4/21/2022 3:45:00 PM 12.47 54.446 0.715 8.34 14.31 12.58
4/21/2022 4:00:00 PM 12.45 54.41 0.715 8.33 14.93 12.42
4/21/2022 4:15:00 PM 12.43 54.374 0.715 8.34 14.81 12.25
4/21/2022 4:30:00 PM 12.4 54.32 0.716 8.32 14.72 12.02
4/21/2022 4:45:00 PM 12.39 54.302 0.716 8.29 15.19 11.84
4/21/2022 5:00:00 PM 12.39 54.302 0.716 8.27 16.11 11.73
4/21/2022 5:15:00 PM 12.39 54.302 0.717 8.3 16.48 11.62
4/21/2022 5:30:00 PM 12.38 54.284 0.718 8.32 14.33 11.51
4/21/2022 5:45:00 PM 12.38 54.284 0.719 8.3 17.15 11.37
4/21/2022 6:00:00 PM 12.39 54.302 0.72 8.28 15.35 11.28
4/21/2022 6:15:00 PM 12.39 54.302 0.72 8.27 17.15 11.15
4/21/2022 6:30:00 PM 12.4 54.32 0.721 8.24 19.12 11.03
4/21/2022 6:45:00 PM 12.4 54.32 0.722 8.27 19.1 10.93
4/21/2022 7:00:00 PM 12.41 54.338 0.723 8.25 20.11 10.79
4/21/2022 7:15:00 PM 12.41 54.338 0.723 8.25 17.97 10.69
4/21/2022 7:30:00 PM 12.41 54.338 0.724 8.23 17.59 10.58
4/21/2022 7:45:00 PM 12.4 54.32 0.724 8.18 19.82 10.49
4/21/2022 8:00:00 PM 12.4 54.32 0.724 8.21 18.23 10.38
4/21/2022 8:15:00 PM 12.39 54.302 0.725 8.22 19.58 10.28
4/21/2022 8:30:00 PM 12.38 54.284 0.725 8.2 16.81 10.19
4/21/2022 8:45:00 PM 12.37 54.266 0.725 8.21 16.36 10.09
4/21/2022 9:00:00 PM 12.36 54.248 0.725 8.17 15.5 10.02
4/21/2022 9:15:00 PM 12.35 54.23 0.726 8.19 17.64 9.93
4/21/2022 9:30:00 PM 12.34 54.212 0.726 8.16 16.78 9.87
4/21/2022 9:45:00 PM 12.32 54.176 0.726 8.17 17.13 9.81
4/21/2022 10:00:00 PM 12.3 54.14 0.726 8.17 18.09 9.75
4/21/2022 10:15:00 PM 12.29 54.122 0.727 8.15 17.16 9.7
4/21/2022 10:30:00 PM 12.28 54.104 0.727 8.18 16.89 9.65
4/21/2022 10:45:00 PM 12.27 54.086 0.727 8.15 12.68 9.6
4/21/2022 11:00:00 PM 12.26 54.068 0.727 8.16 12.8 9.57
4/21/2022 11:15:00 PM 12.23 54.014 0.727 8.16 11.93 9.53
4/21/2022 11:30:00 PM 12.21 53.978 0.728 8.15 12.59 9.5
4/21/2022 11:45:00 PM 12.19 53.942 0.728 8.12 12.77 9.47
4/22/2022 12:00:00 AM 12.16 53.888 0.728 8.13 12.01 9.45
4/22/2022 12:15:00 AM 12.13 53.834 0.728 8.14 12.93 9.42
4/22/2022 12:30:00 AM 12.09 53.762 0.727 8.15 12.33 9.4
4/22/2022 12:45:00 AM 12.06 53.708 0.727 8.15 12.6 9.4
4/22/2022 1:00:00 AM 12.02 53.636 0.727 8.14 13.85 9.38
4/22/2022 1:15:00 AM 11.99 53.582 0.727 8.15 12.51 9.38
4/22/2022 1:30:00 AM 11.95 53.51 0.727 8.13 13.57 9.36
4/22/2022 1:45:00 AM 11.91 53.438 0.727 8.12 12.78 9.35
4/22/2022 2:00:00 AM 11.88 53.384 0.727 8.18 13.47 9.34
4/22/2022 2:15:00 AM 11.84 53.312 0.727 8.18 13.63 9.35
4/22/2022 2:30:00 AM 11.8 53.24 0.727 8.18 12.87 9.34
4/22/2022 2:45:00 AM 11.76 53.168 0.727 8.19 13.96 9.34
4/22/2022 3:00:00 AM 11.73 53.114 0.728 8.18 14.35 9.33
4/22/2022 3:15:00 AM 11.69 53.042 0.728 8.16 14.38 9.33
4/22/2022 3:30:00 AM 11.66 52.988 0.728 8.22 13.89 9.33
4/22/2022 3:45:00 AM 11.65 52.97 0.728 8.22 15.55 9.32
4/22/2022 4:00:00 AM 11.63 52.934 0.728 8.21 14.49 9.33
4/22/2022 4:15:00 AM 11.6 52.88 0.728 8.21 15.17 9.33
4/22/2022 4:30:00 AM 11.56 52.808 0.728 8.23 15.82 9.33
4/22/2022 4:45:00 AM 11.52 52.736 0.727 8.22 14.51 9.34
4/22/2022 5:00:00 AM 11.48 52.664 0.727 8.24 14.48 9.35
4/22/2022 5:15:00 AM 11.44 52.592 0.727 8.26 14.48 9.35
4/22/2022 5:30:00 AM 11.4 52.52 0.727 8.24 14.57 9.37
4/22/2022 5:45:00 AM 11.36 52.448 0.726 8.29 18.51 9.38
4/22/2022 6:00:00 AM 11.31 52.358 0.726 8.26 17.97 9.39
4/22/2022 6:15:00 AM 11.26 52.268 0.725 8.31 16.56 9.39
4/22/2022 6:30:00 AM 11.22 52.196 0.725 8.29 16.55 9.42
4/22/2022 6:45:00 AM 11.18 52.124 0.725 8.3 16.16 9.45
4/22/2022 7:00:00 AM 11.14 52.052 0.725 8.27 15.7 9.52
4/22/2022 7:15:00 AM 11.11 51.998 0.724 8.34 16.03 9.61
4/22/2022 7:30:00 AM 11.08 51.944 0.725 8.27 15.72 9.72
4/22/2022 7:45:00 AM 11.07 51.926 0.725 8.29 15.56 9.86
4/22/2022 8:00:00 AM 11.09 51.962 0.725 8.32 15.08 10.04
4/22/2022 8:15:00 AM 11.12 52.016 0.726 8.31 15.37 10.27
4/22/2022 8:30:00 AM 11.18 52.124 0.726 8.36 14.85 10.5
4/22/2022 8:45:00 AM 11.26 52.268 0.726 8.31 15.51 10.74
4/22/2022 9:00:00 AM 11.35 52.43 0.726 8.4 15.41 10.97
4/22/2022 9:15:00 AM 11.46 52.628 0.726 8.42 14.55 11.21
4/22/2022 9:30:00 AM 11.58 52.844 0.725 8.48 14.82 11.46
4/22/2022 9:45:00 AM 11.71 53.078 0.724 9.15 15.07 11.7
4/22/2022 10:00:00 AM 11.84 53.312 0.723 9.24 14.02 11.93
4/22/2022 10:15:00 AM 11.97 53.546 0.723 9.31 14.51 12.12
4/22/2022 10:30:00 AM 12.11 53.798 0.723 9.21 14.55 12.34
4/22/2022 10:45:00 AM 12.26 54.068 0.722 9.06 26.95 12.54
4/22/2022 11:00:00 AM 12.4 54.32 0.721 9.13 96.89 12.72
4/22/2022 11:15:00 AM 12.56 54.608 0.721 9.12 14.63 12.88
4/22/2022 11:30:00 AM 12.71 54.878 0.721 8.96 14.32 13.03
4/22/2022 11:45:00 AM 12.88 55.184 0.72 8.71 14.29 13.21
4/22/2022 12:00:00 PM 13.04 55.472 0.72 8.68 15.26 13.35
4/22/2022 12:15:00 PM 13.19 55.742 0.719 8.71 21.96 13.51
4/22/2022 12:30:00 PM 13.33 55.994 0.719 8.72 20.2 13.61
4/22/2022 12:45:00 PM 13.49 56.282 0.718 8.65 15.42 13.72
4/22/2022 1:00:00 PM 13.64 56.552 0.718 8.85 15.33 13.83
4/22/2022 1:15:00 PM 13.79 56.822 0.717 8.66 14.09 13.95
4/22/2022 1:30:00 PM 13.93 57.074 0.717 8.94 15.27 14.01
4/22/2022 1:45:00 PM 14.07 57.326 0.717 8.74 14.93 14.04
4/22/2022 2:00:00 PM 14.19 57.542 0.716 8.62 16.91 14.12
4/22/2022 2:15:00 PM 14.29 57.722 0.716 8.71 14.99 14.11
4/22/2022 2:30:00 PM 14.38 57.884 0.715 8.81 15.4 14.14
4/22/2022 2:45:00 PM 14.41 57.938 0.715 8.7 15.19 14.12
4/22/2022 3:00:00 PM 14.41 57.938 0.714 8.67 75.32 14.04
4/22/2022 3:15:00 PM 14.4 57.92 0.713 8.68 16.38 13.97
4/22/2022 3:30:00 PM 14.35 57.83 0.71 8.59 17.41 13.88
4/22/2022 3:45:00 PM 14.36 57.848 0.71 8.64 15.96 13.8
4/22/2022 4:00:00 PM 14.42 57.956 0.71 8.65 36.49 13.72
4/22/2022 4:15:00 PM 14.46 58.028 0.707 8.71 136.7 13.72
4/22/2022 4:30:00 PM 14.57 58.226 0.708 8.72 201.2 13.71
4/22/2022 4:45:00 PM 14.62 58.316 0.715 8.77 241.5 13.64
4/22/2022 5:00:00 PM 14.65 58.37 0.716 8.71 16.38 13.58
4/22/2022 5:15:00 PM 14.62 58.316 0.717 8.7 18.02 13.43
4/22/2022 5:30:00 PM 14.56 58.208 0.718 8.67 16.32 13.25
4/22/2022 5:45:00 PM 14.49 58.082 0.721 8.69 17.1 13.01
4/22/2022 6:00:00 PM 14.43 57.974 0.72 8.67 17.63 12.83
4/22/2022 6:15:00 PM 14.39 57.902 0.722 8.63 18.33 12.66
4/22/2022 6:30:00 PM 14.38 57.884 0.722 8.69 18.23 12.49
4/22/2022 6:45:00 PM 14.38 57.884 0.722 8.74 18.56 12.32
4/22/2022 7:00:00 PM 14.37 57.866 0.723 8.7 18.48 12.1
4/22/2022 7:15:00 PM 14.35 57.83 0.725 8.63 18.91 11.85
4/22/2022 7:30:00 PM 14.32 57.776 0.726 8.7 19.68 11.6
4/22/2022 7:45:00 PM 14.29 57.722 0.727 8.65 19.99 11.32
4/22/2022 8:00:00 PM 14.24 57.632 0.728 8.66 19.81 11.08
4/22/2022 8:15:00 PM 14.2 57.56 0.729 8.68 20.15 10.87
4/22/2022 8:30:00 PM 14.15 57.47 0.73 8.77 21.06 10.66
4/22/2022 8:45:00 PM 14.1 57.38 0.731 9 20.93 10.48
4/22/2022 9:00:00 PM 14.06 57.308 0.732 9.21 21.3 10.31
4/22/2022 9:15:00 PM 14.01 57.218 0.732 9.28 22 10.17
4/22/2022 9:30:00 PM 13.97 57.146 0.732 9.35 20.84 10.03
4/22/2022 9:45:00 PM 13.93 57.074 0.732 9.37 21.71 9.9
4/22/2022 10:00:00 PM 13.89 57.002 0.732 9.39 21.68 9.81
4/22/2022 10:15:00 PM 13.84 56.912 0.732 9.39 21.16 9.72
4/22/2022 10:30:00 PM 13.79 56.822 0.731 9.36 22.91 9.63
4/22/2022 10:45:00 PM 13.75 56.75 0.731 9.35 23.01 9.56
4/22/2022 11:00:00 PM 13.7 56.66 0.731 9.36 22.66 9.46
4/22/2022 11:15:00 PM 13.65 56.57 0.731 9.35 22.3 9.4
4/22/2022 11:30:00 PM 13.6 56.48 0.731 9.29 23.26 9.34
4/22/2022 11:45:00 PM 13.57 56.426 0.731 9.29 24.07 9.28
4/23/2022 12:00:00 AM 13.54 56.372 0.731 9.29 23.58 9.22
4/23/2022 12:15:00 AM 13.51 56.318 0.731 9.23 23.12 9.16
4/23/2022 12:30:00 AM 13.48 56.264 0.731 9.26 21.2 9.13
4/23/2022 12:45:00 AM 13.45 56.21 0.731 9.25 22.85 9.07
4/23/2022 1:00:00 AM 13.42 56.156 0.731 9.29 23.29 9.05
4/23/2022 1:15:00 AM 13.39 56.102 0.731 9.27 22.1 9.01
4/23/2022 1:30:00 AM 13.36 56.048 0.73 9.28 22.28 8.98
4/23/2022 1:45:00 AM 13.34 56.012 0.73 9.3 23.51 8.97
4/23/2022 2:00:00 AM 13.31 55.958 0.73 9.3 22.04 8.95
4/23/2022 2:15:00 AM 13.28 55.904 0.73 9.3 23.2 8.92
4/23/2022 2:30:00 AM 13.25 55.85 0.729 9.31 23.5 8.9
4/23/2022 2:45:00 AM 13.23 55.814 0.729 9.33 25.02 8.88
4/23/2022 3:00:00 AM 13.2 55.76 0.73 9.33 24.34 8.87
4/23/2022 3:15:00 AM 13.17 55.706 0.729 9.36 24.33 8.86
4/23/2022 3:30:00 AM 13.15 55.67 0.729 9.4 23.56 8.86
4/23/2022 3:45:00 AM 13.11 55.598 0.724 9.4 23.94 8.84
4/23/2022 4:00:00 AM 13.08 55.544 0.723 9.39 23.7 8.84
4/23/2022 4:15:00 AM 13.05 55.49 0.725 9.41 24.23 8.83
4/23/2022 4:30:00 AM 13.02 55.436 0.728 9.41 24.31 8.84
4/23/2022 4:45:00 AM 12.99 55.382 0.729 9.42 26.18 8.85
4/23/2022 5:00:00 AM 12.95 55.31 0.727 9.42 25.54 8.83
4/23/2022 5:15:00 AM 12.92 55.256 0.728 9.42 29.1 8.85
4/23/2022 5:30:00 AM 12.88 55.184 0.729 9.49 26.73 8.85
4/23/2022 5:45:00 AM 12.85 55.13 0.73 9.51 25.89 8.85
4/23/2022 6:00:00 AM 12.81 55.058 0.729 9.49 25.52 8.85
4/23/2022 6:15:00 AM 12.77 54.986 0.73 9.47 26.27 8.87
4/23/2022 6:30:00 AM 12.74 54.932 0.729 9.5 25.95 8.89
4/23/2022 6:45:00 AM 12.7 54.86 0.728 9.51 27.1 8.91
4/23/2022 7:00:00 AM 12.67 54.806 0.731 9.51 26.85 8.93
4/23/2022 7:15:00 AM 12.64 54.752 0.731 9.52 25.34 8.96
4/23/2022 7:30:00 AM 12.61 54.698 0.731 9.5 28 9
4/23/2022 7:45:00 AM 12.58 54.644 0.73 9.48 28.05 9.06
4/23/2022 8:00:00 AM 12.56 54.608 0.731 9.46 27.92 9.13
4/23/2022 8:15:00 AM 12.54 54.572 0.72 9.54 27.3 9.23
4/23/2022 8:30:00 AM 12.52 54.536 0.726 9.56 24.88 9.31
4/23/2022 8:45:00 AM 12.51 54.518 0.732 9.56 24.62 9.41
4/23/2022 9:00:00 AM 12.51 54.518 0.732 9.58 27.58 9.49
4/23/2022 9:15:00 AM 12.51 54.518 0.732 9.57 29.41 9.61
4/23/2022 9:30:00 AM 12.52 54.536 0.732 9.61 27.3 9.77
4/23/2022 9:45:00 AM 12.53 54.554 0.733 9.59 28.6 10.01
4/23/2022 10:00:00 AM 12.58 54.644 0.732 9.6 26.78 10.31
4/23/2022 10:15:00 AM 12.64 54.752 0.728 9.62 29.21 10.66
4/23/2022 10:30:00 AM 12.67 54.806 0.732 9.55 28.41 10.93
4/23/2022 10:45:00 AM 12.68 54.824 0.731 9.67 28.98 11.16
4/23/2022 11:00:00 AM 12.69 54.842 0.732 9.71 30.26 11.38
4/23/2022 11:15:00 AM 12.68 54.824 0.732 9.77 29.83 11.52
4/23/2022 11:30:00 AM 12.67 54.806 0.731 9.72 29.47 11.64
4/23/2022 11:45:00 AM 12.68 54.824 0.731 9.72 29.46 11.77
4/23/2022 12:00:00 PM 12.69 54.842 0.73 9.73 28.59 11.91
4/23/2022 12:15:00 PM 12.75 54.95 0.73 9.74 26 12.12
4/23/2022 12:30:00 PM 12.79 55.022 0.73 9.79 26.19 12.32
4/23/2022 12:45:00 PM 12.82 55.076 0.729 9.78 26.2 12.44
4/23/2022 1:00:00 PM 12.85 55.13 0.729 9.78 25.65 12.52
4/23/2022 1:15:00 PM 12.86 55.148 0.729 9.78 29.24 12.59
4/23/2022 1:30:00 PM 12.92 55.256 0.728 9.81 28.51 12.73
4/23/2022 1:45:00 PM 12.94 55.292 0.729 9.8 29.54 12.84
4/23/2022 2:00:00 PM 12.94 55.292 0.727 9.8 27.73 12.87
4/23/2022 2:15:00 PM 12.96 55.328 0.726 9.8 31.68 12.9
4/23/2022 2:30:00 PM 12.98 55.364 0.726 9.83 28.18 12.96
4/23/2022 2:45:00 PM 13.06 55.508 0.726 9.8 28.25 13.07
4/23/2022 3:00:00 PM 13.17 55.706 0.727 9.83 39.96 13.23
4/23/2022 3:15:00 PM 13.27 55.886 0.726 9.82 50.41 13.41
4/23/2022 3:30:00 PM 13.39 56.102 0.727 9.86 80.55 13.57
4/23/2022 3:45:00 PM 13.43 56.174 0.727 9.84 128.5 13.61
4/23/2022 4:00:00 PM 13.45 56.21 0.726 9.83 45.2 13.65
4/23/2022 4:15:00 PM 13.55 56.39 0.725 9.84 51.12 13.72
4/23/2022 4:30:00 PM 13.64 56.552 0.724 9.86 28.26 13.78
4/23/2022 4:45:00 PM 13.68 56.624 0.724 9.8 29.54 13.79
4/23/2022 5:00:00 PM 13.72 56.696 0.724 9.81 27.73 13.79
4/23/2022 5:15:00 PM 13.74 56.732 0.723 9.83 32.44 13.77
4/23/2022 5:30:00 PM 13.74 56.732 0.723 9.82 27.37 13.66
4/23/2022 5:45:00 PM 13.72 56.696 0.723 9.79 77.03 13.54
4/23/2022 6:00:00 PM 13.69 56.642 0.724 9.85 28.54 13.42
4/23/2022 6:15:00 PM 13.64 56.552 0.724 9.78 30.58 13.22
4/23/2022 6:30:00 PM 13.59 56.462 0.724 9.78 29.13 13.01
4/23/2022 6:45:00 PM 13.54 56.372 0.724 9.79 28.76 12.76
4/23/2022 7:00:00 PM 13.5 56.3 0.725 9.69 27.4 12.51
4/23/2022 7:15:00 PM 13.47 56.246 0.725 9.71 29.17 12.24
4/23/2022 7:30:00 PM 13.43 56.174 0.725 9.75 27.45 11.99
4/23/2022 7:45:00 PM 13.39 56.102 0.726 9.71 31.43 11.72
4/23/2022 8:00:00 PM 13.35 56.03 0.726 9.68 31.24 11.49
4/23/2022 8:15:00 PM 13.31 55.958 0.726 9.63 27.1 11.25
4/23/2022 8:30:00 PM 13.27 55.886 0.727 9.66 29.78 11.05
4/23/2022 8:45:00 PM 13.23 55.814 0.727 9.64 29.81 10.85
4/23/2022 9:00:00 PM 13.19 55.742 0.727 9.58 28.95 10.68
4/23/2022 9:15:00 PM 13.15 55.67 0.728 9.65 30.23 10.53
4/23/2022 9:30:00 PM 13.12 55.616 0.728 9.64 30.12 10.4
4/23/2022 9:45:00 PM 13.09 55.562 0.729 9.61 31.28 10.28
4/23/2022 10:00:00 PM 13.05 55.49 0.729 9.63 30.19 10.15
4/23/2022 10:15:00 PM 13.02 55.436 0.729 9.65 31.22 10.06
4/23/2022 10:30:00 PM 12.99 55.382 0.73 9.61 31.85 9.97
4/23/2022 10:45:00 PM 12.96 55.328 0.73 9.63 31.5 9.87
4/23/2022 11:00:00 PM 12.92 55.256 0.73 9.62 33.61 9.81
4/23/2022 11:15:00 PM 12.89 55.202 0.73 9.65 34.11 9.72
4/23/2022 11:30:00 PM 12.85 55.13 0.731 9.64 33.68 9.63
4/23/2022 11:45:00 PM 12.82 55.076 0.731 9.59 33.32 9.6
4/24/2022 12:00:00 AM 12.79 55.022 0.731 9.6 33.68 9.53
4/24/2022 12:15:00 AM 12.76 54.968 0.731 9.6 35.61 9.48
4/24/2022 12:30:00 AM 12.73 54.914 0.731 9.59 34.65 9.43
4/24/2022 12:45:00 AM 12.7 54.86 0.732 9.59 38.43 9.37
4/24/2022 1:00:00 AM 12.67 54.806 0.732 9.59 37.58 9.34
4/24/2022 1:15:00 AM 12.63 54.734 0.732 9.59 37.46 9.3
4/24/2022 1:30:00 AM 12.6 54.68 0.732 9.6 38.57 9.28
4/24/2022 1:45:00 AM 12.56 54.608 0.733 9.61 37.66 9.24
4/24/2022 2:00:00 AM 12.53 54.554 0.733 9.61 36.31 9.2
4/24/2022 2:15:00 AM 12.5 54.5 0.734 9.59 36.55 9.17
4/24/2022 2:30:00 AM 12.46 54.428 0.734 9.59 37.45 9.17
4/24/2022 2:45:00 AM 12.43 54.374 0.734 9.59 37.76 9.13
4/24/2022 3:00:00 AM 12.4 54.32 0.734 9.61 39.41 9.14
4/24/2022 3:15:00 AM 12.36 54.248 0.734 9.6 38.69 9.11
4/24/2022 3:30:00 AM 12.33 54.194 0.734 9.61 51.6 9.09
4/24/2022 4:00:00 AM 12.26 54.068 0.734 9.62 41.63 9.07
4/24/2022 4:15:00 AM 12.22 53.996 0.734 9.62 41.87 9.07
4/24/2022 4:30:00 AM 12.19 53.942 0.734 9.63 42.86 9.06
4/24/2022 4:45:00 AM 12.16 53.888 0.734 9.65 45.23 9.06
4/24/2022 5:00:00 AM 12.14 53.852 0.734 9.63 43.7 9.06
4/24/2022 5:15:00 AM 12.11 53.798 0.734 9.61 43.36 9.07
4/24/2022 5:30:00 AM 12.09 53.762 0.734 9.66 44.82 9.07
4/24/2022 5:45:00 AM 12.06 53.708 0.734 9.6 46.15 9.07
4/24/2022 6:00:00 AM 12.03 53.654 0.734 9.65 44.52 9.07
4/24/2022 6:15:00 AM 12.01 53.618 0.734 9.64 45.62 9.08
4/24/2022 6:30:00 AM 11.99 53.582 0.734 9.67 46.3 9.1
4/24/2022 6:45:00 AM 11.97 53.546 0.733 9.65 47.57 9.11
4/24/2022 7:00:00 AM 11.95 53.51 0.734 9.62 43.94 9.17
4/24/2022 7:15:00 AM 11.95 53.51 0.733 9.63 43.99 9.27
4/24/2022 7:30:00 AM 11.95 53.51 0.733 9.62 43.77 9.4
4/24/2022 7:45:00 AM 11.97 53.546 0.732 9.68 44.1 9.63
4/24/2022 8:00:00 AM 11.98 53.564 0.732 9.68 41.91 9.83
4/24/2022 8:15:00 AM 12 53.6 0.732 9.72 42.62 10.01
4/24/2022 8:30:00 AM 12.04 53.672 0.731 9.71 43.26 10.25
4/24/2022 8:45:00 AM 12.1 53.78 0.731 9.73 42.36 10.52
4/24/2022 9:00:00 AM 12.18 53.924 0.731 9.76 42.23 10.82
4/24/2022 9:15:00 AM 12.27 54.086 0.73 9.79 42.33 11.1
4/24/2022 9:30:00 AM 12.37 54.266 0.73 9.68 43.14 11.34
4/24/2022 9:45:00 AM 12.48 54.464 0.73 9.7 46.93 11.63
4/24/2022 10:00:00 AM 12.6 54.68 0.729 9.81 47.24 11.88
4/24/2022 10:15:00 AM 12.73 54.914 0.729 9.8 44.89 12.12
4/24/2022 10:30:00 AM 12.87 55.166 0.729 9.79 44.57 12.36
4/24/2022 10:45:00 AM 13.01 55.418 0.728 9.82 43.04 12.57
4/24/2022 11:00:00 AM 13.15 55.67 0.728 9.82 44.13 12.79
4/24/2022 11:15:00 AM 13.31 55.958 0.727 9.8 44.33 12.97
4/24/2022 11:30:00 AM 13.46 56.228 0.727 9.77 43.35 13.14
4/24/2022 11:45:00 AM 13.63 56.534 0.725 9.77 43.46 13.33
4/24/2022 12:00:00 PM 13.79 56.822 0.725 9.77 44.53 13.46
4/24/2022 12:15:00 PM 13.95 57.11 0.725 9.73 43.64 13.64
4/24/2022 12:30:00 PM 14.12 57.416 0.724 9.72 49.97 13.72
4/24/2022 12:45:00 PM 14.29 57.722 0.723 9.68 54.11 13.84
4/24/2022 1:00:00 PM 14.46 58.028 0.723 9.69 57.31 13.99
4/24/2022 1:15:00 PM 14.61 58.298 0.723 9.65 79.54 14.11
4/24/2022 1:30:00 PM 14.77 58.586 0.72 9.66 50.8 14.09
4/24/2022 1:45:00 PM 14.93 58.874 0.72 9.64 54.09 14.14
4/24/2022 2:00:00 PM 15.09 59.162 0.72 9.61 60.85 14.35
4/24/2022 2:15:00 PM 15.23 59.414 0.719 9.6 748.1 14.35
4/24/2022 2:30:00 PM 15.37 59.666 0.718 9.58 136.2 14.34
4/24/2022 2:45:00 PM 15.49 59.882 0.717 9.58 59.03 14.37
4/24/2022 3:00:00 PM 15.6 60.08 0.717 9.53 95.26 14.22
4/24/2022 3:15:00 PM 15.7 60.26 0.716 9.56 44.36 14.18
4/24/2022 3:30:00 PM 15.77 60.386 0.717 9.46 40.76 14.18
4/24/2022 3:45:00 PM 15.82 60.476 0.716 9.45 44.72 14.1
4/24/2022 4:00:00 PM 15.88 60.584 0.716 9.39 80.22 14.04
4/24/2022 4:15:00 PM 15.93 60.674 0.716 9.41 40.14 13.98
4/24/2022 4:30:00 PM 16 60.8 0.716 9.38 136.6 13.93
4/24/2022 4:45:00 PM 16.05 60.89 0.716 9.39 38.37 13.97
4/24/2022 5:00:00 PM 16.08 60.944 0.716 9.39 178.1 13.89
4/24/2022 5:15:00 PM 16.09 60.962 0.715 9.38 38.24 13.69
4/24/2022 5:30:00 PM 16.1 60.98 0.715 9.43 40.66 13.54
4/24/2022 5:45:00 PM 16.08 60.944 0.715 9.41 43.8 13.4
4/24/2022 6:00:00 PM 16.05 60.89 0.717 9.45 47.25 13.14
4/24/2022 6:15:00 PM 16.01 60.818 0.716 9.37 51.64 12.97
4/24/2022 6:30:00 PM 15.97 60.746 0.716 9.38 67.26 12.72
4/24/2022 6:45:00 PM 15.93 60.674 0.718 9.36 84.81 12.43
4/24/2022 7:00:00 PM 15.89 60.602 0.718 9.34 72.12 12.14
4/24/2022 7:15:00 PM 15.84 60.512 0.719 9.29 80.16 11.83
4/24/2022 7:30:00 PM 15.79 60.422 0.719 9.31 76.48 11.54
4/24/2022 7:45:00 PM 15.74 60.332 0.719 9.34 47.38 11.22
4/24/2022 8:00:00 PM 15.69 60.242 0.72 9.33 46.75 10.95
4/24/2022 8:15:00 PM 15.64 60.152 0.72 9.28 46.48 10.68
4/24/2022 8:30:00 PM 15.59 60.062 0.721 9.31 44.98 10.45
4/24/2022 8:45:00 PM 15.54 59.972 0.722 9.29 45.52 10.23
4/24/2022 9:00:00 PM 15.48 59.864 0.721 9.32 45.86 10.03
4/24/2022 9:15:00 PM 15.43 59.774 0.724 9.35 48.02 9.86
4/24/2022 9:30:00 PM 15.38 59.684 0.725 9.34 49.73 9.7
4/24/2022 9:45:00 PM 15.33 59.594 0.725 9.29 48.97 9.55
4/24/2022 10:00:00 PM 15.28 59.504 0.726 9.37 49.95 9.4
4/24/2022 10:15:00 PM 15.23 59.414 0.726 9.27 50.02 9.29
4/24/2022 10:30:00 PM 15.18 59.324 0.726 9.32 49.24 9.19
4/24/2022 10:45:00 PM 15.13 59.234 0.727 9.29 52.25 9.09
4/24/2022 11:00:00 PM 15.09 59.162 0.728 9.3 93.98 9.01
4/24/2022 11:15:00 PM 15.03 59.054 0.728 9.29 107.7 8.92
4/24/2022 11:30:00 PM 14.98 58.964 0.729 9.31 125.6 8.85
4/24/2022 11:45:00 PM 14.94 58.892 0.729 9.27 135 8.78
4/25/2022 12:00:00 AM 14.9 58.82 0.729 9.34 92.49 8.72
4/25/2022 12:15:00 AM 14.85 58.73 0.73 9.25 107.8 8.65
4/25/2022 12:30:00 AM 14.81 58.658 0.729 9.34 129.3 8.61
4/25/2022 12:45:00 AM 14.76 58.568 0.729 9.32 22.97 8.56
4/25/2022 1:00:00 AM 14.72 58.496 0.729 9.38 21.05 8.52
4/25/2022 1:15:00 AM 14.67 58.406 0.73 9.29 21.27 8.48
4/25/2022 1:30:00 AM 14.62 58.316 0.73 9.31 19.6 8.44
4/25/2022 1:45:00 AM 14.56 58.208 0.729 9.25 36.99 8.42
4/25/2022 2:00:00 AM 14.51 58.118 0.733 9.3 19.44 8.39
4/25/2022 2:15:00 AM 14.46 58.028 0.731 9.23 19.44 8.37
4/25/2022 2:30:00 AM 14.41 57.938 0.731 9.27 17.09 8.35
4/25/2022 2:45:00 AM 14.35 57.83 0.732 9.21 17.86 8.33
4/25/2022 3:00:00 AM 14.3 57.74 0.732 9.24 18.54 8.31
4/25/2022 3:15:00 AM 14.25 57.65 0.732 9.27 18.45 8.31
4/25/2022 3:30:00 AM 14.19 57.542 0.732 9.31 20.21 8.32
4/25/2022 3:45:00 AM 14.14 57.452 0.735 9.22 19.49 8.31
4/25/2022 4:00:00 AM 14.1 57.38 0.735 9.27 19.56 8.3
4/25/2022 4:15:00 AM 14.07 57.326 0.734 9.26 23.49 8.3
4/25/2022 4:30:00 AM 14.04 57.272 0.735 9.26 325.3 8.3
4/25/2022 4:45:00 AM 14 57.2 0.735 9.27 225.6 8.3
4/25/2022 5:00:00 AM 13.96 57.128 0.735 9.26 413.1 8.31
4/25/2022 5:15:00 AM 13.92 57.056 0.735 9.25 41.8 8.31
4/25/2022 5:30:00 AM 13.87 56.966 0.73 9.28 42.54 8.32
4/25/2022 5:45:00 AM 13.83 56.894 0.736 9.32 39.17 8.33
4/25/2022 6:00:00 AM 13.79 56.822 0.733 9.25 160.5 8.35
4/25/2022 6:15:00 AM 13.75 56.75 0.735 9.24 146.9 8.36
4/25/2022 6:30:00 AM 13.72 56.696 0.735 9.31 149.5 8.37
4/25/2022 6:45:00 AM 13.68 56.624 0.736 9.28 193.3 8.39
4/25/2022 7:00:00 AM 13.65 56.57 0.735 9.29 171.7 8.44
4/25/2022 7:15:00 AM 13.61 56.498 0.732 9.28 55.09 8.53
4/25/2022 7:30:00 AM 13.59 56.462 0.733 9.32 54.36 8.63
4/25/2022 7:45:00 AM 13.56 56.408 0.736 9.32 50.37 8.76
4/25/2022 8:00:00 AM 13.53 56.354 0.736 9.34 44.91 8.89
4/25/2022 8:15:00 AM 13.51 56.318 0.736 9.31 44.18 9.02
4/25/2022 8:30:00 AM 13.49 56.282 0.735 9.35 44.81 9.17
4/25/2022 8:45:00 AM 13.46 56.228 0.735 9.33 44.62 9.36
4/25/2022 9:00:00 AM 13.44 56.192 0.735 9.36 44.38 9.54
4/25/2022 9:15:00 AM 13.42 56.156 0.735 9.37 45.08 9.71
4/25/2022 9:30:00 AM 13.4 56.12 0.735 9.42 46.4 9.89
4/25/2022 9:45:00 AM 13.38 56.084 0.734 9.43 46.61 10.09
4/25/2022 10:00:00 AM 13.38 56.084 0.734 9.4 45.31 10.31
4/25/2022 10:15:00 AM 13.38 56.084 0.734 9.43 46.35 10.51
4/25/2022 10:30:00 AM 13.38 56.084 0.734 9.45 46.73 10.67
4/25/2022 10:45:00 AM 13.41 56.138 0.733 9.49 47.45 10.85
4/25/2022 11:00:00 AM 13.42 56.156 0.733 9.49 49.24 11.05
4/25/2022 11:15:00 AM 13.42 56.156 0.732 9.46 49.43 11.18
4/25/2022 11:30:00 AM 13.42 56.156 0.732 9.51 50.16 11.32
4/25/2022 11:45:00 AM 13.42 56.156 0.733 9.52 55.95 11.47
4/25/2022 12:00:00 PM 13.43 56.174 0.731 9.5 57.08 11.64
4/25/2022 12:15:00 PM 13.44 56.192 0.731 9.5 57.04 11.83
4/25/2022 12:30:00 PM 13.45 56.21 0.73 9.53 59.85 12.05
4/25/2022 12:45:00 PM 13.47 56.246 0.729 9.6 61.76 12.23
4/25/2022 1:00:00 PM 13.48 56.264 0.729 9.63 59.64 12.39
4/25/2022 1:15:00 PM 13.49 56.282 0.729 9.66 59.74 12.49
4/25/2022 1:30:00 PM 13.53 56.354 0.728 9.58 60.48 12.61
4/25/2022 1:45:00 PM 13.59 56.462 0.728 9.61 58.46 12.74
4/25/2022 2:00:00 PM 13.65 56.57 0.727 9.66 55.67 12.91
4/25/2022 2:15:00 PM 13.72 56.696 0.726 9.68 51.28 13.14
4/25/2022 2:30:00 PM 13.81 56.858 0.726 9.68 50.86 13.31
4/25/2022 2:45:00 PM 13.89 57.002 0.725 9.64 49.73 13.45
4/25/2022 3:00:00 PM 13.97 57.146 0.724 9.63 49.62 13.54
4/25/2022 3:15:00 PM 14.04 57.272 0.724 9.56 99.14 13.68
4/25/2022 3:30:00 PM 14.1 57.38 0.724 9.65 148.8 13.81
4/25/2022 3:45:00 PM 14.14 57.452 0.724 9.59 183.7 13.9
4/25/2022 4:00:00 PM 14.17 57.506 0.724 9.68 74.76 13.96
4/25/2022 4:15:00 PM 14.19 57.542 0.723 9.58 413.1 13.92
4/25/2022 4:30:00 PM 14.2 57.56 0.723 9.66 157 13.9
4/25/2022 4:45:00 PM 14.22 57.596 0.723 9.63 123.6 13.86
4/25/2022 5:00:00 PM 14.23 57.614 0.723 9.56 28.64 13.81
4/25/2022 5:15:00 PM 14.23 57.614 0.723 9.46 16.4 13.74
4/25/2022 5:30:00 PM 14.22 57.596 0.723 9.54 36.2 13.64
4/25/2022 5:45:00 PM 14.2 57.56 0.723 9.55 14.24 13.45
4/25/2022 6:00:00 PM 14.18 57.524 0.724 9.58 8.81 13.28
4/25/2022 6:15:00 PM 14.16 57.488 0.724 9.44 8.03 13.09
4/25/2022 6:30:00 PM 14.12 57.416 0.725 9.49 10.43 12.85
4/25/2022 6:45:00 PM 14.08 57.344 0.725 9.41 52.54 12.58
4/25/2022 7:00:00 PM 14.04 57.272 0.726 9.41 38.42 12.28
4/25/2022 7:15:00 PM 14.01 57.218 0.726 9.39 74.18 11.99
4/25/2022 7:30:00 PM 13.98 57.164 0.727 9.47 22 11.74
4/25/2022 7:45:00 PM 13.95 57.11 0.727 9.41 45.27 11.5
4/25/2022 8:00:00 PM 13.92 57.056 0.727 9.38 87.79 11.26
4/25/2022 8:15:00 PM 13.89 57.002 0.732 9.34 70.25 11.02
4/25/2022 8:30:00 PM 13.86 56.948 0.732 9.45 66.05 10.82
4/25/2022 8:45:00 PM 13.84 56.912 0.732 9.32 64.95 10.63
4/25/2022 9:00:00 PM 13.81 56.858 0.732 9.39 112.1 10.46
4/25/2022 9:15:00 PM 13.79 56.822 0.732 9.33 135.7 10.32
4/25/2022 9:30:00 PM 13.77 56.786 0.732 9.42 176.3 10.18
4/25/2022 9:45:00 PM 13.74 56.732 0.732 9.27 186.8 10.05
4/25/2022 10:00:00 PM 13.73 56.714 0.733 9.37 158.6 9.94
4/25/2022 10:15:00 PM 13.71 56.678 0.733 9.2 218.7 9.82
4/25/2022 10:30:00 PM 13.69 56.642 0.733 9.32 9.43 9.73
4/25/2022 10:45:00 PM 13.68 56.624 0.733 9.19 20.13 9.65
4/25/2022 11:00:00 PM 13.66 56.588 0.733 9.27 15.43 9.55
4/25/2022 11:15:00 PM 13.64 56.552 0.733 9.22 22.7 9.49
4/25/2022 11:30:00 PM 13.63 56.534 0.733 9.35 16.89 9.43
4/25/2022 11:45:00 PM 13.61 56.498 0.733 9.19 19.28 9.35
4/26/2022 12:00:00 AM 13.6 56.48 0.733 9.35 27.56 9.27
4/26/2022 12:15:00 AM 13.58 56.444 0.733 9.18 13.28 9.22
4/26/2022 12:30:00 AM 13.56 56.408 0.733 9.24 18.65 9.15
4/26/2022 12:45:00 AM 13.55 56.39 0.733 9.2 12.17 9.1
4/26/2022 1:00:00 AM 13.53 56.354 0.733 9.25 15.37 9.05
4/26/2022 1:15:00 AM 13.51 56.318 0.732 9.2 13.77 9.01
4/26/2022 1:30:00 AM 13.49 56.282 0.732 9.25 19 8.96
4/26/2022 1:45:00 AM 13.48 56.264 0.732 9.22 12.14 8.93
4/26/2022 2:00:00 AM 13.46 56.228 0.732 9.31 15.11 8.9
4/26/2022 2:15:00 AM 13.44 56.192 0.732 9.29 22.58 8.87
4/26/2022 2:30:00 AM 13.43 56.174 0.732 9.36 36.72 8.85
4/26/2022 2:45:00 AM 13.41 56.138 0.732 9.42 64.45 8.84
4/26/2022 3:00:00 AM 13.39 56.102 0.732 9.4 72.29 8.82
4/26/2022 3:15:00 AM 13.37 56.066 0.732 9.37 37.34 8.8
4/26/2022 3:30:00 AM 13.35 56.03 0.731 9.24 35.05 8.77
4/26/2022 3:45:00 AM 13.32 55.976 0.732 9.24 42.22 8.76
4/26/2022 4:00:00 AM 13.3 55.94 0.732 9.38 24.77 8.76
4/26/2022 4:15:00 AM 13.28 55.904 0.732 9.37 36.48 8.74
4/26/2022 4:30:00 AM 13.26 55.868 0.732 9.28 16.12 8.74
4/26/2022 4:45:00 AM 13.24 55.832 0.732 9.32 24.84 8.73
4/26/2022 5:00:00 AM 13.21 55.778 0.732 9.38 30.37 8.73
4/26/2022 5:15:00 AM 13.19 55.742 0.733 9.45 20.78 8.72
4/26/2022 5:30:00 AM 13.18 55.724 0.733 9.4 37.22 8.72
4/26/2022 5:45:00 AM 13.16 55.688 0.733 9.4 18.84 8.72
4/26/2022 6:00:00 AM 13.14 55.652 0.733 9.26 25.12 8.72
4/26/2022 6:15:00 AM 13.12 55.616 0.733 9.26 26.47 8.72
4/26/2022 6:30:00 AM 13.1 55.58 0.733 9.31 42.81 8.73
4/26/2022 6:45:00 AM 13.08 55.544 0.733 9.49 39.99 8.74
4/26/2022 7:00:00 AM 13.06 55.508 0.733 9.41 20.82 8.77
4/26/2022 7:15:00 AM 13.06 55.508 0.733 9.39 33.87 8.84
4/26/2022 7:30:00 AM 13.05 55.49 0.733 9.23 31.16 8.92
4/26/2022 7:45:00 AM 13.05 55.49 0.733 9.35 34.13 9.05
4/26/2022 8:00:00 AM 13.06 55.508 0.733 9.41 46.68 9.23
4/26/2022 8:15:00 AM 13.08 55.544 0.733 9.32 19.99 9.46
4/26/2022 8:30:00 AM 13.09 55.562 0.733 9.45 46.75 9.66
4/26/2022 8:45:00 AM 13.11 55.598 0.733 9.4 50.61 9.87
4/26/2022 9:00:00 AM 13.13 55.634 0.733 9.24 34.65 10.09
4/26/2022 9:15:00 AM 13.17 55.706 0.733 9.44 37.14 10.35
4/26/2022 9:30:00 AM 13.24 55.832 0.733 9.29 37.41 10.67
4/26/2022 9:45:00 AM 13.3 55.94 0.733 9.53 33.43 11.02
4/26/2022 10:00:00 AM 13.34 56.012 0.733 9.4 51.51 11.26
4/26/2022 10:15:00 AM 13.37 56.066 0.733 9.53 38.19 11.41
4/26/2022 10:30:00 AM 13.4 56.12 0.734 9.48 27.54 11.53
4/26/2022 10:45:00 AM 13.42 56.156 0.734 9.57 28.07 11.68
4/26/2022 11:00:00 AM 13.47 56.246 0.734 9.57 33.16 11.86
4/26/2022 11:15:00 AM 13.52 56.336 0.734 9.58 21.55 12.06
4/26/2022 11:30:00 AM 13.58 56.444 0.734 9.62 35.06 12.24
4/26/2022 11:45:00 AM 13.62 56.516 0.733 9.63 30.58 12.39
4/26/2022 12:00:00 PM 13.72 56.696 0.733 9.66 39.45 12.56
4/26/2022 12:15:00 PM 13.81 56.858 0.733 9.69 25.51 12.81
4/26/2022 12:30:00 PM 13.83 56.894 0.733 9.7 24.63 12.83
4/26/2022 12:45:00 PM 13.81 56.858 0.731 9.69 18.35 12.72
4/26/2022 1:00:00 PM 13.81 56.858 0.73 9.67 22.78 12.53
4/26/2022 1:15:00 PM 13.84 56.912 0.729 9.67 29.67 12.56
4/26/2022 1:30:00 PM 13.89 57.002 0.729 9.69 37.08 12.72
4/26/2022 1:45:00 PM 13.92 57.056 0.728 9.71 52.29 12.84
4/26/2022 2:00:00 PM 13.92 57.056 0.729 9.72 43.19 12.8
4/26/2022 2:15:00 PM 13.91 57.038 0.728 9.81 32.11 12.66
4/26/2022 2:30:00 PM 13.89 57.002 0.728 9.78 36.3 12.48
4/26/2022 2:45:00 PM 13.88 56.984 0.729 9.7 45.07 12.35
4/26/2022 3:00:00 PM 13.88 56.984 0.728 9.77 46.66 12.31
4/26/2022 3:15:00 PM 13.92 57.056 0.728 9.72 43.29 12.45
4/26/2022 3:30:00 PM 13.93 57.074 0.729 9.74 34.47 12.52
4/26/2022 3:45:00 PM 13.91 57.038 0.729 9.76 29.91 12.37
4/26/2022 4:00:00 PM 13.92 57.056 0.729 9.81 40.9 12.26
4/26/2022 4:15:00 PM 13.91 57.038 0.73 9.77 43.36 12.17
4/26/2022 4:30:00 PM 13.9 57.02 0.73 9.79 26.67 12.08
4/26/2022 4:45:00 PM 13.89 57.002 0.73 9.78 33.37 11.97
4/26/2022 5:00:00 PM 13.89 57.002 0.731 9.8 41.56 11.88
4/26/2022 5:15:00 PM 13.88 56.984 0.731 9.83 45.41 11.81
4/26/2022 5:30:00 PM 13.89 57.002 0.731 9.74 27.82 11.79
4/26/2022 5:45:00 PM 13.88 56.984 0.731 9.73 33.02 11.72
4/26/2022 6:00:00 PM 13.86 56.948 0.731 9.73 42.21 11.53
4/26/2022 6:15:00 PM 13.85 56.93 0.731 9.82 46.92 11.4
4/26/2022 6:30:00 PM 13.83 56.894 0.731 9.71 50.95 11.25
4/26/2022 6:45:00 PM 13.83 56.894 0.73 9.7 46.34 11.11
4/26/2022 7:00:00 PM 13.81 56.858 0.73 9.67 38.77 10.95
4/26/2022 7:15:00 PM 13.79 56.822 0.73 9.68 32.3 10.78
4/26/2022 7:30:00 PM 13.77 56.786 0.73 9.62 26.8 10.6
4/26/2022 7:45:00 PM 13.75 56.75 0.731 9.63 29.15 10.41
4/26/2022 8:00:00 PM 13.73 56.714 0.732 9.65 41.77 10.23
4/26/2022 8:15:00 PM 13.71 56.678 0.733 9.65 37.9 10.08
4/26/2022 8:30:00 PM 13.69 56.642 0.733 9.65 42.28 9.96
4/26/2022 8:45:00 PM 13.67 56.606 0.734 9.6 30.87 9.84
4/26/2022 9:00:00 PM 13.65 56.57 0.735 9.58 35.09 9.72
4/26/2022 9:15:00 PM 13.62 56.516 0.736 9.58 58.07 9.64
4/26/2022 9:30:00 PM 13.58 56.444 0.735 9.59 44.8 9.54
4/26/2022 9:45:00 PM 13.55 56.39 0.736 9.58 40.18 9.46
4/26/2022 10:00:00 PM 13.5 56.3 0.737 9.59 42.42 9.38
4/26/2022 10:15:00 PM 13.46 56.228 0.737 9.54 48.61 9.31
4/26/2022 10:30:00 PM 13.42 56.156 0.737 9.55 33.91 9.27
4/26/2022 10:45:00 PM 13.38 56.084 0.737 9.59 62.79 9.22
4/26/2022 11:00:00 PM 13.33 55.994 0.737 9.62 46.76 9.17
4/26/2022 11:15:00 PM 13.29 55.922 0.737 9.66 49.09 9.14
4/26/2022 11:30:00 PM 13.25 55.85 0.737 9.68 31.85 9.1
4/26/2022 11:45:00 PM 13.21 55.778 0.737 9.68 23 9.06
4/27/2022 12:00:00 AM 13.17 55.706 0.736 9.68 23.17 9.04
4/27/2022 12:15:00 AM 13.13 55.634 0.736 9.68 42.86 9.01
4/27/2022 12:30:00 AM 13.09 55.562 0.735 9.69 36.48 8.98
4/27/2022 12:45:00 AM 13.04 55.472 0.735 9.68 44.34 8.96
4/27/2022 1:00:00 AM 12.99 55.382 0.735 9.68 51.98 8.94
4/27/2022 1:15:00 AM 12.95 55.31 0.734 9.67 39.99 8.93
4/27/2022 1:30:00 AM 12.9 55.22 0.734 9.69 19.68 8.9
4/27/2022 1:45:00 AM 12.86 55.148 0.734 9.67 37.28 8.89
4/27/2022 2:00:00 AM 12.82 55.076 0.734 9.67 37.29 8.88
4/27/2022 2:15:00 AM 12.78 55.004 0.733 9.65 33.08 8.87
4/27/2022 2:30:00 AM 12.74 54.932 0.733 9.58 44.07 8.87
4/27/2022 2:45:00 AM 12.71 54.878 0.732 9.44 47.53 8.85
4/27/2022 3:00:00 AM 12.68 54.824 0.732 9.42 56.56 8.85
4/27/2022 3:15:00 AM 12.63 54.734 0.731 9.41 18.41 8.84
4/27/2022 3:30:00 AM 12.59 54.662 0.731 9.41 124.8 8.87
4/27/2022 3:45:00 AM 12.54 54.572 0.731 9.47 210.6 8.86
4/27/2022 4:00:00 AM 12.51 54.518 0.731 9.4 104.5 8.85
4/27/2022 4:15:00 AM 12.48 54.464 0.731 9.49 61.95 8.83
4/27/2022 4:30:00 AM 12.44 54.392 0.73 9.61 25.03 8.82
4/27/2022 4:45:00 AM 12.41 54.338 0.73 9.7 24.15 8.8
4/27/2022 5:00:00 AM 12.37 54.266 0.73 9.75 80.46 8.8
4/27/2022 5:15:00 AM 12.32 54.176 0.73 9.8 24.25 8.79
4/27/2022 5:30:00 AM 12.27 54.086 0.729 9.76 101 8.78
4/27/2022 5:45:00 AM 12.23 54.014 0.729 9.75 26.05 8.78
4/27/2022 6:00:00 AM 12.18 53.924 0.729 9.69 32.59 8.78
4/27/2022 6:15:00 AM 12.12 53.816 0.729 9.69 73.35 8.77
4/27/2022 6:30:00 AM 12.07 53.726 0.729 9.69 22.79 8.8
4/27/2022 6:45:00 AM 12.02 53.636 0.729 9.75 35.51 8.83
4/27/2022 7:00:00 AM 11.97 53.546 0.729 9.78 66.58 8.9
4/27/2022 7:15:00 AM 11.94 53.492 0.73 9.68 27.39 9.02
4/27/2022 7:30:00 AM 11.91 53.438 0.73 9.68 26.65 9.21
4/27/2022 7:45:00 AM 11.88 53.384 0.73 9.71 63.07 9.43
4/27/2022 8:00:00 AM 11.87 53.366 0.729 9.75 132.9 9.67
4/27/2022 8:15:00 AM 11.88 53.384 0.729 9.77 151.9 9.96
4/27/2022 8:30:00 AM 11.9 53.42 0.729 9.78 121.2 10.28
4/27/2022 8:45:00 AM 11.9 53.42 0.729 9.82 98.34 10.52
4/27/2022 9:00:00 AM 11.9 53.42 0.729 9.89 72.17 10.71
4/27/2022 9:15:00 AM 11.91 53.438 0.729 9.79 94.57 10.94
4/27/2022 9:30:00 AM 11.96 53.528 0.729 9.8 128.2 11.22
4/27/2022 9:45:00 AM 12.03 53.654 0.73 9.81 149.5 11.5
4/27/2022 10:00:00 AM 12.12 53.816 0.73 9.82 119.1 11.79
4/27/2022 10:15:00 AM 12.23 54.014 0.73 9.81 43.02 12.07
4/27/2022 10:30:00 AM 12.31 54.158 0.729 9.83 119.8 12.28
4/27/2022 10:45:00 AM 12.36 54.248 0.729 9.79 36.36 12.44
4/27/2022 11:00:00 AM 12.48 54.464 0.729 9.86 108.5 12.61
4/27/2022 11:15:00 AM 12.56 54.608 0.728 9.88 58.91 12.79
4/27/2022 11:30:00 AM 12.72 54.896 0.728 9.89 73.72 12.96
4/27/2022 11:45:00 AM 12.82 55.076 0.727 9.91 61.81 13.19
4/27/2022 12:00:00 PM 12.81 55.058 0.727 9.95 49.88 13.3
4/27/2022 12:15:00 PM 12.75 54.95 0.727 9.97 73.23 13.33
4/27/2022 12:30:00 PM 12.67 54.806 0.727 9.87 108.2 13.32
4/27/2022 12:45:00 PM 12.65 54.77 0.726 9.88 204.5 13.35
4/27/2022 1:00:00 PM 12.67 54.806 0.726 9.83 227.9 13.48
4/27/2022 1:15:00 PM 12.68 54.824 0.726 9.9 116.6 13.66
4/27/2022 1:30:00 PM 12.7 54.86 0.726 9.96 141.1 13.75
4/27/2022 1:45:00 PM 12.72 54.896 0.725 9.96 199.6 13.8
4/27/2022 2:00:00 PM 12.83 55.094 0.725 10 197.8 13.88
4/27/2022 2:15:00 PM 12.96 55.328 0.725 10.07 18.35 14.05
4/27/2022 2:30:00 PM 13.01 55.418 0.725 10.04 90.39 14.12
4/27/2022 2:45:00 PM 13.02 55.436 0.724 10.09 118 14.2
4/27/2022 3:00:00 PM 13.01 55.418 0.725 9.99 162.6 14.22
4/27/2022 3:15:00 PM 13.01 55.418 0.724 10.04 163.9 14.2
4/27/2022 3:30:00 PM 13.07 55.526 0.724 9.96 147.9 14.19
4/27/2022 3:45:00 PM 13.07 55.526 0.724 9.99 126 14.21
4/27/2022 4:00:00 PM 12.96 55.328 0.723 9.98 207.9 14.07
4/27/2022 4:15:00 PM 12.88 55.184 0.723 10.01 159.5 13.87
4/27/2022 4:30:00 PM 12.8 55.04 0.721 9.95 141.5 13.67
4/27/2022 4:45:00 PM 12.74 54.932 0.724 10.02 68.98 13.48
4/27/2022 5:00:00 PM 12.7 54.86 0.725 9.99 178.3 13.3
4/27/2022 5:15:00 PM 12.66 54.788 0.727 9.96 153.2 13.14
4/27/2022 5:30:00 PM 12.62 54.716 0.727 9.92 60.94 12.99
4/27/2022 5:45:00 PM 12.56 54.608 0.728 9.92 221.4 12.82
4/27/2022 6:00:00 PM 12.49 54.482 0.729 9.99 26.68 12.57
4/27/2022 6:15:00 PM 12.42 54.356 0.73 9.97 277.1 12.33
4/27/2022 6:30:00 PM 12.34 54.212 0.73 9.9 99.9 12.14
4/27/2022 6:45:00 PM 12.27 54.086 0.73 9.89 73.49 11.91
4/27/2022 7:00:00 PM 12.2 53.96 0.731 9.91 40.68 11.72
4/27/2022 7:15:00 PM 12.14 53.852 0.731 9.9 23.03 11.53
4/27/2022 7:30:00 PM 12.08 53.744 0.731 9.89 27.43 11.33
4/27/2022 7:45:00 PM 12.01 53.618 0.732 9.86 22.38 11.17
4/27/2022 8:00:00 PM 11.97 53.546 0.733 9.85 12.68 11
4/27/2022 8:15:00 PM 11.93 53.474 0.733 9.88 72.07 10.84
4/27/2022 8:30:00 PM 11.89 53.402 0.734 9.86 30.73 10.69
4/27/2022 8:45:00 PM 11.85 53.33 0.734 9.82 30.85 10.54
4/27/2022 9:00:00 PM 11.81 53.258 0.735 9.82 22.2 10.44
4/27/2022 9:15:00 PM 11.76 53.168 0.735 9.83 36.69 10.35
4/27/2022 9:30:00 PM 11.71 53.078 0.736 9.79 24.18 10.24
4/27/2022 9:45:00 PM 11.66 52.988 0.737 9.8 13.68 10.16
4/27/2022 10:00:00 PM 11.62 52.916 0.737 9.72 16.87 10.08
4/27/2022 10:15:00 PM 11.57 52.826 0.738 9.77 25.71 10.03
4/27/2022 10:30:00 PM 11.51 52.718 0.738 9.81 38.34 9.96
4/27/2022 10:45:00 PM 11.48 52.664 0.738 9.77 6.37 9.88
4/27/2022 11:00:00 PM 11.43 52.574 0.739 9.78 6.63 9.83
4/27/2022 11:15:00 PM 11.39 52.502 0.739 9.79 6.49 9.77
4/27/2022 11:30:00 PM 11.35 52.43 0.74 9.83 6.18 9.73
4/27/2022 11:45:00 PM 11.29 52.322 0.739 9.78 6.78 9.69
4/28/2022 12:00:00 AM 11.25 52.25 0.74 9.79 6.2 9.66
4/28/2022 12:15:00 AM 11.19 52.142 0.74 9.9 6.66 9.64
4/28/2022 12:30:00 AM 11.16 52.088 0.739 9.83 6.44 9.6
4/28/2022 12:45:00 AM 11.11 51.998 0.739 9.84 5.98 9.58
4/28/2022 1:00:00 AM 11.08 51.944 0.739 9.86 7.09 9.54
4/28/2022 1:15:00 AM 11.05 51.89 0.738 9.89 6.32 9.53
4/28/2022 1:30:00 AM 11.02 51.836 0.738 9.85 6.73 9.51
4/28/2022 1:45:00 AM 10.98 51.764 0.738 9.87 6.7 9.49
4/28/2022 2:00:00 AM 10.94 51.692 0.738 9.88 6.81 9.47
4/28/2022 2:15:00 AM 10.91 51.638 0.738 9.81 6.43 9.46
4/28/2022 2:30:00 AM 10.87 51.566 0.738 9.84 6.66 9.44
4/28/2022 2:45:00 AM 10.83 51.494 0.737 9.84 6.12 9.42
4/28/2022 3:00:00 AM 10.8 51.44 0.737 9.77 25.74 9.42
4/28/2022 3:15:00 AM 10.77 51.386 0.737 9.75 41.89 9.42
4/28/2022 3:30:00 AM 10.73 51.314 0.737 9.76 7.03 9.43
4/28/2022 3:45:00 AM 10.69 51.242 0.737 9.72 6.55 9.41
4/28/2022 4:00:00 AM 10.65 51.17 0.737 9.78 7.43 9.42
4/28/2022 4:15:00 AM 10.62 51.116 0.737 9.82 6.86 9.41
4/28/2022 4:30:00 AM 10.58 51.044 0.736 9.83 6.86 9.42
4/28/2022 4:45:00 AM 10.54 50.972 0.736 9.76 7.35 9.43
4/28/2022 5:00:00 AM 10.5 50.9 0.735 9.83 6.5 9.44
4/28/2022 5:15:00 AM 10.45 50.81 0.735 9.81 7.51 9.45
4/28/2022 5:30:00 AM 10.42 50.756 0.733 9.92 7.19 9.46
4/28/2022 5:45:00 AM 10.39 50.702 0.732 9.92 6.51 9.48
4/28/2022 6:00:00 AM 10.35 50.63 0.731 9.87 6.42 9.49
4/28/2022 6:15:00 AM 10.31 50.558 0.73 9.93 6.72 9.51
4/28/2022 6:30:00 AM 10.28 50.504 0.729 9.92 6.25 9.54
4/28/2022 6:45:00 AM 10.24 50.432 0.729 9.93 6.35 9.57
4/28/2022 7:00:00 AM 10.2 50.36 0.729 9.98 6.64 9.64
4/28/2022 7:15:00 AM 10.18 50.324 0.73 9.96 9.46 9.73
4/28/2022 7:30:00 AM 10.16 50.288 0.731 9.86 6.27 9.84
4/28/2022 7:45:00 AM 10.16 50.288 0.732 9.95 6.16 9.96
4/28/2022 8:00:00 AM 10.15 50.27 0.732 9.95 6.05 10.14
4/28/2022 8:15:00 AM 10.15 50.27 0.733 9.91 6.01 10.36
4/28/2022 8:30:00 AM 10.18 50.324 0.734 9.9 5.66 10.65
4/28/2022 8:45:00 AM 10.22 50.396 0.734 9.85 6.01 10.93
4/28/2022 9:00:00 AM 10.29 50.522 0.734 9.86 5.51 11.27
4/28/2022 9:15:00 AM 10.37 50.666 0.734 9.89 6.3 11.58
4/28/2022 9:30:00 AM 10.46 50.828 0.734 9.96 5.9 11.87
4/28/2022 9:45:00 AM 10.54 50.972 0.734 10.04 5.66 12.14
4/28/2022 10:00:00 AM 10.65 51.17 0.734 10.13 5.74 12.4
4/28/2022 10:15:00 AM 10.79 51.422 0.734 10.15 5.74 12.68
4/28/2022 10:30:00 AM 10.93 51.674 0.734 10.22 5.82 12.92
4/28/2022 10:45:00 AM 11.07 51.926 0.734 10.22 5.77 13.16
4/28/2022 11:00:00 AM 11.22 52.196 0.733 10.19 5.54 13.38
4/28/2022 11:15:00 AM 11.39 52.502 0.733 10.17 5.85 13.56
4/28/2022 11:30:00 AM 11.55 52.79 0.733 10.13 5.57 13.74
4/28/2022 11:45:00 AM 11.71 53.078 0.732 10.04 5.39 13.91
4/28/2022 12:00:00 PM 11.88 53.384 0.732 10 5.41 14.03
4/28/2022 12:15:00 PM 12.05 53.69 0.731 9.94 5.59 14.17
4/28/2022 12:30:00 PM 12.2 53.96 0.731 9.93 5.34 14.25
4/28/2022 12:45:00 PM 12.37 54.266 0.731 10.02 5.63 14.33
4/28/2022 1:00:00 PM 12.5 54.5 0.73 9.92 5.22 14.42
4/28/2022 1:15:00 PM 12.65 54.77 0.729 9.88 5.74 14.52
4/28/2022 1:30:00 PM 12.78 55.004 0.729 9.91 5.62 14.59
4/28/2022 1:45:00 PM 12.93 55.274 0.728 9.92 5.54 14.6
4/28/2022 2:00:00 PM 13.06 55.508 0.727 9.87 5.67 14.65
4/28/2022 2:15:00 PM 13.17 55.706 0.726 9.83 5.58 14.67
4/28/2022 2:30:00 PM 13.28 55.904 0.726 9.89 7.34 14.71
4/28/2022 2:45:00 PM 13.35 56.03 0.726 9.92 5.38 14.67
4/28/2022 3:00:00 PM 13.43 56.174 0.725 9.85 5.41 14.65
4/28/2022 3:15:00 PM 13.49 56.282 0.724 9.81 5.7 14.67
4/28/2022 3:30:00 PM 13.55 56.39 0.724 9.79 5.78 14.73
4/28/2022 3:45:00 PM 13.6 56.48 0.724 9.82 5.5 14.71
4/28/2022 4:00:00 PM 13.63 56.534 0.725 9.79 13.34 14.62
4/28/2022 4:15:00 PM 13.64 56.552 0.725 9.77 6.18 14.59
4/28/2022 4:30:00 PM 13.65 56.57 0.725 9.73 5.46 14.51
4/28/2022 4:45:00 PM 13.64 56.552 0.725 9.8 5.54 14.46
4/28/2022 5:00:00 PM 13.63 56.534 0.726 9.79 5.47 14.32
4/28/2022 5:15:00 PM 13.6 56.48 0.726 9.72 5.51 14.26
4/28/2022 5:30:00 PM 13.57 56.426 0.726 9.73 5.52 14.18
4/28/2022 5:45:00 PM 13.52 56.336 0.727 9.75 5.47 14.09
4/28/2022 6:00:00 PM 13.46 56.228 0.728 9.73 6.17 13.93
4/28/2022 6:15:00 PM 13.39 56.102 0.728 9.74 5.39 13.72
4/28/2022 6:30:00 PM 13.32 55.976 0.728 9.73 5.67 13.52
4/28/2022 6:45:00 PM 13.25 55.85 0.728 9.67 5.52 13.3
4/28/2022 7:00:00 PM 13.17 55.706 0.729 9.64 5.69 13.03
4/28/2022 7:15:00 PM 13.1 55.58 0.731 9.78 6.14 12.76
4/28/2022 7:30:00 PM 13.02 55.436 0.731 9.79 5.82 12.47
4/28/2022 7:45:00 PM 12.95 55.31 0.731 9.8 6.51 12.15
4/28/2022 8:00:00 PM 12.89 55.202 0.733 9.68 5.9 11.86
4/28/2022 8:15:00 PM 12.82 55.076 0.734 9.79 6.13 11.57
4/28/2022 8:30:00 PM 12.76 54.968 0.734 9.73 6.06 11.3
4/28/2022 8:45:00 PM 12.7 54.86 0.735 9.73 6.75 11.07
4/28/2022 9:00:00 PM 12.64 54.752 0.736 9.79 6.41 10.82
4/28/2022 9:15:00 PM 12.57 54.626 0.736 9.79 6.61 10.63
4/28/2022 9:30:00 PM 12.51 54.518 0.737 9.79 7.11 10.43
4/28/2022 9:45:00 PM 12.45 54.41 0.738 9.81 7.69 10.26
4/28/2022 10:00:00 PM 12.38 54.284 0.739 9.89 7 10.12
4/28/2022 10:15:00 PM 12.32 54.176 0.739 9.67 7.39 9.98
4/28/2022 10:30:00 PM 12.26 54.068 0.739 9.83 7.27 9.85
4/28/2022 10:45:00 PM 12.2 53.96 0.74 9.82 6.72 9.73
4/28/2022 11:00:00 PM 12.13 53.834 0.74 9.83 7.41 9.65
4/28/2022 11:15:00 PM 12.07 53.726 0.74 9.83 7.57 9.55
4/28/2022 11:30:00 PM 12.01 53.618 0.741 9.81 7.72 9.47
4/28/2022 11:45:00 PM 11.95 53.51 0.741 9.8 7.86 9.39
4/29/2022 12:00:00 AM 11.88 53.384 0.741 9.81 7.66 9.33
4/29/2022 12:15:00 AM 11.81 53.258 0.741 9.84 8.31 9.27
4/29/2022 12:30:00 AM 11.74 53.132 0.741 9.92 7.71 9.2
4/29/2022 12:45:00 AM 11.68 53.024 0.741 9.89 7.69 9.17
4/29/2022 1:00:00 AM 11.62 52.916 0.742 9.9 7.61 9.11
4/29/2022 1:15:00 AM 11.56 52.808 0.741 9.91 7.46 9.07
4/29/2022 1:30:00 AM 11.5 52.7 0.741 9.97 8.22 9.02
4/29/2022 1:45:00 AM 11.45 52.61 0.74 9.93 8.32 8.98
4/29/2022 2:00:00 AM 11.39 52.502 0.739 9.96 8.58 8.94
4/29/2022 2:15:00 AM 11.32 52.376 0.738 9.96 7.95 8.92
4/29/2022 2:30:00 AM 11.26 52.268 0.739 9.95 8.63 8.9
4/29/2022 2:45:00 AM 11.2 52.16 0.738 9.96 211.1 8.87
4/29/2022 3:00:00 AM 11.15 52.07 0.653 9.8 8.09 8.88
4/29/2022 3:15:00 AM 11.08 51.944 0.726 10.02 7.9 8.87
4/29/2022 3:30:00 AM 11.02 51.836 0.728 9.99 8.35 8.86
4/29/2022 3:45:00 AM 10.96 51.728 0.718 9.95 8.32 8.87
4/29/2022 4:00:00 AM 10.9 51.62 0.733 10 7.83 8.87
4/29/2022 4:15:00 AM 10.83 51.494 0.736 9.99 7.89 8.86
4/29/2022 4:30:00 AM 10.77 51.386 0.736 10.05 8.32 8.87
4/29/2022 4:45:00 AM 10.72 51.296 0.736 9.95 8.3 8.88
4/29/2022 5:00:00 AM 10.66 51.188 0.732 10.03 8.15 8.87
4/29/2022 5:15:00 AM 10.6 51.08 0.719 9.97 8.45 8.9
4/29/2022 5:30:00 AM 10.55 50.99 0.736 9.99 8.24 8.89
4/29/2022 5:45:00 AM 10.49 50.882 0.636 10.02 8.57 8.9
4/29/2022 6:00:00 AM 10.43 50.774 0.716 10.08 9.93 8.9
4/29/2022 6:15:00 AM 10.38 50.684 0.738 10.04 8.35 8.93
4/29/2022 6:30:00 AM 10.33 50.594 0.739 10 7.9 8.97
4/29/2022 6:45:00 AM 10.28 50.504 0.74 10 7.83 9.02
4/29/2022 7:00:00 AM 10.25 50.45 0.741 10.04 7.89 9.11
4/29/2022 7:15:00 AM 10.22 50.396 0.741 10.13 8.03 9.23
4/29/2022 7:30:00 AM 10.2 50.36 0.741 10.13 7.84 9.39
4/29/2022 7:45:00 AM 10.2 50.36 0.741 10.08 8.01 9.6
4/29/2022 8:00:00 AM 10.23 50.414 0.74 10.06 7.78 9.86
4/29/2022 8:15:00 AM 10.26 50.468 0.74 10.08 7.8 10.15
4/29/2022 8:30:00 AM 10.32 50.576 0.74 10.1 7.82 10.46
4/29/2022 8:45:00 AM 10.39 50.702 0.74 10.11 7.87 10.77
4/29/2022 9:00:00 AM 10.46 50.828 0.739 10.13 7.8 11.06
4/29/2022 9:15:00 AM 10.56 51.008 0.739 10.12 7.82 11.35
4/29/2022 9:30:00 AM 10.7 51.26 0.737 10.14 7.76 11.68
4/29/2022 9:45:00 AM 10.85 51.53 0.737 10.15 7.64 12
4/29/2022 10:00:00 AM 10.99 51.782 0.737 10.18 7.87 12.32
4/29/2022 10:15:00 AM 11.14 52.052 0.734 10.21 7.62 12.65
4/29/2022 10:30:00 AM 11.29 52.322 0.735 10.2 7.48 12.93
4/29/2022 10:45:00 AM 11.42 52.556 0.736 10.17 7.5 13.18
4/29/2022 11:00:00 AM 11.57 52.826 0.734 10.18 7.52 13.42
4/29/2022 11:15:00 AM 11.73 53.114 0.735 10.18 7.6 13.59
4/29/2022 11:30:00 AM 11.91 53.438 0.733 10.18 7.61 13.78
4/29/2022 11:45:00 AM 12.1 53.78 0.733 10.19 7.56 13.97
4/29/2022 12:00:00 PM 12.29 54.122 0.732 10.19 7.47 14.09
4/29/2022 12:15:00 PM 12.46 54.428 0.732 10.18 7.67 14.18
4/29/2022 12:30:00 PM 12.63 54.734 0.732 10.22 8.15 14.3
4/29/2022 12:45:00 PM 12.79 55.022 0.731 10.19 12.9 14.37
4/29/2022 1:00:00 PM 12.95 55.31 0.73 10.19 13.68 14.43
4/29/2022 1:15:00 PM 13.09 55.562 0.728 10.15 7.4 14.44
4/29/2022 1:30:00 PM 13.25 55.85 0.726 10.12 7.43 14.52
4/29/2022 1:45:00 PM 13.39 56.102 0.727 10.12 7.25 14.56
4/29/2022 2:00:00 PM 13.52 56.336 0.724 10.09 11.34 14.54
4/29/2022 2:15:00 PM 13.63 56.534 0.723 10.04 7.65 14.58
4/29/2022 2:30:00 PM 13.75 56.75 0.722 9.99 7.78 14.58
4/29/2022 2:45:00 PM 13.84 56.912 0.728 9.97 7.67 14.57
4/29/2022 3:00:00 PM 13.94 57.092 0.729 9.94 18.67 14.58
4/29/2022 3:15:00 PM 14 57.2 0.728 9.91 7.77 14.59
4/29/2022 3:30:00 PM 14.06 57.308 0.727 9.9 7.81 14.53
4/29/2022 3:45:00 PM 14.11 57.398 0.721 9.88 8.93 14.62
4/29/2022 4:00:00 PM 14.13 57.434 0.729 9.87 8.06 14.54
4/29/2022 4:15:00 PM 14.17 57.506 0.729 9.9 7.85 14.44
4/29/2022 4:30:00 PM 14.18 57.524 0.728 9.91 7.86 14.36
4/29/2022 4:45:00 PM 14.17 57.506 0.729 9.91 7.69 14.21
4/29/2022 5:00:00 PM 14.16 57.488 0.729 9.92 7.03 14.14
4/29/2022 5:15:00 PM 14.13 57.434 0.725 9.95 8.33 14.05
4/29/2022 5:30:00 PM 14.09 57.362 0.729 9.97 8.48 13.93
4/29/2022 5:45:00 PM 14.05 57.29 0.73 9.96 8.09 13.77
4/29/2022 6:00:00 PM 14 57.2 0.731 10 16.91 13.63
4/29/2022 6:15:00 PM 13.93 57.074 0.731 9.98 8.15 13.48
4/29/2022 6:30:00 PM 13.86 56.948 0.731 9.98 8.51 13.29
4/29/2022 6:45:00 PM 13.79 56.822 0.732 9.99 8.84 13.1
4/29/2022 7:00:00 PM 13.73 56.714 0.733 9.98 9.27 12.88
4/29/2022 7:15:00 PM 13.66 56.588 0.733 9.99 9.1 12.65
4/29/2022 7:30:00 PM 13.6 56.48 0.719 10.02 8.91 12.39
4/29/2022 7:45:00 PM 13.54 56.372 0.735 9.97 8.42 12.15
4/29/2022 8:00:00 PM 13.48 56.264 0.717 9.98 9.23 11.9
4/29/2022 8:15:00 PM 13.42 56.156 0.736 9.97 9.15 11.61
4/29/2022 8:30:00 PM 13.36 56.048 0.737 9.96 10.2 11.39
4/29/2022 8:45:00 PM 13.29 55.922 0.737 9.97 9.92 11.16
4/29/2022 9:00:00 PM 13.22 55.796 0.739 9.93 9.44 10.97
4/29/2022 9:15:00 PM 13.16 55.688 0.738 9.94 10.59 10.77
4/29/2022 9:30:00 PM 13.09 55.562 0.74 9.97 9.74 10.62
4/29/2022 9:45:00 PM 13.02 55.436 0.741 9.94 10.33 10.49
4/29/2022 10:00:00 PM 12.96 55.328 0.742 9.94 10.35 10.34
4/29/2022 10:15:00 PM 12.9 55.22 0.742 9.93 10.97 10.23
4/29/2022 10:30:00 PM 12.84 55.112 0.741 9.88 10.71 10.11
4/29/2022 10:45:00 PM 12.77 54.986 0.743 9.92 10.8 10.01
4/29/2022 11:00:00 PM 12.71 54.878 0.744 9.94 10.73 9.91
4/29/2022 11:15:00 PM 12.65 54.77 0.743 9.9 11.19 9.84
4/29/2022 11:30:00 PM 12.6 54.68 0.744 9.94 11.87 9.76
4/29/2022 11:45:00 PM 12.54 54.572 0.743 9.92 11.69 9.7
4/30/2022 12:00:00 AM 12.48 54.464 0.743 9.91 11.08 9.64
4/30/2022 12:15:00 AM 12.43 54.374 0.744 9.91 11.39 9.58
4/30/2022 12:30:00 AM 12.38 54.284 0.745 9.92 11.81 9.52
4/30/2022 12:45:00 AM 12.33 54.194 0.745 9.94 11.38 9.48
4/30/2022 1:00:00 AM 12.28 54.104 0.744 9.97 12.45 9.42
4/30/2022 1:15:00 AM 12.22 53.996 0.744 9.94 11.75 9.38
4/30/2022 1:30:00 AM 12.16 53.888 0.744 9.94 11.88 9.33
4/30/2022 1:45:00 AM 12.11 53.798 0.744 9.98 11.62 9.3
4/30/2022 2:00:00 AM 12.04 53.672 0.744 10.01 12.33 9.26
4/30/2022 2:15:00 AM 11.98 53.564 0.744 10.02 11.85 9.24
4/30/2022 2:30:00 AM 11.93 53.474 0.744 10.03 11.87 9.21
4/30/2022 2:45:00 AM 11.86 53.348 0.744 10.03 11.6 9.19
4/30/2022 3:00:00 AM 11.8 53.24 0.744 10.05 33.63 9.16
4/30/2022 3:15:00 AM 11.73 53.114 0.744 10.08 11.81 9.15
4/30/2022 3:30:00 AM 11.67 53.006 0.744 10.13 12.83 9.13
4/30/2022 3:45:00 AM 11.61 52.898 0.744 10.16 12.07 9.13
4/30/2022 4:00:00 AM 11.54 52.772 0.744 10.22 12.47 9.13
4/30/2022 4:15:00 AM 11.47 52.646 0.744 10.17 12.82 9.13
4/30/2022 4:30:00 AM 11.41 52.538 0.744 10.2 12.5 9.12
4/30/2022 4:45:00 AM 11.35 52.43 0.744 10.22 13.8 9.12
4/30/2022 5:00:00 AM 11.29 52.322 0.744 10.24 13.25 9.1
4/30/2022 5:15:00 AM 11.22 52.196 0.744 10.27 13 9.12
4/30/2022 5:30:00 AM 11.16 52.088 0.744 10.21 13.37 9.13
4/30/2022 5:45:00 AM 11.11 51.998 0.744 10.25 13.01 9.12
4/30/2022 6:00:00 AM 11.06 51.908 0.744 10.22 12.72 9.13
4/30/2022 6:15:00 AM 11.01 51.818 0.744 10.26 12.65 9.11
4/30/2022 6:30:00 AM 10.96 51.728 0.743 10.26 13.17 9.15
4/30/2022 6:45:00 AM 10.91 51.638 0.743 10.27 12.31 9.2
4/30/2022 7:00:00 AM 10.88 51.584 0.743 10.32 12.65 9.3
4/30/2022 7:15:00 AM 10.85 51.53 0.742 10.28 13.19 9.4
4/30/2022 7:30:00 AM 10.83 51.494 0.742 10.29 11.88 9.55
4/30/2022 7:45:00 AM 10.83 51.494 0.741 10.29 14.56 9.74
4/30/2022 8:00:00 AM 10.85 51.53 0.742 10.29 15.59 9.99
4/30/2022 8:15:00 AM 10.89 51.602 0.742 10.32 15.67 10.26
4/30/2022 8:30:00 AM 10.96 51.728 0.741 10.34 15.68 10.53
4/30/2022 8:45:00 AM 11.04 51.872 0.741 10.33 15.04 10.84
4/30/2022 9:00:00 AM 11.14 52.052 0.741 10.37 15.78 11.11
4/30/2022 9:15:00 AM 11.25 52.25 0.74 10.4 14.61 11.42
4/30/2022 9:30:00 AM 11.37 52.466 0.74 10.42 15.03 11.71
4/30/2022 9:45:00 AM 11.5 52.7 0.739 10.46 13.47 11.98
4/30/2022 10:00:00 AM 11.64 52.952 0.739 10.48 12.52 12.25
4/30/2022 10:15:00 AM 11.79 53.222 0.739 10.47 13.74 12.49
4/30/2022 10:30:00 AM 11.95 53.51 0.738 10.48 12.83 12.72
4/30/2022 10:45:00 AM 12.11 53.798 0.738 10.44 13.22 12.95
4/30/2022 11:00:00 AM 12.28 54.104 0.739 10.47 12.36 13.14
4/30/2022 11:15:00 AM 12.45 54.41 0.738 10.41 12.23 13.35
4/30/2022 11:30:00 AM 12.62 54.716 0.718 10.39 11.63 13.53
4/30/2022 11:45:00 AM 12.81 55.058 0.737 10.41 11.43 13.67
4/30/2022 12:00:00 PM 12.99 55.382 0.736 10.37 11.6 13.83
4/30/2022 12:15:00 PM 13.17 55.706 0.736 10.32 11.43 13.9
4/30/2022 12:30:00 PM 13.33 55.994 0.736 10.29 11.49 13.97
4/30/2022 12:45:00 PM 13.5 56.3 0.735 10.26 11.46 14.02
4/30/2022 1:00:00 PM 13.67 56.606 0.735 10.23 11.65 14.09
4/30/2022 1:15:00 PM 13.83 56.894 0.734 10.17 11.88 14.14
4/30/2022 1:30:00 PM 13.98 57.164 0.734 10.16 12.52 14.15
4/30/2022 1:45:00 PM 14.13 57.434 0.733 10.13 11.69 14.22
4/30/2022 2:00:00 PM 14.26 57.668 0.732 10.09 11.84 14.24
4/30/2022 2:15:00 PM 14.39 57.902 0.731 10.11 11.78 14.25
4/30/2022 2:30:00 PM 14.51 58.118 0.73 10.09 11.84 14.28
4/30/2022 2:45:00 PM 14.62 58.316 0.73 10.06 19.99 14.34
4/30/2022 3:00:00 PM 14.7 58.46 0.729 9.97 28.43 14.34
4/30/2022 3:15:00 PM 14.76 58.568 0.73 9.97 340.9 14.32
4/30/2022 3:30:00 PM 14.81 58.658 0.73 9.92 16.71 14.32
4/30/2022 3:45:00 PM 14.85 58.73 0.729 9.92 12.69 14.32
4/30/2022 4:00:00 PM 14.91 58.838 0.729 9.92 27.51 14.33
4/30/2022 4:15:00 PM 14.94 58.892 0.729 9.95 12.91 14.32
4/30/2022 4:30:00 PM 14.96 58.928 0.729 9.93 14.23 14.27
4/30/2022 4:45:00 PM 14.96 58.928 0.727 9.95 14.57 14.22
4/30/2022 5:00:00 PM 14.96 58.928 0.73 9.95 19.76 14.15
4/30/2022 5:15:00 PM 14.94 58.892 0.73 9.95 14.29 14.06
4/30/2022 5:30:00 PM 14.9 58.82 0.73 9.96 14.12 13.97
4/30/2022 5:45:00 PM 14.84 58.712 0.73 9.96 27.77 13.85
4/30/2022 6:00:00 PM 14.78 58.604 0.73 9.97 19.5 13.71
4/30/2022 6:15:00 PM 14.72 58.496 0.73 9.98 13.77 13.56
4/30/2022 6:30:00 PM 14.66 58.388 0.73 9.98 13.64 13.39
4/30/2022 6:45:00 PM 14.6 58.28 0.73 9.98 13.21 13.18
4/30/2022 7:00:00 PM 14.55 58.19 0.731 9.97 13.53 12.97
4/30/2022 7:15:00 PM 14.49 58.082 0.73 9.97 13.69 12.72
4/30/2022 7:30:00 PM 14.43 57.974 0.73 9.98 12.98 12.25
4/30/2022 7:45:00 PM 14.37 57.866 0.733 9.97 13.12 11.93
4/30/2022 8:00:00 PM 14.3 57.74 0.733 9.96 12.9 11.65
4/30/2022 8:15:00 PM 14.22 57.596 0.734 9.95 13.75 11.35
4/30/2022 8:30:00 PM 14.15 57.47 0.734 9.94 14.1 11.08
4/30/2022 8:45:00 PM 14.07 57.326 0.734 9.99 13.91 10.86
4/30/2022 9:00:00 PM 14 57.2 0.735 9.95 14.53 10.65
4/30/2022 9:15:00 PM 13.92 57.056 0.736 9.95 13.68 10.42
4/30/2022 9:30:00 PM 13.84 56.912 0.736 9.96 14.17 10.25
4/30/2022 9:45:00 PM 13.77 56.786 0.736 9.95 15.05 10.1
4/30/2022 10:00:00 PM 13.71 56.678 0.737 9.95 14.66 9.97
4/30/2022 10:15:00 PM 13.64 56.552 0.737 9.97 14.84 9.83
4/30/2022 10:30:00 PM 13.58 56.444 0.738 9.98 15.37 9.72
4/30/2022 10:45:00 PM 13.52 56.336 0.738 9.98 36.91 9.61
4/30/2022 11:00:00 PM 13.46 56.228 0.729 10.02 8.91 9.52
4/30/2022 11:15:00 PM 13.4 56.12 0.732 10.01 9.2 9.42
4/30/2022 11:30:00 PM 13.34 56.012 0.729 10.02 9.15 9.33
4/30/2022 11:45:00 PM 13.28 55.904 0.737 10.03 9.25 9.26
5/1/2022 12:00:00 AM 13.23 55.814 0.736 10.05 27.81 9.17
5/1/2022 12:15:00 AM 13.16 55.688 0.741 10.04 49.17 9.1
5/1/2022 12:30:00 AM 13.1 55.58 0.738 10.03 46.24 9.05
5/1/2022 12:45:00 AM 13.04 55.472 0.738 10.01 8.33 9
5/1/2022 1:00:00 AM 12.98 55.364 0.739 10.01 8.83 8.94
5/1/2022 1:15:00 AM 12.92 55.256 0.737 9.98 16.67 8.89
5/1/2022 1:30:00 AM 12.85 55.13 0.736 9.95 28.99 8.85
5/1/2022 1:45:00 AM 12.79 55.022 0.739 9.87 8.73 8.81
5/1/2022 2:00:00 AM 12.74 54.932 0.74 10.02 29.15 8.77
5/1/2022 2:15:00 AM 12.68 54.824 0.744 10.05 23.66 8.74
5/1/2022 2:30:00 AM 12.62 54.716 0.745 10.05 27.66 8.72
5/1/2022 2:45:00 AM 12.56 54.608 0.745 9.98 8.74 8.7
5/1/2022 3:00:00 AM 12.5 54.5 0.745 10.01 8.3 8.67
5/1/2022 3:15:00 AM 12.44 54.392 0.745 10.02 10.48 8.67
5/1/2022 3:30:00 AM 12.38 54.284 0.745 9.99 10.2 8.66
5/1/2022 3:45:00 AM 12.32 54.176 0.745 10.01 8.78 8.64
5/1/2022 4:00:00 AM 12.26 54.068 0.738 10.03 9.16 8.63
5/1/2022 4:15:00 AM 12.2 53.96 0.743 9.96 10.39 8.64
5/1/2022 4:30:00 AM 12.14 53.852 0.742 9.89 10.11 8.65
5/1/2022 4:45:00 AM 12.08 53.744 0.743 9.94 10.58 8.65
5/1/2022 5:00:00 AM 12.02 53.636 0.743 10.04 9.53 8.67
5/1/2022 5:15:00 AM 11.96 53.528 0.743 10.09 9.85 8.67
5/1/2022 5:30:00 AM 11.91 53.438 0.744 10.11 10.5 8.68
5/1/2022 5:45:00 AM 11.85 53.33 0.743 10.13 9.75 8.68
5/1/2022 6:00:00 AM 11.8 53.24 0.745 10.12 9.36 8.7
5/1/2022 6:15:00 AM 11.75 53.15 0.745 10.13 10.13 8.71
5/1/2022 6:30:00 AM 11.7 53.06 0.743 10.09 9.47 8.75
5/1/2022 6:45:00 AM 11.67 53.006 0.745 10.09 9.74 8.82
5/1/2022 7:00:00 AM 11.64 52.952 0.744 10.09 9.18 8.94
5/1/2022 7:15:00 AM 11.62 52.916 0.744 10.08 9.44 9.08
5/1/2022 7:30:00 AM 11.61 52.898 0.743 10.12 9.07 9.26
5/1/2022 7:45:00 AM 11.62 52.916 0.739 10.11 9.29 9.46
5/1/2022 8:00:00 AM 11.66 52.988 0.736 10.15 10.71 9.77
5/1/2022 8:15:00 AM 11.71 53.078 0.741 10.17 9.78 10.08
5/1/2022 8:30:00 AM 11.78 53.204 0.74 10.22 10.32 10.43
5/1/2022 8:45:00 AM 11.87 53.366 0.74 10.22 10.23 10.76
5/1/2022 9:00:00 AM 11.93 53.474 0.74 10.27 10.3 11.07
5/1/2022 9:15:00 AM 12.01 53.618 0.739 10.28 9.5 11.35
5/1/2022 9:30:00 AM 12.1 53.78 0.738 10.32 10.02 11.64
5/1/2022 9:45:00 AM 12.16 53.888 0.739 10.31 9.88 11.9
5/1/2022 10:00:00 AM 12.25 54.05 0.737 10.29 9.48 12.14
5/1/2022 10:15:00 AM 12.34 54.212 0.737 10.28 8.98 12.37
5/1/2022 10:30:00 AM 12.41 54.338 0.736 10.26 9.09 12.64
5/1/2022 10:45:00 AM 12.54 54.572 0.737 10.26 9.57 12.92
5/1/2022 11:00:00 AM 12.69 54.842 0.737 10.29 9.99 13.17
5/1/2022 11:15:00 AM 12.76 54.968 0.737 10.31 10.2 13.35
5/1/2022 11:30:00 AM 12.84 55.112 0.737 10.24 12.25 13.47
5/1/2022 11:45:00 AM 12.93 55.274 0.736 10.24 790.7 13.59
5/1/2022 12:00:00 PM 13.01 55.418 0.736 10.21 995 13.73
5/1/2022 12:15:00 PM 13.08 55.544 0.735 10.22 429.7 13.85
5/1/2022 12:30:00 PM 13.11 55.598 0.735 10.23 622.7 13.91
5/1/2022 12:45:00 PM 13.11 55.598 0.735 10.23 1099 13.88
5/1/2022 1:00:00 PM 13.1 55.58 0.735 10.15 573.9 13.79
5/1/2022 1:15:00 PM 13.08 55.544 0.734 10.09 805.7 13.69
5/1/2022 1:30:00 PM 13.05 55.49 0.735 10.07 595.4 13.55
5/1/2022 1:45:00 PM 13 55.4 0.736 10.08 676.2 13.32
5/1/2022 2:00:00 PM 12.99 55.382 0.735 10.08 293.4 13.11
5/1/2022 2:15:00 PM 12.97 55.346 0.735 10.16 616.4 12.98
5/1/2022 2:30:00 PM 12.97 55.346 0.735 10.17 706.6 12.86
5/1/2022 2:45:00 PM 12.97 55.346 0.734 10.14 635.9 12.8
5/1/2022 3:00:00 PM 12.97 55.346 0.735 10.13 675.9 12.67
5/1/2022 3:15:00 PM 12.96 55.328 0.734 10.11 540 12.52
5/1/2022 3:30:00 PM 12.96 55.328 0.735 10.09 14.73 12.37
5/1/2022 3:45:00 PM 12.95 55.31 0.734 10.09 15.73 12.21
5/1/2022 4:00:00 PM 12.94 55.292 0.733 10.04 16.93 12.09
5/1/2022 4:15:00 PM 12.93 55.274 0.733 10 31.9 11.95
5/1/2022 4:30:00 PM 12.93 55.274 0.732 9.94 34.14 11.86
5/1/2022 4:45:00 PM 12.92 55.256 0.732 9.85 35.62 11.8
5/1/2022 5:00:00 PM 12.92 55.256 0.732 9.76 36.14 11.71
5/1/2022 5:15:00 PM 12.93 55.274 0.732 9.68 35.54 11.7
5/1/2022 5:30:00 PM 12.93 55.274 0.732 9.7 35.93 11.71
5/1/2022 5:45:00 PM 12.93 55.274 0.731 9.68 40.35 11.61
5/1/2022 6:00:00 PM 12.94 55.292 0.731 9.5 33.55 11.52
5/1/2022 6:15:00 PM 12.96 55.328 0.732 9.31 32.32 11.48
5/1/2022 6:30:00 PM 12.98 55.364 0.731 9.26 31.31 11.58
5/1/2022 6:45:00 PM 12.99 55.382 0.731 9.24 29.61 11.55
5/1/2022 7:00:00 PM 12.98 55.364 0.732 9.45 27.6 11.4
5/1/2022 7:15:00 PM 12.97 55.346 0.732 9.72 23.79 11.22
5/1/2022 7:30:00 PM 12.94 55.292 0.732 9.62 19.62 11.01
5/1/2022 7:45:00 PM 12.92 55.256 0.732 9.61 15.99 10.83
5/1/2022 8:00:00 PM 12.92 55.256 0.735 9.6 14.33 10.65
5/1/2022 8:15:00 PM 12.92 55.256 0.739 9.62 12.38 10.46
5/1/2022 8:30:00 PM 12.92 55.256 0.742 9.43 11.55 10.29
5/1/2022 8:45:00 PM 12.92 55.256 0.744 9.51 10.95 10.16
5/1/2022 9:00:00 PM 12.92 55.256 0.746 9.5 10.16 10.03
5/1/2022 9:15:00 PM 12.91 55.238 0.746 9.51 9.88 9.9
5/1/2022 9:30:00 PM 12.9 55.22 0.747 9.41 11.57 9.8
5/1/2022 9:45:00 PM 12.89 55.202 0.748 9.36 10.1 9.71
5/1/2022 10:00:00 PM 12.89 55.202 0.748 9.32 10.95 9.64
5/1/2022 10:15:00 PM 12.88 55.184 0.748 9.08 11.57 9.56
5/1/2022 10:30:00 PM 12.87 55.166 0.748 9.35 11.76 9.47
5/1/2022 10:45:00 PM 12.86 55.148 0.748 8.94 10.89 9.4
5/1/2022 11:00:00 PM 12.85 55.13 0.748 8.77 10.9 9.34
5/1/2022 11:15:00 PM 12.84 55.112 0.747 8.74 11.73 9.27
5/1/2022 11:30:00 PM 12.82 55.076 0.747 8.77 11.5 9.19
5/1/2022 11:45:00 PM 12.78 55.004 0.744 8.77 11.45 9.12
5/2/2022 12:00:00 AM 12.74 54.932 0.743 8.8 10.77 9.1
5/2/2022 12:15:00 AM 12.72 54.896 0.742 8.75 10.98 9.08
5/2/2022 12:30:00 AM 12.7 54.86 0.742 8.87 11.13 9.04
5/2/2022 12:45:00 AM 12.7 54.86 0.743 8.77 12.33 9.02
5/2/2022 1:00:00 AM 12.69 54.842 0.743 8.75 11.86 8.99
5/2/2022 1:15:00 AM 12.69 54.842 0.743 8.71 12.45 8.95
5/2/2022 1:30:00 AM 12.68 54.824 0.744 8.68 10.88 8.89
5/2/2022 1:45:00 AM 12.68 54.824 0.744 8.72 11.45 8.87
5/2/2022 2:00:00 AM 12.68 54.824 0.744 8.72 11.26 8.85
5/2/2022 2:15:00 AM 12.67 54.806 0.745 8.8 13.12 8.83
5/2/2022 2:30:00 AM 12.67 54.806 0.745 9.01 12.86 8.84
5/2/2022 2:45:00 AM 12.67 54.806 0.745 9.48 11.23 8.84
5/2/2022 3:00:00 AM 12.68 54.824 0.747 9.56 11.43 8.78
5/2/2022 3:15:00 AM 12.68 54.824 0.749 9.61 11.29 8.72
5/2/2022 3:30:00 AM 12.67 54.806 0.749 9.65 12.16 8.71
5/2/2022 3:45:00 AM 12.66 54.788 0.748 9.59 11.36 8.71
5/2/2022 4:00:00 AM 12.66 54.788 0.747 9.62 11.75 8.69
5/2/2022 4:15:00 AM 12.65 54.77 0.747 9.65 12.19 8.68
5/2/2022 4:30:00 AM 12.65 54.77 0.747 9.64 11.84 8.68
5/2/2022 4:45:00 AM 12.65 54.77 0.746 9.47 12.14 8.67
5/2/2022 5:00:00 AM 12.65 54.77 0.746 9.35 12.82 8.66
5/2/2022 5:15:00 AM 12.65 54.77 0.745 9.21 12.77 8.66
5/2/2022 5:30:00 AM 12.64 54.752 0.745 9.17 11.8 8.65
5/2/2022 5:45:00 AM 12.63 54.734 0.746 9.24 12.4 8.64
5/2/2022 6:00:00 AM 12.62 54.716 0.745 9.12 13.14 8.63
5/2/2022 6:15:00 AM 12.6 54.68 0.744 9.1 12.93 8.63
5/2/2022 6:30:00 AM 12.59 54.662 0.744 9.17 14.04 8.64
5/2/2022 6:45:00 AM 12.59 54.662 0.734 9 18.61 8.65
5/2/2022 7:00:00 AM 12.58 54.644 0.732 9.11 12.11 8.74
5/2/2022 7:15:00 AM 12.58 54.644 0.728 8.98 12.17 8.86
5/2/2022 7:30:00 AM 12.59 54.662 0.727 9.07 11.97 9.02
5/2/2022 7:45:00 AM 12.6 54.68 0.72 9.1 12.49 9.22
5/2/2022 8:00:00 AM 12.62 54.716 0.716 9 12.24 9.42
5/2/2022 8:15:00 AM 12.65 54.77 0.719 8.89 12 9.64
5/2/2022 8:30:00 AM 12.66 54.788 0.716 8.87 12.44 9.82
5/2/2022 8:45:00 AM 12.68 54.824 0.716 8.91 13.3 10.02
5/2/2022 9:00:00 AM 12.72 54.896 0.721 8.85 13.02 10.25
5/2/2022 9:15:00 AM 12.77 54.986 0.708 8.87 14.05 10.52
5/2/2022 9:30:00 AM 12.84 55.112 0.706 8.93 13.84 10.85
5/2/2022 9:45:00 AM 12.9 55.22 0.719 8.87 13.42 11.15
5/2/2022 10:00:00 AM 12.98 55.364 0.717 8.91 13.31 11.42
5/2/2022 10:15:00 AM 13.09 55.562 0.712 8.88 14.37 11.74
5/2/2022 10:30:00 AM 13.25 55.85 0.713 9 13.26 12.04
5/2/2022 10:45:00 AM 13.4 56.12 0.713 8.93 13.34 12.36
5/2/2022 11:00:00 AM 13.43 56.174 0.71 9.39 13.54 12.54
5/2/2022 11:15:00 AM 13.51 56.318 0.708 9.77 14.34 12.69
5/2/2022 11:30:00 AM 13.62 56.516 0.7 9.65 13.63 12.87
5/2/2022 11:45:00 AM 13.69 56.642 0.682 9.41 14.1 13.03
5/2/2022 12:00:00 PM 13.77 56.786 0.701 9.3 14.36 13.27
5/2/2022 12:15:00 PM 13.94 57.092 0.701 9.26 14.79 13.48
5/2/2022 12:30:00 PM 14.16 57.488 0.702 9.25 14.53 13.67
5/2/2022 12:45:00 PM 14.41 57.938 0.698 9.27 14.89 13.86
5/2/2022 1:00:00 PM 14.62 58.316 0.68 9.28 31.15 14.01
5/2/2022 1:15:00 PM 14.79 58.622 0.681 9.19 36.58 14.02
5/2/2022 1:30:00 PM 14.94 58.892 0.69 9.1 44.39 14.12
5/2/2022 1:45:00 PM 14.97 58.946 0.687 9.16 14.7 14.06
5/2/2022 2:00:00 PM 14.98 58.964 0.715 9.13 17.34 14.02
5/2/2022 2:15:00 PM 15.03 59.054 0.679 9.19 47.04 14.03
5/2/2022 2:30:00 PM 15.09 59.162 0.724 9.55 25.85 14.09
5/2/2022 2:45:00 PM 15.2 59.36 0.724 9.62 14.87 14.19
5/2/2022 3:00:00 PM 15.28 59.504 0.688 9.68 13.92 14.2
5/2/2022 3:15:00 PM 15.39 59.702 0.684 9.51 13.76 14.21
5/2/2022 3:30:00 PM 15.41 59.738 0.684 9.48 14.12 14.26
5/2/2022 3:45:00 PM 15.47 59.846 0.685 9.51 14 14.26
5/2/2022 4:00:00 PM 15.6 60.08 0.677 9.53 15.62 14.28
5/2/2022 4:15:00 PM 15.61 60.098 0.681 9.53 21.32 14.28
5/2/2022 4:30:00 PM 15.65 60.17 0.692 9.49 15.22 14.24
5/2/2022 4:45:00 PM 15.73 60.314 0.682 9.46 15.03 14.19
5/2/2022 5:00:00 PM 15.74 60.332 0.642 9.49 15.73 14.13
5/2/2022 5:15:00 PM 15.67 60.206 0.651 9.52 16.56 13.97
5/2/2022 5:30:00 PM 15.63 60.134 0.648 9.48 16.27 13.82
5/2/2022 5:45:00 PM 15.58 60.044 0.58 9.46 16.4 13.64
5/2/2022 6:00:00 PM 15.51 59.918 0.557 9.39 15.39 13.5
5/2/2022 6:15:00 PM 15.47 59.846 0.58 9.27 21.68 13.3
5/2/2022 6:30:00 PM 15.45 59.81 0.688 9.22 23.34 13.14
5/2/2022 6:45:00 PM 15.41 59.738 0.653 9.2 325.2 12.94
5/2/2022 7:00:00 PM 15.37 59.666 0.629 9.26 21.09 12.73
5/2/2022 7:15:00 PM 15.33 59.594 0.635 9.31 57.69 12.49
5/2/2022 7:30:00 PM 15.28 59.504 0.66 9.32 16.39 12.27
5/2/2022 7:45:00 PM 15.22 59.396 0.65 9.22 132.7 12.01
5/2/2022 8:00:00 PM 15.15 59.27 0.694 9.24 209.1 11.73
5/2/2022 8:15:00 PM 15.09 59.162 0.637 9.26 563.3 11.47
5/2/2022 8:30:00 PM 15.02 59.036 0.634 9.29 498.6 11.23
5/2/2022 8:45:00 PM 14.96 58.928 0.636 9.31 595.1 10.98
5/2/2022 9:00:00 PM 14.9 58.82 0.627 9.33 12.36 10.76
5/2/2022 9:15:00 PM 14.84 58.712 0.636 9.39 47.83 10.56
5/2/2022 9:30:00 PM 14.79 58.622 0.64 9.42 12.72 10.35
5/2/2022 9:45:00 PM 14.73 58.514 0.644 9.45 12.95 10.18
5/2/2022 10:00:00 PM 14.68 58.424 0.652 9.49 11.2 10.03
5/2/2022 10:15:00 PM 14.64 58.352 0.646 9.41 12.16 9.88
5/2/2022 10:30:00 PM 14.59 58.262 0.648 9.29 15.93 9.75
5/2/2022 10:45:00 PM 14.56 58.208 0.643 9.43 25 9.61
5/2/2022 11:00:00 PM 14.51 58.118 0.644 9.21 15.27 9.51
5/2/2022 11:15:00 PM 14.47 58.046 0.647 9.28 15.82 9.39
5/2/2022 11:30:00 PM 14.43 57.974 0.641 9.14 16.83 9.28
5/2/2022 11:45:00 PM 14.38 57.884 0.653 9.2 23.92 9.18
5/3/2022 12:00:00 AM 14.33 57.794 0.683 9.12 19.85 9.1
5/3/2022 12:15:00 AM 14.28 57.704 0.684 9.23 21.03 9.02
5/3/2022 12:30:00 AM 14.23 57.614 0.681 9.23 21.99 8.95
5/3/2022 12:45:00 AM 14.17 57.506 0.682 9.48 29.97 8.89
5/3/2022 1:00:00 AM 14.12 57.416 0.693 9.6 25.34 8.83
5/3/2022 1:15:00 AM 14.06 57.308 0.699 9.57 27.13 8.78
5/3/2022 1:30:00 AM 14 57.2 0.713 9.53 30.97 8.73
5/3/2022 1:45:00 AM 13.95 57.11 0.709 9.41 26.41 8.7
5/3/2022 2:00:00 AM 13.89 57.002 0.71 9.29 27.81 8.65
5/3/2022 2:15:00 AM 13.84 56.912 0.724 9.24 30.01 8.61
5/3/2022 2:30:00 AM 13.78 56.804 0.724 9.24 32.65 8.58
5/3/2022 2:45:00 AM 13.73 56.714 0.726 9.19 37.06 8.54
5/3/2022 3:00:00 AM 13.68 56.624 0.736 9.17 34.49 8.54
5/3/2022 3:15:00 AM 13.63 56.534 0.737 9.07 37.7 8.49
5/3/2022 3:30:00 AM 13.58 56.444 0.737 9.2 43.21 8.49
5/3/2022 3:45:00 AM 13.55 56.39 0.737 9.23 43.67 8.46
5/3/2022 4:00:00 AM 13.53 56.354 0.737 9.18 46.08 8.44
5/3/2022 4:15:00 AM 13.49 56.282 0.737 9.17 51.47 8.43
5/3/2022 4:30:00 AM 13.44 56.192 0.736 9.16 55.2 8.42
5/3/2022 4:45:00 AM 13.39 56.102 0.737 9.19 57.32 8.42
5/3/2022 5:00:00 AM 13.35 56.03 0.736 9.15 57.52 8.42
5/3/2022 5:15:00 AM 13.32 55.976 0.736 9.24 68.77 8.43
5/3/2022 5:30:00 AM 13.3 55.94 0.736 9.27 123.9 8.41
5/3/2022 5:45:00 AM 13.28 55.904 0.736 9.14 203 8.41
5/3/2022 6:00:00 AM 13.26 55.868 0.735 9.19 471.5 8.41
5/3/2022 6:15:00 AM 13.25 55.85 0.735 8.82 105.1 8.42
5/3/2022 6:30:00 AM 13.23 55.814 0.736 8.72 121.8 8.44
5/3/2022 6:45:00 AM 13.23 55.814 0.735 8.74 351.3 8.46
5/3/2022 7:00:00 AM 13.23 55.814 0.735 9.17 97.9 8.48
5/3/2022 7:15:00 AM 13.23 55.814 0.735 9.21 170.4 8.55
5/3/2022 7:30:00 AM 13.23 55.814 0.735 9.05 188.4 8.66
5/3/2022 7:45:00 AM 13.24 55.832 0.735 9.34 196.4 8.79
5/3/2022 8:00:00 AM 13.25 55.85 0.735 9.42 138.9 8.97
5/3/2022 8:15:00 AM 13.26 55.868 0.735 9.34 151.3 9.21
5/3/2022 8:30:00 AM 13.28 55.904 0.734 9.2 161.8 9.46
5/3/2022 8:45:00 AM 13.3 55.94 0.734 9.26 105.1 9.71
5/3/2022 9:00:00 AM 13.33 55.994 0.734 9.27 110.2 9.92
5/3/2022 9:15:00 AM 13.37 56.066 0.734 9.15 111.2 10.15
5/3/2022 9:30:00 AM 13.42 56.156 0.733 8.91 115.9 10.46
5/3/2022 9:45:00 AM 13.46 56.228 0.733 9.42 103.9 10.73
5/3/2022 10:00:00 AM 13.5 56.3 0.732 9.67 108.1 10.99
5/3/2022 10:15:00 AM 13.54 56.372 0.732 9.52 112.4 11.18
5/3/2022 10:30:00 AM 13.6 56.48 0.73 9.47 113.4 11.4
5/3/2022 10:45:00 AM 13.65 56.57 0.732 9.3 114.8 11.61
5/3/2022 11:00:00 AM 13.74 56.732 0.732 9.36 110.3 11.84
5/3/2022 11:15:00 AM 13.87 56.966 0.732 9.09 126.2 12.09
5/3/2022 11:30:00 AM 14.02 57.236 0.732 9.08 119.3 12.37
5/3/2022 11:45:00 AM 14.18 57.524 0.732 9.46 136.4 12.63
5/3/2022 12:00:00 PM 14.35 57.83 0.732 9.24 145 12.87
5/3/2022 12:15:00 PM 14.51 58.118 0.728 9.45 186.3 13.1
5/3/2022 12:30:00 PM 14.68 58.424 0.728 9.33 171.8 13.29
5/3/2022 12:45:00 PM 14.8 58.64 0.731 9.43 169.2 13.43
5/3/2022 1:00:00 PM 14.95 58.91 0.731 9.63 166.9 13.54
5/3/2022 1:15:00 PM 15.12 59.216 0.73 9.62 186.4 13.67
5/3/2022 1:30:00 PM 15.25 59.45 0.73 9.56 186.4 13.79
5/3/2022 1:45:00 PM 15.32 59.576 0.73 9.49 196.6 13.86
5/3/2022 2:00:00 PM 15.42 59.756 0.729 9.38 203.8 13.99
5/3/2022 2:15:00 PM 15.47 59.846 0.729 9.37 232.7 14.08
5/3/2022 2:30:00 PM 15.55 59.99 0.728 9.46 318.8 14.11
5/3/2022 2:45:00 PM 15.68 60.224 0.729 9.42 363.1 14.15
5/3/2022 3:00:00 PM 15.71 60.278 0.73 9.36 280.7 14.26
5/3/2022 3:15:00 PM 15.71 60.278 0.73 9.19 216.2 14.23
5/3/2022 3:30:00 PM 15.75 60.35 0.729 9.27 214.9 14.21
5/3/2022 3:45:00 PM 15.76 60.368 0.717 9.63 227 14.59
5/3/2022 4:00:00 PM 15.77 60.386 0.731 9.28 245.8 14.5
5/3/2022 4:15:00 PM 15.78 60.404 0.732 9.07 274.7 14.39
5/3/2022 4:30:00 PM 15.81 60.458 0.73 9.35 261.9 14.36
5/3/2022 4:45:00 PM 15.83 60.494 0.73 9.6 278.2 14.31
5/3/2022 5:00:00 PM 15.86 60.548 0.729 9.6 283.1 14.24
5/3/2022 5:15:00 PM 15.91 60.638 0.729 9.29 266.6 14.19
5/3/2022 5:30:00 PM 15.94 60.692 0.73 9.11 263.7 14.09
5/3/2022 5:45:00 PM 15.94 60.692 0.729 9.1 311.3 13.96
5/3/2022 6:00:00 PM 15.9 60.62 0.729 9.11 360.6 13.77
5/3/2022 6:15:00 PM 15.85 60.53 0.73 9.2 395.8 13.51
5/3/2022 6:30:00 PM 15.79 60.422 0.73 9.19 432.1 13.28
5/3/2022 6:45:00 PM 15.72 60.296 0.731 9.08 448.9 12.97
5/3/2022 7:00:00 PM 15.66 60.188 0.732 9.01 455.9 12.68
5/3/2022 7:15:00 PM 15.61 60.098 0.732 8.99 461.9 12.41
5/3/2022 7:30:00 PM 15.56 60.008 0.732 9.01 509.4 12.14
5/3/2022 7:45:00 PM 15.52 59.936 0.734 8.99 600.8 11.83
5/3/2022 8:00:00 PM 15.48 59.864 0.734 9.15 510.4 11.56
5/3/2022 8:15:00 PM 15.43 59.774 0.735 9.45 582.9 11.24
5/3/2022 8:30:00 PM 15.37 59.666 0.735 9.2 579.3 10.96
5/3/2022 8:45:00 PM 15.32 59.576 0.735 9.15 578.3 10.69
5/3/2022 9:00:00 PM 15.27 59.486 0.735 9.13 614.4 10.43
5/3/2022 9:15:00 PM 15.22 59.396 0.736 9.3 709.1 10.23
5/3/2022 9:30:00 PM 15.17 59.306 0.737 9.32 707.9 10.01
5/3/2022 9:45:00 PM 15.11 59.198 0.737 9.29 824.1 9.84
5/3/2022 10:00:00 PM 15.06 59.108 0.738 9.26 876.2 9.66
5/3/2022 10:15:00 PM 15.01 59.018 0.738 9.33 894.1 9.52
5/3/2022 10:30:00 PM 14.96 58.928 0.74 9.23 882.6 9.38
5/3/2022 10:45:00 PM 14.93 58.874 0.74 9.22 1039 9.25
5/3/2022 11:00:00 PM 14.89 58.802 0.741 9.05 901.2 9.14
5/3/2022 11:15:00 PM 14.86 58.748 0.742 9.15 1005 9.04
5/3/2022 11:30:00 PM 14.83 58.694 0.741 9.25 1066 8.94
5/3/2022 11:45:00 PM 14.81 58.658 0.742 9.2 1169 8.86
5/4/2022 12:00:00 AM 14.78 58.604 0.743 9.36 1127 8.79
5/4/2022 12:15:00 AM 14.74 58.532 0.743 9.47 1141 8.71
5/4/2022 12:30:00 AM 14.71 58.478 0.742 9.18 1260 8.61
5/4/2022 12:45:00 AM 14.66 58.388 0.739 9.04 1351 8.6
5/4/2022 1:00:00 AM 14.61 58.298 0.736 8.94 1436 8.61
5/4/2022 1:15:00 AM 14.58 58.244 0.736 9 1478 8.52
5/4/2022 1:30:00 AM 14.54 58.172 0.731 8.97 1501 8.45
5/4/2022 1:45:00 AM 14.5 58.1 0.733 9.28 1459 8.38
5/4/2022 2:00:00 AM 14.47 58.046 0.732 9.06 1612 8.32
5/4/2022 2:15:00 AM 14.42 57.956 0.732 9.06 1625 8.27
5/4/2022 2:30:00 AM 14.38 57.884 0.732 9.05 1653 8.23
5/4/2022 2:45:00 AM 14.33 57.794 0.732 9.31 1604 8.18
5/4/2022 3:00:00 AM 14.3 57.74 0.731 9.03 1637 8.14
5/4/2022 3:15:00 AM 14.26 57.668 0.731 8.91 1854 8.12
5/4/2022 3:30:00 AM 14.23 57.614 0.733 8.96 1697 8.1
5/4/2022 3:45:00 AM 14.19 57.542 0.734 9.11 1870 8.08
5/4/2022 4:00:00 AM 14.17 57.506 0.733 9.16 1661 8.07
5/4/2022 4:15:00 AM 14.13 57.434 0.732 9.1 1619 8.03
5/4/2022 4:30:00 AM 14.09 57.362 0.73 9.08 1656 8.03
5/4/2022 4:45:00 AM 14.06 57.308 0.73 9.16 1638 8
5/4/2022 5:00:00 AM 14.03 57.254 0.728 9.14 1715 7.98
5/4/2022 5:15:00 AM 14 57.2 0.73 9.17 1539 7.98
5/4/2022 5:30:00 AM 13.97 57.146 0.731 9.12 2094 7.97
5/4/2022 5:45:00 AM 13.94 57.092 0.729 9.14 1395 7.97
5/4/2022 6:00:00 AM 13.92 57.056 0.728 9.3 1662 7.97
5/4/2022 6:15:00 AM 13.89 57.002 0.727 9.23 1567 7.95
5/4/2022 6:30:00 AM 13.87 56.966 0.726 9.25 2079 7.96
5/4/2022 6:45:00 AM 13.84 56.912 0.727 9.02 1847 7.95
5/4/2022 7:00:00 AM 13.82 56.876 0.723 8.72 1785 7.92
5/4/2022 7:15:00 AM 13.81 56.858 0.719 8.61 1936 7.91
5/4/2022 7:30:00 AM 13.8 56.84 0.718 8.59 1896 7.91
5/4/2022 7:45:00 AM 13.79 56.822 0.718 8.59 1603 7.93
5/4/2022 8:00:00 AM 13.78 56.804 0.72 8.57 1790 8.03
5/4/2022 8:15:00 AM 13.77 56.786 0.723 8.56 1895 8.14
5/4/2022 8:30:00 AM 13.76 56.768 0.725 8.53 1712 8.24
5/4/2022 8:45:00 AM 13.76 56.768 0.726 8.5 1628 8.4
5/4/2022 9:00:00 AM 13.77 56.786 0.728 8.52 1760 8.61
5/4/2022 9:15:00 AM 13.8 56.84 0.725 8.59 82.79 8.87
5/4/2022 9:30:00 AM 13.82 56.876 0.73 8.53 86.96 9.12
5/4/2022 9:45:00 AM 13.84 56.912 0.73 8.51 277.4 9.24
5/4/2022 10:00:00 AM 13.85 56.93 0.729 8.52 132.5 9.42
5/4/2022 10:15:00 AM 13.86 56.948 0.726 8.59 120.6 9.54
5/4/2022 10:30:00 AM 13.88 56.984 0.721 8.6 117.6 9.6
5/4/2022 10:45:00 AM 13.89 57.002 0.722 8.56 125.6 9.78
5/4/2022 11:00:00 AM 13.9 57.02 0.721 8.59 133 9.92
5/4/2022 11:15:00 AM 13.92 57.056 0.722 8.58 143.3 10.09
5/4/2022 11:30:00 AM 13.93 57.074 0.722 8.61 585.3 10.18
5/4/2022 11:45:00 AM 13.95 57.11 0.724 8.61 185.8 10.33
5/4/2022 12:00:00 PM 13.96 57.128 0.728 8.61 331.4 10.47
5/4/2022 12:15:00 PM 13.96 57.128 0.729 8.71 850 10.58
5/4/2022 12:30:00 PM 13.98 57.164 0.73 8.64 253.3 10.77
5/4/2022 12:45:00 PM 13.99 57.182 0.729 8.67 445.2 10.99
5/4/2022 1:00:00 PM 13.98 57.164 0.728 8.69 354.9 11.05
5/4/2022 1:15:00 PM 13.98 57.164 0.726 8.72 354.5 11.15
5/4/2022 1:30:00 PM 13.98 57.164 0.721 8.74 347.8 11.26
5/4/2022 1:45:00 PM 13.95 57.11 0.715 8.78 375.1 11.25
5/4/2022 2:00:00 PM 13.93 57.074 0.707 8.76 363.8 11.23
5/4/2022 2:15:00 PM 13.93 57.074 0.698 8.73 388.7 11.2
5/4/2022 2:30:00 PM 13.93 57.074 0.687 8.87 382.6 11.17
5/4/2022 2:45:00 PM 13.97 57.146 0.677 8.92 391.3 11.29
5/4/2022 3:00:00 PM 14.03 57.254 0.668 8.88 398.1 11.47
5/4/2022 3:15:00 PM 14.09 57.362 0.659 8.86 417.8 11.63
5/4/2022 3:30:00 PM 14.14 57.452 0.652 9.04 434.8 11.72
5/4/2022 3:45:00 PM 14.2 57.56 0.647 9.01 832.5 11.8
5/4/2022 4:00:00 PM 14.33 57.794 0.643 9.05 486.1 11.99
5/4/2022 4:15:00 PM 14.47 58.046 0.641 9.12 470.6 12.2
5/4/2022 4:30:00 PM 14.56 58.208 0.64 9.25 533.5 12.35
5/4/2022 4:45:00 PM 14.66 58.388 0.641 9.19 563 12.47
5/4/2022 5:00:00 PM 14.72 58.496 0.643 9.27 471.5 12.61
5/4/2022 5:15:00 PM 14.74 58.532 0.646 9.32 485.7 12.6
5/4/2022 5:30:00 PM 14.76 58.568 0.649 9.4 527.9 12.69
5/4/2022 5:45:00 PM 14.74 58.532 0.652 9.41 715.3 12.62
5/4/2022 6:00:00 PM 14.7 58.46 0.657 9.45 724.6 12.47
5/4/2022 6:15:00 PM 14.66 58.388 0.658 9.49 521.3 12.34
5/4/2022 6:30:00 PM 14.64 58.352 0.662 9.53 571 12.25
5/4/2022 6:45:00 PM 14.63 58.334 0.664 9.61 603.1 12.09
5/4/2022 7:00:00 PM 14.61 58.298 0.668 9.66 700.1 11.84
5/4/2022 7:15:00 PM 14.59 58.262 0.67 9.56 561.7 11.63
5/4/2022 7:30:00 PM 14.56 58.208 0.673 9.57 674.9 11.3
5/4/2022 7:45:00 PM 14.54 58.172 0.675 9.51 1372 11
5/4/2022 8:00:00 PM 14.51 58.118 0.678 9.5 727.2 10.72
5/4/2022 8:15:00 PM 14.49 58.082 0.68 9.43 577.5 10.48
5/4/2022 8:30:00 PM 14.46 58.028 0.682 9.42 680.3 10.27
5/4/2022 8:45:00 PM 14.43 57.974 0.684 9.36 777.9 10.06
5/4/2022 9:00:00 PM 14.4 57.92 0.687 9.39 711.7 9.89
5/4/2022 9:15:00 PM 14.36 57.848 0.69 9.53 705.2 9.73
5/4/2022 9:30:00 PM 14.32 57.776 0.693 9.42 786.2 9.59
5/4/2022 9:45:00 PM 14.29 57.722 0.695 9.22 772.7 9.46
5/4/2022 10:00:00 PM 14.25 57.65 0.695 9.21 940.2 9.33
5/4/2022 10:15:00 PM 14.21 57.578 0.699 8.81 771.5 9.22
5/4/2022 10:30:00 PM 14.17 57.506 0.7 8.79 748.8 9.13
5/4/2022 10:45:00 PM 14.14 57.452 0.701 8.98 691.1 9.04
5/4/2022 11:00:00 PM 14.1 57.38 0.703 8.83 767.3 8.96
5/4/2022 11:15:00 PM 14.06 57.308 0.705 8.89 620.2 8.89
5/4/2022 11:30:00 PM 14.02 57.236 0.708 8.93 795.7 8.84
5/4/2022 11:45:00 PM 13.98 57.164 0.708 8.92 823.4 8.76
5/5/2022 12:00:00 AM 13.94 57.092 0.71 8.94 921 8.71
5/5/2022 12:15:00 AM 13.91 57.038 0.711 8.81 1009 8.66
5/5/2022 12:30:00 AM 13.88 56.984 0.713 8.72 814 8.63
5/5/2022 12:45:00 AM 13.84 56.912 0.714 9.03 972.1 8.59
5/5/2022 1:00:00 AM 13.81 56.858 0.715 8.87 620.8 8.56
5/5/2022 1:15:00 AM 13.78 56.804 0.716 8.95 804.4 8.52
5/5/2022 1:30:00 AM 13.76 56.768 0.717 8.7 690.3 8.49
5/5/2022 1:45:00 AM 13.74 56.732 0.718 8.59 596.3 8.46
5/5/2022 2:00:00 AM 13.73 56.714 0.719 9.16 636.2 8.43
5/5/2022 2:15:00 AM 13.72 56.696 0.719 8.58 744.2 8.39
5/5/2022 2:30:00 AM 13.71 56.678 0.72 9.11 761.8 8.38
5/5/2022 2:45:00 AM 13.69 56.642 0.721 8.63 1044 8.37
5/5/2022 3:00:00 AM 13.68 56.624 0.721 8.68 1002 8.35
5/5/2022 3:15:00 AM 13.67 56.606 0.722 8.66 679.3 8.33
5/5/2022 3:30:00 AM 13.65 56.57 0.722 8.51 722.8 8.31
5/5/2022 3:45:00 AM 13.63 56.534 0.724 8.71 710.1 8.3
5/5/2022 4:00:00 AM 13.61 56.498 0.725 8.81 606.3 8.3
5/5/2022 4:15:00 AM 13.59 56.462 0.725 9.26 693.3 8.29
5/5/2022 4:30:00 AM 13.56 56.408 0.726 9.44 559.2 8.27
5/5/2022 4:45:00 AM 13.52 56.336 0.728 9.37 559.1 8.27
5/5/2022 5:00:00 AM 13.48 56.264 0.73 9.35 533.2 8.27
5/5/2022 5:15:00 AM 13.44 56.192 0.731 9.03 524 8.25
5/5/2022 5:30:00 AM 13.4 56.12 0.731 8.88 503 8.26
5/5/2022 5:45:00 AM 13.36 56.048 0.731 8.97 544.6 8.27
5/5/2022 6:00:00 AM 13.32 55.976 0.732 9.08 509 8.27
5/5/2022 6:15:00 AM 13.27 55.886 0.734 9.03 602.3 8.28
5/5/2022 6:30:00 AM 13.24 55.832 0.733 9.01 531.9 8.31
5/5/2022 6:45:00 AM 13.21 55.778 0.735 8.99 549.5 8.38
5/5/2022 7:00:00 AM 13.18 55.724 0.734 8.92 626.1 8.48
5/5/2022 7:15:00 AM 13.16 55.688 0.737 9.03 643.4 8.59
5/5/2022 7:30:00 AM 13.16 55.688 0.736 8.99 752.3 8.76
5/5/2022 7:45:00 AM 13.18 55.724 0.738 9 772.2 8.98
5/5/2022 8:00:00 AM 13.21 55.778 0.738 9.09 681.4 9.26
5/5/2022 8:15:00 AM 13.25 55.85 0.737 9.09 813.9 9.54
5/5/2022 8:30:00 AM 13.32 55.976 0.737 8.74 742.4 9.85
5/5/2022 8:45:00 AM 13.4 56.12 0.738 9.07 766 10.17
5/5/2022 9:00:00 AM 13.5 56.3 0.738 9.12 842.2 10.49
5/5/2022 9:15:00 AM 13.6 56.48 0.737 9.08 837.5 10.77
5/5/2022 9:30:00 AM 13.72 56.696 0.737 9.08 748.5 11.07
5/5/2022 9:45:00 AM 13.86 56.948 0.736 9.12 742.2 11.34
5/5/2022 10:00:00 AM 13.98 57.164 0.737 9.11 722.9 11.61
5/5/2022 10:15:00 AM 14.12 57.416 0.737 9.09 733.6 11.88
5/5/2022 10:30:00 AM 14.26 57.668 0.733 9.16 828.1 12.09
5/5/2022 10:45:00 AM 14.4 57.92 0.737 9.21 743.7 12.32
5/5/2022 11:00:00 AM 14.56 58.208 0.732 9.08 671.5 12.54
5/5/2022 11:15:00 AM 14.73 58.514 0.732 9.19 590.9 12.76
5/5/2022 11:30:00 AM 14.89 58.802 0.736 9.16 853.3 12.86
5/5/2022 11:45:00 AM 15.06 59.108 0.735 9.15 722 13.01
5/5/2022 12:00:00 PM 15.24 59.432 0.736 9.22 623.1 13.14
5/5/2022 12:15:00 PM 15.41 59.738 0.734 9.24 749 13.28
5/5/2022 12:30:00 PM 15.57 60.026 0.734 9.35 603.1 13.43
5/5/2022 12:45:00 PM 15.73 60.314 0.734 9.35 728 13.63
5/5/2022 1:00:00 PM 15.87 60.566 0.734 9.16 771.8 13.83
5/5/2022 1:15:00 PM 15.97 60.746 0.733 8.95 799.6 13.94
5/5/2022 1:30:00 PM 16.04 60.872 0.733 8.96 733.7 13.98
5/5/2022 1:45:00 PM 16.14 61.052 0.732 8.95 686.4 14.17
5/5/2022 2:00:00 PM 16.24 61.232 0.732 8.93 719.6 14.27
5/5/2022 2:15:00 PM 16.32 61.376 0.731 8.98 808.9 14.33
5/5/2022 2:30:00 PM 16.43 61.574 0.731 8.92 559.8 14.4
5/5/2022 2:45:00 PM 16.52 61.736 0.73 8.94 913.3 14.34
5/5/2022 3:00:00 PM 16.61 61.898 0.729 8.91 621.7 14.41
5/5/2022 3:15:00 PM 16.7 62.06 0.73 8.91 1017 14.41
5/5/2022 3:30:00 PM 16.82 62.276 0.729 8.92 941.1 14.35
5/5/2022 3:45:00 PM 16.92 62.456 0.73 9.01 751.3 14.33
5/5/2022 4:00:00 PM 17 62.6 0.73 8.96 1173 14.28
5/5/2022 4:15:00 PM 17.05 62.69 0.731 8.96 765.6 14.24
5/5/2022 4:30:00 PM 17.07 62.726 0.73 8.89 918.3 14.16
5/5/2022 4:45:00 PM 17.07 62.726 0.732 8.93 821.6 14.02
5/5/2022 5:00:00 PM 17.04 62.672 0.731 8.95 796.4 13.9
5/5/2022 5:15:00 PM 16.97 62.546 0.731 8.91 904.6 13.72
5/5/2022 5:30:00 PM 16.87 62.366 0.732 8.91 895.6 13.46
5/5/2022 5:45:00 PM 16.8 62.24 0.731 8.87 934.3 13.3
5/5/2022 6:00:00 PM 16.72 62.096 0.731 8.87 961.5 13.1
5/5/2022 6:15:00 PM 16.64 61.952 0.731 8.86 1049 12.85
5/5/2022 6:30:00 PM 16.57 61.826 0.727 8.84 966.6 12.57
5/5/2022 6:45:00 PM 16.52 61.736 0.731 8.81 688.1 12.28
5/5/2022 7:00:00 PM 16.46 61.628 0.73 8.84 630.6 12
5/5/2022 7:15:00 PM 16.41 61.538 0.733 8.8 582.9 11.77
5/5/2022 7:30:00 PM 16.35 61.43 0.733 8.83 587.4 11.53
5/5/2022 7:45:00 PM 16.3 61.34 0.734 8.74 635.4 11.26
5/5/2022 8:00:00 PM 16.23 61.214 0.735 8.77 557.3 11
5/5/2022 8:15:00 PM 16.16 61.088 0.735 8.65 688.3 10.7
5/5/2022 8:30:00 PM 16.1 60.98 0.736 8.62 599.5 10.43
5/5/2022 8:45:00 PM 16.03 60.854 0.736 8.59 625.1 10.14
5/5/2022 9:00:00 PM 15.97 60.746 0.737 8.57 661.6 9.93
5/5/2022 9:15:00 PM 15.91 60.638 0.738 8.55 731.9 9.71
5/5/2022 9:30:00 PM 15.85 60.53 0.738 8.53 632.6 9.53
5/5/2022 9:45:00 PM 15.8 60.44 0.738 8.5 639.3 9.36
5/5/2022 10:00:00 PM 15.76 60.368 0.739 8.5 686.1 9.19
5/5/2022 10:15:00 PM 15.72 60.296 0.74 8.47 594.7 9.04
5/5/2022 10:30:00 PM 15.68 60.224 0.739 8.47 691.5 8.91
5/5/2022 10:45:00 PM 15.65 60.17 0.739 8.54 676.2 8.8
5/5/2022 11:00:00 PM 15.62 60.116 0.74 8.45 791.7 8.68
5/5/2022 11:15:00 PM 15.59 60.062 0.741 8.44 625.9 8.6
5/5/2022 11:30:00 PM 15.56 60.008 0.742 8.41 535.6 8.49
5/5/2022 11:45:00 PM 15.53 59.954 0.743 8.42 551.9 8.42
5/6/2022 12:00:00 AM 15.5 59.9 0.743 8.45 640.4 8.33
5/6/2022 12:15:00 AM 15.46 59.828 0.741 8.38 668 8.28
5/6/2022 12:30:00 AM 15.42 59.756 0.744 8.41 863.4 8.22
5/6/2022 12:45:00 AM 15.38 59.684 0.743 8.38 645.8 8.16
5/6/2022 1:00:00 AM 15.35 59.63 0.743 8.37 979.4 8.11
5/6/2022 1:15:00 AM 15.31 59.558 0.744 8.34 659.9 8.05
5/6/2022 1:30:00 AM 15.28 59.504 0.744 8.35 594.6 7.98
5/6/2022 1:45:00 AM 15.24 59.432 0.746 8.34 674.5 7.95
5/6/2022 2:00:00 AM 15.2 59.36 0.746 8.33 637.9 7.92
5/6/2022 2:15:00 AM 15.17 59.306 0.744 8.38 670.8 7.9
5/6/2022 2:30:00 AM 15.13 59.234 0.746 8.3 586.8 7.86
5/6/2022 2:45:00 AM 15.1 59.18 0.743 8.31 583.3 7.83
5/6/2022 3:00:00 AM 15.06 59.108 0.744 8.3 660.5 7.81
5/6/2022 3:15:00 AM 15.03 59.054 0.745 8.29 747.3 7.8
5/6/2022 3:30:00 AM 15 59 0.745 8.29 743 7.79
5/6/2022 3:45:00 AM 14.97 58.946 0.746 8.29 728.4 7.78
5/6/2022 4:00:00 AM 14.94 58.892 0.744 8.29 781.8 7.76
5/6/2022 4:15:00 AM 14.91 58.838 0.743 8.28 660.9 7.73
5/6/2022 4:30:00 AM 14.88 58.784 0.743 8.27 667.4 7.71
5/6/2022 4:45:00 AM 14.85 58.73 0.746 8.28 656.6 7.71
5/6/2022 5:00:00 AM 14.82 58.676 0.746 8.28 640.7 7.71
5/6/2022 5:15:00 AM 14.8 58.64 0.746 8.29 660.3 7.7
5/6/2022 5:30:00 AM 14.77 58.586 0.747 8.39 638.1 7.71
5/6/2022 5:45:00 AM 14.75 58.55 0.743 8.27 647.7 7.71
5/6/2022 6:00:00 AM 14.72 58.496 0.742 8.29 571.2 7.7
5/6/2022 6:15:00 AM 14.7 58.46 0.742 8.28 662.8 7.72
5/6/2022 6:30:00 AM 14.68 58.424 0.742 8.28 686.9 7.72
5/6/2022 6:45:00 AM 14.66 58.388 0.741 8.28 684.7 7.77
5/6/2022 7:00:00 AM 14.63 58.334 0.74 8.28 669 7.76
5/6/2022 7:15:00 AM 14.61 58.298 0.739 8.27 738.6 7.8
5/6/2022 7:30:00 AM 14.59 58.262 0.738 8.28 701.7 7.86
5/6/2022 7:45:00 AM 14.58 58.244 0.74 8.35 701.6 7.93
5/6/2022 8:00:00 AM 14.56 58.208 0.735 8.4 686.6 8
5/6/2022 8:15:00 AM 14.55 58.19 0.734 8.27 705.2 8.1
5/6/2022 8:30:00 AM 14.53 58.154 0.733 8.26 678.4 8.2
5/6/2022 8:45:00 AM 14.52 58.136 0.733 8.29 746.5 8.28
5/6/2022 9:00:00 AM 14.51 58.118 0.731 8.28 686.2 8.4
5/6/2022 9:15:00 AM 14.51 58.118 0.73 8.3 695.9 8.54
5/6/2022 9:30:00 AM 14.5 58.1 0.729 8.31 705.8 8.64
5/6/2022 9:45:00 AM 14.49 58.082 0.728 8.31 729.3 8.75
5/6/2022 10:00:00 AM 14.48 58.064 0.727 8.31 725 8.86
5/6/2022 10:15:00 AM 14.47 58.046 0.726 8.31 700.1 8.88
5/6/2022 10:30:00 AM 14.44 57.992 0.728 8.31 709.5 8.95
5/6/2022 10:45:00 AM 14.41 57.938 0.723 8.31 664.8 8.94
5/6/2022 11:00:00 AM 14.38 57.884 0.723 8.3 757.8 8.94
5/6/2022 11:15:00 AM 14.34 57.812 0.72 8.31 721.3 9.02
5/6/2022 11:30:00 AM 14.32 57.776 0.719 8.31 692.9 9.09
5/6/2022 11:45:00 AM 14.29 57.722 0.717 8.31 680.9 9.17
5/6/2022 12:00:00 PM 14.26 57.668 0.715 8.31 612.1 9.28
5/6/2022 12:15:00 PM 14.24 57.632 0.713 8.33 680 9.39
5/6/2022 12:30:00 PM 14.22 57.596 0.714 8.34 691.1 9.46
5/6/2022 12:45:00 PM 14.19 57.542 0.708 8.33 674.3 9.52
5/6/2022 1:00:00 PM 14.17 57.506 0.708 8.33 693.8 9.61
5/6/2022 1:15:00 PM 14.16 57.488 0.706 8.33 653.1 9.66
5/6/2022 1:30:00 PM 14.14 57.452 0.697 8.34 703.9 9.65
5/6/2022 1:45:00 PM 14.12 57.416 0.693 8.33 683.7 9.64
5/6/2022 2:00:00 PM 14.11 57.398 0.691 8.34 712.9 9.68
5/6/2022 2:15:00 PM 14.08 57.344 0.683 8.33 768.5 9.7
5/6/2022 2:30:00 PM 14.06 57.308 0.679 8.32 815.3 9.66
5/6/2022 2:45:00 PM 14.03 57.254 0.675 8.32 786 9.62
5/6/2022 3:00:00 PM 14.01 57.218 0.674 8.31 846.7 9.6
5/6/2022 3:15:00 PM 13.98 57.164 0.671 8.31 837.8 9.53
5/6/2022 3:30:00 PM 13.95 57.11 0.669 8.3 876.4 9.48
5/6/2022 3:45:00 PM 13.93 57.074 0.665 8.31 953.5 9.42
5/6/2022 4:00:00 PM 13.9 57.02 0.662 8.29 941.1 9.36
5/6/2022 4:15:00 PM 13.88 56.984 0.66 8.29 1023 9.3
5/6/2022 4:30:00 PM 13.85 56.93 0.656 8.31 1004 9.21
5/6/2022 4:45:00 PM 13.82 56.876 0.654 8.28 1050 9.14
5/6/2022 5:00:00 PM 13.8 56.84 0.651 8.28 1014 9.08
5/6/2022 5:15:00 PM 13.79 56.822 0.645 8.3 1017 9.01
5/6/2022 5:30:00 PM 13.78 56.804 0.642 8.28 941.4 8.95
5/6/2022 5:45:00 PM 13.77 56.786 0.641 8.21 973.7 8.89
5/6/2022 6:00:00 PM 13.76 56.768 0.641 8.21 1069 8.85
5/6/2022 6:15:00 PM 13.74 56.732 0.64 8.2 986.4 8.78
5/6/2022 6:30:00 PM 13.72 56.696 0.635 8.19 1029 8.69
5/6/2022 6:45:00 PM 13.72 56.696 0.624 8.17 1103 8.63
5/6/2022 7:00:00 PM 13.71 56.678 0.605 8.17 1123 8.51
5/6/2022 7:15:00 PM 13.71 56.678 0.584 8.14 1251 8.4
5/6/2022 7:30:00 PM 13.71 56.678 0.563 8.13 1352 8.3
5/6/2022 7:45:00 PM 13.72 56.696 0.541 8.15 1362 8.23
5/6/2022 8:00:00 PM 13.72 56.696 0.521 8.14 1371 8.19
5/6/2022 8:15:00 PM 13.71 56.678 0.503 8.19 1332 8.13
5/6/2022 8:30:00 PM 13.71 56.678 0.488 8.17 1431 8.12
5/6/2022 8:45:00 PM 13.7 56.66 0.479 8.16 1450 8.13
5/6/2022 9:00:00 PM 13.68 56.624 0.472 8.16 1536 8.08
5/6/2022 9:15:00 PM 13.67 56.606 0.467 8.13 1493 8.02
5/6/2022 9:30:00 PM 13.65 56.57 0.461 8.12 1584 8
5/6/2022 9:45:00 PM 13.64 56.552 0.454 8.14 1522 7.96
5/6/2022 10:00:00 PM 13.62 56.516 0.447 8.13 1618 7.96
5/6/2022 10:15:00 PM 13.61 56.498 0.441 8.09 1565 7.96
5/6/2022 10:30:00 PM 13.6 56.48 0.438 8.11 1899 7.97
5/6/2022 10:45:00 PM 13.57 56.426 0.435 8.07 1840 7.95
5/6/2022 11:00:00 PM 13.54 56.372 0.433 8.07 1876 7.96
5/6/2022 11:15:00 PM 13.51 56.318 0.431 8.06 2018 7.99
5/6/2022 11:30:00 PM 13.46 56.228 0.428 8.07 1774 8.04
5/6/2022 11:45:00 PM 13.41 56.138 0.424 8.07 1954 8.04
5/7/2022 12:00:00 AM 13.35 56.03 0.42 8.06 1853 8.03
5/7/2022 12:15:00 AM 13.3 55.94 0.418 8.06 1802 8.06
5/7/2022 12:30:00 AM 13.24 55.832 0.416 8.04 1822 8.08
5/7/2022 12:45:00 AM 13.18 55.724 0.415 8.03 1858 8.11
5/7/2022 1:00:00 AM 13.13 55.634 0.414 8.04 1500 8.13
5/7/2022 1:15:00 AM 13.07 55.526 0.415 8.04 1603 8.16
5/7/2022 1:30:00 AM 13.02 55.436 0.417 8.03 1489 8.17
5/7/2022 1:45:00 AM 12.96 55.328 0.421 8.02 1179 8.19
5/7/2022 2:00:00 AM 12.91 55.238 0.426 8.03 1183 8.15
5/7/2022 2:15:00 AM 12.87 55.166 0.433 8.03 1298 8.17
5/7/2022 2:30:00 AM 12.84 55.112 0.44 8.03 1248 8.21
5/7/2022 2:45:00 AM 12.81 55.058 0.448 8.04 1250 8.21
5/7/2022 3:00:00 AM 12.78 55.004 0.457 8.04 1323 8.2
5/7/2022 3:15:00 AM 12.75 54.95 0.466 8.03 1247 8.21
5/7/2022 3:30:00 AM 12.73 54.914 0.474 8.02 1316 8.24
5/7/2022 3:45:00 AM 12.71 54.878 0.482 8.04 1164 8.23
5/7/2022 4:00:00 AM 12.69 54.842 0.49 8.04 1332 8.24
5/7/2022 4:15:00 AM 12.66 54.788 0.497 8.04 1240 8.31
5/7/2022 4:30:00 AM 12.63 54.734 0.503 8.05 1386 8.35
5/7/2022 4:45:00 AM 12.6 54.68 0.509 8.05 1334 8.34
5/7/2022 5:00:00 AM 12.57 54.626 0.516 8.06 1221 8.38
5/7/2022 5:15:00 AM 12.54 54.572 0.519 8.07 1334 8.39
5/7/2022 5:30:00 AM 12.51 54.518 0.524 8.07 1551 8.41
5/7/2022 5:45:00 AM 12.48 54.464 0.527 8.09 1538 8.41
5/7/2022 6:00:00 AM 12.44 54.392 0.529 8.05 1645 8.43
5/7/2022 6:15:00 AM 12.42 54.356 0.532 8.08 1558 8.43
5/7/2022 6:30:00 AM 12.39 54.302 0.534 8.08 1731 8.46
5/7/2022 6:45:00 AM 12.37 54.266 0.534 8.06 1738 8.48
5/7/2022 7:00:00 AM 12.34 54.212 0.536 8.1 1761 8.53
5/7/2022 7:15:00 AM 12.32 54.176 0.536 8.1 1714 8.55
5/7/2022 7:30:00 AM 12.29 54.122 0.535 8.1 1810 8.57
5/7/2022 7:45:00 AM 12.27 54.086 0.535 8.07 1815 8.59
5/7/2022 8:00:00 AM 12.25 54.05 0.533 8.07 1947 8.63
5/7/2022 8:15:00 AM 12.22 53.996 0.528 8.07 2053 8.67
5/7/2022 8:30:00 AM 12.19 53.942 0.526 8.05 2028 8.68
5/7/2022 8:45:00 AM 12.17 53.906 0.525 8.05 2058 8.73
5/7/2022 9:00:00 AM 12.16 53.888 0.525 8.05 2016 8.75
5/7/2022 9:15:00 AM 12.14 53.852 0.523 8.